Provisional Data: West Branch Pine Creek near Galeton, PA


Please select a monitoring station.
Please select start date.
Please select start date.

<
Toggle Unit: C/F Toggle Unit: C/F
Sample Time Temperature (C) Temperature (F) Specific Conductivity (mS/cm) pH   Turbidity (NTU+) DO (mg/L)
12/23/2022 12:00:00 AM 2.14 35.852 0.043 7.01 1.69 12.64
12/23/2022 12:15:00 AM 2.15 35.87 0.043 7.01 1.68 12.62
12/23/2022 12:30:00 AM 2.18 35.924 0.043 7.02 1.64 12.6
12/23/2022 12:45:00 AM 2.21 35.978 0.043 7.01 1.76 12.58
12/23/2022 1:00:00 AM 2.24 36.032 0.043 7.01 1.85 12.56
12/23/2022 1:15:00 AM 2.25 36.05 0.043 7.03 1.93 12.55
12/23/2022 1:30:00 AM 2.27 36.086 0.043 7 1.89 12.53
12/23/2022 1:45:00 AM 2.29 36.122 0.043 7 2.23 12.52
12/23/2022 2:00:00 AM 2.31 36.158 0.043 6.99 2.07 12.5
12/23/2022 2:15:00 AM 2.32 36.176 0.043 6.99 2.23 12.49
12/23/2022 2:30:00 AM 2.34 36.212 0.042 6.98 2.47 12.48
12/23/2022 2:45:00 AM 2.36 36.248 0.042 7.01 2.71 12.47
12/23/2022 3:00:00 AM 2.37 36.266 0.042 6.99 2.8 12.45
12/23/2022 3:15:00 AM 2.37 36.266 0.042 6.97 2.92 12.44
12/23/2022 3:30:00 AM 2.37 36.266 0.042 6.96 3.06 12.43
12/23/2022 3:45:00 AM 2.37 36.266 0.042 6.95 3.31 12.42
12/23/2022 4:00:00 AM 2.38 36.284 0.042 6.95 3.51 12.41
12/23/2022 4:15:00 AM 2.39 36.302 0.042 6.98 4.03 12.4
12/23/2022 4:30:00 AM 2.4 36.32 0.042 6.94 4.27 12.39
12/23/2022 4:45:00 AM 2.41 36.338 0.042 6.94 4.26 12.37
12/23/2022 5:00:00 AM 2.42 36.356 0.042 6.93 4.28 12.36
12/23/2022 5:15:00 AM 2.42 36.356 0.042 6.95 5.01 12.35
12/23/2022 5:30:00 AM 2.44 36.392 0.042 6.93 4.53 12.35
12/23/2022 5:45:00 AM 2.44 36.392 0.042 7 4.59 12.33
12/23/2022 6:00:00 AM 2.45 36.41 0.042 6.93 4.73 12.32
12/23/2022 6:15:00 AM 2.46 36.428 0.042 6.93 5.05 12.32
12/23/2022 6:30:00 AM 2.47 36.446 0.042 6.92 4.9 12.31
12/23/2022 6:45:00 AM 2.48 36.464 0.041 6.94 4.69 12.3
12/23/2022 7:00:00 AM 2.49 36.482 0.041 6.93 4.65 12.29
12/23/2022 7:15:00 AM 2.52 36.536 0.041 6.96 4.54 12.28
12/23/2022 7:30:00 AM 2.54 36.572 0.041 6.92 4.55 12.27
12/23/2022 7:45:00 AM 2.55 36.59 0.041 6.92 4.67 12.27
12/23/2022 8:00:00 AM 2.57 36.626 0.041 6.97 4.4 12.27
12/23/2022 8:15:00 AM 2.58 36.644 0.041 6.92 4.49 12.27
12/23/2022 8:30:00 AM 2.6 36.68 0.041 6.94 4.32 12.27
12/23/2022 8:45:00 AM 2.62 36.716 0.041 6.95 4.2 12.29
12/23/2022 9:00:00 AM 2.63 36.734 0.041 6.94 4.27 12.3
12/23/2022 9:15:00 AM 2.62 36.716 0.041 6.9 4.41 12.31
12/23/2022 9:30:00 AM 2.55 36.59 0.041 6.96 4.28 12.32
12/23/2022 9:45:00 AM 2.48 36.464 0.041 6.93 4.67 12.34
12/23/2022 10:00:00 AM 2.45 36.41 0.041 6.98 4.75 12.38
12/23/2022 10:15:00 AM 2.43 36.374 0.042 6.95 4.61 12.44
12/23/2022 10:30:00 AM 2.34 36.212 0.042 7 5.41 12.47
12/23/2022 10:45:00 AM 2.28 36.104 0.042 6.97 4.82 12.52
12/23/2022 11:00:00 AM 2.23 36.014 0.042 6.97 4.72 12.56
12/23/2022 11:15:00 AM 2.17 35.906 0.042 6.98 4.56 12.6
12/23/2022 11:30:00 AM 2.09 35.762 0.042 7.05 5.1 12.63
12/23/2022 11:45:00 AM 1.99 35.582 0.042 6.98 4.66 12.66
12/23/2022 12:00:00 PM 1.93 35.474 0.043 7 4.78 12.7
12/23/2022 12:15:00 PM 1.84 35.312 0.043 6.98 4.75 12.74
12/23/2022 12:30:00 PM 1.78 35.204 0.043 7 4.61 12.79
12/23/2022 12:45:00 PM 1.7 35.06 0.043 7.01 4.62 12.83
12/23/2022 1:00:00 PM 1.63 34.934 0.043 6.98 4.42 12.85
12/23/2022 1:15:00 PM 1.52 34.736 0.043 6.94 4.45 12.89
12/23/2022 1:30:00 PM 1.4 34.52 0.043 6.99 4.55 12.94
12/23/2022 1:45:00 PM 1.34 34.412 0.043 7.01 4.38 12.98
12/23/2022 2:00:00 PM 1.25 34.25 0.043 6.98 4.39 13.01
12/23/2022 2:15:00 PM 1.14 34.052 0.043 6.98 4.27 13.05
12/23/2022 2:30:00 PM 1.06 33.908 0.043 6.97 4.02 13.09
12/23/2022 2:45:00 PM 1 33.8 0.043 6.94 3.89 13.11
12/23/2022 3:00:00 PM 0.91 33.638 0.043 6.99 3.96 13.15
12/23/2022 3:15:00 PM 0.81 33.458 0.043 6.95 4.1 13.17
12/23/2022 3:30:00 PM 0.73 33.314 0.043 6.95 4.26 13.19
12/23/2022 3:45:00 PM 0.61 33.098 0.043 6.94 3.92 13.22
12/23/2022 4:00:00 PM 0.52 32.936 0.043 6.92 4.08 13.24
12/23/2022 4:15:00 PM 0.4 32.72 0.043 6.93 4.14 13.26
12/23/2022 4:30:00 PM 0.32 32.576 0.043 6.8 4.09 13.26
12/23/2022 4:45:00 PM 0.22 32.396 0.043 6.91 4.1 13.26
12/23/2022 5:00:00 PM 0.13 32.234 0.043 6.87 3.97 13.27
12/23/2022 5:15:00 PM 0.05 32.09 0.043 6.87 4.01 13.28
12/23/2022 5:30:00 PM -0.01 31.982 0.043 6.87 4.14 13.29
12/23/2022 5:45:00 PM -0.08 31.856 0.043 6.86 4.08 13.31
12/23/2022 6:00:00 PM -0.11 31.802 0.043 6.84 4.22 13.33
12/23/2022 6:15:00 PM -0.11 31.802 0.043 6.82 4.11 13.34
12/23/2022 6:30:00 PM -0.11 31.802 0.043 6.74 4.19 13.36
12/23/2022 6:45:00 PM -0.11 31.802 0.043 6.87 4.15 13.38
12/23/2022 7:00:00 PM -0.11 31.802 0.043 6.95 4.04 13.39
12/23/2022 7:15:00 PM -0.11 31.802 0.044 6.84 3.83 13.41
12/23/2022 7:30:00 PM -0.11 31.802 0.044 6.76 3.8 13.41
12/23/2022 7:45:00 PM -0.11 31.802 0.044 6.85 3.73 13.43
12/23/2022 8:00:00 PM -0.11 31.802 0.044 6.85 3.75 13.43
12/23/2022 8:15:00 PM -0.11 31.802 0.044 6.78 3.63 13.44
12/23/2022 8:30:00 PM -0.11 31.802 0.044 6.91 3.48 13.44
12/23/2022 8:45:00 PM -0.11 31.802 0.044 6.92 3.53 13.44
12/23/2022 9:00:00 PM -0.1 31.82 0.044 6.84 3.56 13.45
12/23/2022 9:15:00 PM -0.1 31.82 0.044 6.89 3.82 13.45
12/23/2022 9:30:00 PM -0.11 31.802 0.044 6.96 3.45 13.45
12/23/2022 9:45:00 PM -0.1 31.82 0.044 6.87 3.49 13.44
12/23/2022 10:00:00 PM -0.1 31.82 0.044 6.88 3.31 13.45
12/23/2022 10:15:00 PM -0.1 31.82 0.044 6.83 3.36 13.45
12/23/2022 10:30:00 PM -0.1 31.82 0.044 6.81 3.33 13.45
12/23/2022 10:45:00 PM -0.11 31.802 0.044 6.83 3.21 13.46
12/23/2022 11:00:00 PM -0.11 31.802 0.044 6.84 3.19 13.47
12/23/2022 11:15:00 PM -0.1 31.82 0.044 6.83 3.3 13.47
12/23/2022 11:30:00 PM -0.1 31.82 0.044 6.84 3.23 13.47
12/23/2022 11:45:00 PM -0.1 31.82 0.044 6.83 3.19 13.47
12/24/2022 12:00:00 AM -0.1 31.82 0.044 6.89 3.3 13.47
12/24/2022 12:15:00 AM -0.1 31.82 0.044 6.95 3.15 13.47
12/24/2022 12:30:00 AM -0.1 31.82 0.044 6.81 3.14 13.47
12/24/2022 12:45:00 AM -0.1 31.82 0.044 6.91 3.32 13.47
12/24/2022 1:00:00 AM -0.1 31.82 0.044 6.86 3.33 13.47
12/24/2022 1:15:00 AM -0.1 31.82 0.044 6.87 3.25 13.47
12/24/2022 1:30:00 AM -0.1 31.82 0.044 6.91 3.31 13.47
12/24/2022 1:45:00 AM -0.1 31.82 0.044 6.91 3.25 13.48
12/24/2022 2:00:00 AM -0.1 31.82 0.043 6.91 3.23 13.47
12/24/2022 2:15:00 AM -0.1 31.82 0.043 6.98 3.26 13.48
12/24/2022 2:30:00 AM -0.1 31.82 0.043 6.87 3.08 13.48
12/24/2022 2:45:00 AM -0.1 31.82 0.043 6.89 3.03 13.49
12/24/2022 3:00:00 AM -0.1 31.82 0.043 6.84 3.02 13.48
12/24/2022 3:15:00 AM -0.1 31.82 0.043 6.79 3.06 13.48
12/24/2022 3:30:00 AM -0.1 31.82 0.043 6.92 2.91 13.48
12/24/2022 3:45:00 AM -0.1 31.82 0.043 6.94 3.01 13.47
12/24/2022 4:00:00 AM -0.1 31.82 0.043 6.79 2.99 13.48
12/24/2022 4:15:00 AM -0.1 31.82 0.043 6.96 3.01 13.48
12/24/2022 4:30:00 AM -0.1 31.82 0.043 6.84 2.96 13.47
12/24/2022 4:45:00 AM -0.1 31.82 0.043 6.79 3 13.47
12/24/2022 5:00:00 AM -0.1 31.82 0.043 6.81 2.87 13.47
12/24/2022 5:15:00 AM -0.1 31.82 0.043 6.94 2.97 13.48
12/24/2022 5:30:00 AM -0.1 31.82 0.043 6.79 2.99 13.47
12/24/2022 5:45:00 AM -0.1 31.82 0.043 6.88 2.93 13.47
12/24/2022 6:00:00 AM -0.1 31.82 0.043 6.85 2.91 13.46
12/24/2022 6:15:00 AM -0.1 31.82 0.043 6.85 2.93 13.46
12/24/2022 6:30:00 AM -0.1 31.82 0.043 6.84 2.94 13.46
12/24/2022 6:45:00 AM -0.1 31.82 0.043 6.89 2.91 13.46
12/24/2022 7:00:00 AM -0.1 31.82 0.043 6.92 2.89 13.45
12/24/2022 7:15:00 AM -0.1 31.82 0.043 6.81 2.86 13.46
12/24/2022 7:30:00 AM -0.1 31.82 0.043 6.79 2.92 13.46
12/24/2022 7:45:00 AM -0.1 31.82 0.043 6.8 2.9 13.46
12/24/2022 8:00:00 AM -0.1 31.82 0.043 6.83 2.9 13.47
12/24/2022 8:15:00 AM -0.1 31.82 0.043 6.83 2.95 13.49
12/24/2022 8:30:00 AM -0.1 31.82 0.043 6.85 2.97 13.52
12/24/2022 8:45:00 AM -0.1 31.82 0.042 6.84 2.9 13.55
12/24/2022 9:00:00 AM -0.1 31.82 0.042 6.84 2.9 13.57
12/24/2022 9:15:00 AM -0.1 31.82 0.042 6.82 2.88 13.6
12/24/2022 9:30:00 AM -0.1 31.82 0.042 6.84 2.92 13.61
12/24/2022 9:45:00 AM -0.1 31.82 0.042 6.97 2.97 13.62
12/24/2022 10:00:00 AM -0.1 31.82 0.042 6.84 3.07 13.64
12/24/2022 10:15:00 AM -0.1 31.82 0.042 6.87 3.17 13.64
12/24/2022 10:30:00 AM -0.1 31.82 0.042 6.9 3.19 13.65
12/24/2022 10:45:00 AM -0.1 31.82 0.042 6.89 3.26 13.65
12/24/2022 11:00:00 AM -0.1 31.82 0.042 6.89 3.51 13.65
12/24/2022 11:15:00 AM -0.1 31.82 0.042 6.9 3.28 13.65
12/24/2022 11:30:00 AM -0.1 31.82 0.042 6.89 3.44 13.65
12/24/2022 11:45:00 AM -0.1 31.82 0.042 6.88 3.8 13.65
12/24/2022 12:00:00 PM -0.1 31.82 0.042 6.86 3.86 13.65
12/24/2022 12:15:00 PM -0.1 31.82 0.042 6.91 3.99 13.64
12/24/2022 12:30:00 PM -0.1 31.82 0.042 6.96 4.26 13.63
12/24/2022 12:45:00 PM -0.1 31.82 0.041 6.95 4.98 13.63
12/24/2022 1:00:00 PM -0.07 31.874 0.041 6.97 5.06 13.62
12/24/2022 1:15:00 PM -0.06 31.892 0.041 7.01 5.33 13.62
12/24/2022 1:30:00 PM -0.01 31.982 0.041 7 5.07 13.63
12/24/2022 1:45:00 PM -0.01 31.982 0.041 7.02 4.81 13.63
12/24/2022 2:00:00 PM 0.01 32.018 0.041 6.91 4.22 13.62
12/24/2022 2:15:00 PM 0.01 32.018 0.041 6.91 4.59 13.62
12/24/2022 2:30:00 PM 0 32 0.041 7.02 4.65 13.62
12/24/2022 2:45:00 PM 0.01 32.018 0.041 6.96 4.87 13.62
12/24/2022 3:00:00 PM 0.03 32.054 0.041 6.96 4.77 13.6
12/24/2022 3:15:00 PM 0.05 32.09 0.041 6.96 4.88 13.59
12/24/2022 3:30:00 PM 0.07 32.126 0.041 6.9 4.73 13.57
12/24/2022 3:45:00 PM 0.09 32.162 0.041 6.92 4.36 13.56
12/24/2022 4:00:00 PM 0.1 32.18 0.041 6.91 4.3 13.54
12/24/2022 4:15:00 PM 0.11 32.198 0.041 7.02 4.08 13.51
12/24/2022 4:30:00 PM 0.11 32.198 0.041 6.89 4.03 13.49
12/24/2022 4:45:00 PM 0.12 32.216 0.041 7 3.95 13.48
12/24/2022 5:00:00 PM 0.12 32.216 0.041 6.89 3.75 13.45
12/24/2022 5:15:00 PM 0.13 32.234 0.041 6.89 3.69 13.42
12/24/2022 5:30:00 PM 0.14 32.252 0.041 6.92 3.69 13.4
12/24/2022 5:45:00 PM 0.14 32.252 0.041 7.01 3.5 13.39
12/24/2022 6:00:00 PM 0.14 32.252 0.041 6.92 3.68 13.38
12/24/2022 6:15:00 PM 0.15 32.27 0.042 6.88 3.54 13.37
12/24/2022 6:30:00 PM 0.16 32.288 0.042 6.9 3.62 13.37
12/24/2022 6:45:00 PM 0.16 32.288 0.042 6.87 3.45 13.37
12/24/2022 7:00:00 PM 0.17 32.306 0.042 6.93 3.63 13.37
12/24/2022 7:15:00 PM 0.19 32.342 0.042 6.93 3.37 13.35
12/24/2022 7:30:00 PM 0.2 32.36 0.042 6.92 3.6 13.35
12/24/2022 7:45:00 PM 0.21 32.378 0.042 6.85 3.36 13.35
12/24/2022 8:00:00 PM 0.2 32.36 0.042 6.85 3.33 13.35
12/24/2022 8:15:00 PM 0.2 32.36 0.042 6.87 3.4 13.35
12/24/2022 8:30:00 PM 0.2 32.36 0.042 6.88 3.21 13.35
12/24/2022 8:45:00 PM 0.21 32.378 0.042 6.9 3.31 13.34
12/24/2022 9:00:00 PM 0.2 32.36 0.042 6.9 3.16 13.35
12/24/2022 9:15:00 PM 0.21 32.378 0.042 6.92 3.18 13.35
12/24/2022 9:30:00 PM 0.21 32.378 0.042 6.92 3.27 13.35
12/24/2022 9:45:00 PM 0.21 32.378 0.042 6.96 3.28 13.35
12/24/2022 10:00:00 PM 0.22 32.396 0.042 6.96 3.28 13.35
12/24/2022 10:15:00 PM 0.22 32.396 0.042 6.93 3.15 13.35
12/24/2022 10:30:00 PM 0.23 32.414 0.041 6.93 3.09 13.35
12/24/2022 10:45:00 PM 0.24 32.432 0.041 6.9 3.08 13.35
12/24/2022 11:00:00 PM 0.24 32.432 0.041 6.83 3.1 13.35
12/24/2022 11:15:00 PM 0.25 32.45 0.041 6.9 3.16 13.34
12/24/2022 11:30:00 PM 0.26 32.468 0.041 6.91 2.94 13.34
12/24/2022 11:45:00 PM 0.25 32.45 0.041 6.94 2.86 13.34
12/25/2022 12:00:00 AM 0.26 32.468 0.041 6.93 2.98 13.33
12/25/2022 12:15:00 AM 0.26 32.468 0.041 6.93 2.88 13.33
12/25/2022 12:30:00 AM 0.28 32.504 0.041 6.83 2.97 13.33
12/25/2022 12:45:00 AM 0.29 32.522 0.041 6.88 3.11 13.33
12/25/2022 1:00:00 AM 0.31 32.558 0.041 6.92 2.82 13.32
12/25/2022 1:15:00 AM 0.32 32.576 0.041 6.86 2.82 13.32
12/25/2022 1:30:00 AM 0.33 32.594 0.041 6.89 2.88 13.31
12/25/2022 1:45:00 AM 0.34 32.612 0.041 6.86 2.85 13.3
12/25/2022 2:00:00 AM 0.35 32.63 0.041 6.97 2.79 13.3
12/25/2022 2:15:00 AM 0.37 32.666 0.041 6.89 2.73 13.29
12/25/2022 2:30:00 AM 0.39 32.702 0.041 6.96 2.69 13.29
12/25/2022 2:45:00 AM 0.39 32.702 0.041 6.89 2.8 13.29
12/25/2022 3:00:00 AM 0.4 32.72 0.041 6.92 2.73 13.28
12/25/2022 3:15:00 AM 0.41 32.738 0.041 6.93 2.65 13.28
12/25/2022 3:30:00 AM 0.42 32.756 0.041 6.9 2.76 13.27
12/25/2022 3:45:00 AM 0.43 32.774 0.041 6.89 2.89 13.27
12/25/2022 4:00:00 AM 0.45 32.81 0.041 6.89 2.67 13.26
12/25/2022 4:15:00 AM 0.47 32.846 0.041 6.88 2.73 13.26
12/25/2022 4:30:00 AM 0.48 32.864 0.041 6.88 2.63 13.25
12/25/2022 4:45:00 AM 0.49 32.882 0.041 6.88 2.65 13.25
12/25/2022 5:00:00 AM 0.5 32.9 0.041 6.88 2.58 13.24
12/25/2022 5:15:00 AM 0.51 32.918 0.041 6.89 2.56 13.25
12/25/2022 5:30:00 AM 0.52 32.936 0.041 6.87 2.66 13.24
12/25/2022 5:45:00 AM 0.53 32.954 0.041 6.88 2.66 13.24
12/25/2022 6:00:00 AM 0.54 32.972 0.041 6.91 2.61 13.24
12/25/2022 6:15:00 AM 0.54 32.972 0.041 6.89 2.52 13.24
12/25/2022 6:30:00 AM 0.55 32.99 0.041 6.88 2.43 13.23
12/25/2022 6:45:00 AM 0.56 33.008 0.041 6.89 2.56 13.24
12/25/2022 7:00:00 AM 0.56 33.008 0.041 6.89 2.61 13.24
12/25/2022 7:15:00 AM 0.57 33.026 0.041 6.94 2.58 13.24
12/25/2022 7:30:00 AM 0.57 33.026 0.041 6.88 2.64 13.24
12/25/2022 7:45:00 AM 0.57 33.026 0.041 6.89 2.48 13.25
12/25/2022 8:00:00 AM 0.58 33.044 0.041 6.93 2.54 13.25
12/25/2022 8:15:00 AM 0.58 33.044 0.041 6.94 2.52 13.28
12/25/2022 8:30:00 AM 0.6 33.08 0.041 6.95 2.52 13.3
12/25/2022 8:45:00 AM 0.62 33.116 0.041 6.95 2.44 13.33
12/25/2022 9:00:00 AM 0.65 33.17 0.041 6.9 2.41 13.35
12/25/2022 9:15:00 AM 0.68 33.224 0.041 6.9 2.33 13.37
12/25/2022 9:30:00 AM 0.7 33.26 0.041 6.98 2.45 13.38
12/25/2022 9:45:00 AM 0.73 33.314 0.041 6.91 2.44 13.4
12/25/2022 10:00:00 AM 0.76 33.368 0.041 6.93 2.38 13.41
12/25/2022 10:15:00 AM 0.8 33.44 0.04 6.93 2.32 13.41
12/25/2022 10:30:00 AM 0.84 33.512 0.04 6.94 2.34 13.42
12/25/2022 10:45:00 AM 0.9 33.62 0.04 6.93 2.27 13.42
12/25/2022 11:00:00 AM 0.93 33.674 0.04 6.94 2.31 13.41
12/25/2022 11:15:00 AM 0.96 33.728 0.04 6.94 2.19 13.41
12/25/2022 11:30:00 AM 0.99 33.782 0.04 7.01 2.31 13.41
12/25/2022 11:45:00 AM 1.03 33.854 0.04 6.94 2.19 13.4
12/25/2022 12:00:00 PM 1.08 33.944 0.04 6.96 2.2 13.38
12/25/2022 12:15:00 PM 1.13 34.034 0.04 6.96 2.17 13.38
12/25/2022 12:30:00 PM 1.15 34.07 0.04 6.97 2.21 13.36
12/25/2022 12:45:00 PM 1.19 34.142 0.04 6.96 2.19 13.35
12/25/2022 1:00:00 PM 1.26 34.268 0.04 7.01 2.15 13.34
12/25/2022 1:15:00 PM 1.29 34.322 0.04 6.95 2.1 13.32
12/25/2022 1:30:00 PM 1.33 34.394 0.04 6.97 2.22 13.31
12/25/2022 1:45:00 PM 1.36 34.448 0.04 6.97 2.09 13.3
12/25/2022 2:00:00 PM 1.39 34.502 0.04 6.97 2.15 13.29
12/25/2022 2:15:00 PM 1.41 34.538 0.04 7.03 2.11 13.28
12/25/2022 2:30:00 PM 1.43 34.574 0.04 7 2.19 13.26
12/25/2022 2:45:00 PM 1.43 34.574 0.04 6.99 2.12 13.26
12/25/2022 3:00:00 PM 1.43 34.574 0.04 6.97 2.07 13.25
12/25/2022 3:15:00 PM 1.42 34.556 0.04 6.97 2.08 13.25
12/25/2022 3:30:00 PM 1.42 34.556 0.04 6.96 2.08 13.24
12/25/2022 3:45:00 PM 1.43 34.574 0.04 7.03 2.04 13.25
12/25/2022 4:00:00 PM 1.42 34.556 0.04 7.02 2.11 13.23
12/25/2022 4:15:00 PM 1.39 34.502 0.04 7.03 2.07 13.22
12/25/2022 4:30:00 PM 1.37 34.466 0.04 6.96 2.13 13.19
12/25/2022 4:45:00 PM 1.35 34.43 0.04 6.95 2.05 13.17
12/25/2022 5:00:00 PM 1.33 34.394 0.04 6.98 2.08 13.14
12/25/2022 5:15:00 PM 1.31 34.358 0.04 6.97 2.06 13.12
12/25/2022 5:30:00 PM 1.29 34.322 0.041 7 2.11 13.11
12/25/2022 5:45:00 PM 1.3 34.34 0.041 6.99 2.07 13.09
12/25/2022 6:00:00 PM 1.29 34.322 0.041 6.98 2.15 13.08
12/25/2022 6:15:00 PM 1.29 34.322 0.041 6.92 2.03 13.08
12/25/2022 6:30:00 PM 1.27 34.286 0.041 6.92 2.12 13.09
12/25/2022 6:45:00 PM 1.26 34.268 0.041 6.91 2.11 13.08
12/25/2022 7:00:00 PM 1.24 34.232 0.041 6.91 2.1 13.09
12/25/2022 7:15:00 PM 1.23 34.214 0.041 6.89 2.15 13.09
12/25/2022 7:30:00 PM 1.21 34.178 0.041 6.9 2.1 13.1
12/25/2022 7:45:00 PM 1.19 34.142 0.041 6.9 2.12 13.1
12/25/2022 8:00:00 PM 1.18 34.124 0.041 6.89 2.14 13.11
12/25/2022 8:15:00 PM 1.17 34.106 0.041 6.9 2.04 13.11
12/25/2022 8:30:00 PM 1.15 34.07 0.041 6.89 2.03 13.12
12/25/2022 8:45:00 PM 1.14 34.052 0.041 6.89 2.17 13.13
12/25/2022 9:00:00 PM 1.12 34.016 0.041 6.95 2.05 13.13
12/25/2022 9:15:00 PM 1.12 34.016 0.041 6.89 2.01 13.13
12/25/2022 9:30:00 PM 1.11 33.998 0.041 6.88 2.01 13.14
12/25/2022 9:45:00 PM 1.1 33.98 0.041 6.91 1.95 13.14
12/25/2022 10:00:00 PM 1.1 33.98 0.041 6.88 2.1 13.15
12/25/2022 10:15:00 PM 1.09 33.962 0.041 6.89 2.03 13.14
12/25/2022 10:30:00 PM 1.09 33.962 0.041 6.89 2.08 13.15
12/25/2022 10:45:00 PM 1.08 33.944 0.041 6.9 2.02 13.16
12/25/2022 11:00:00 PM 1.06 33.908 0.041 6.89 2.08 13.16
12/25/2022 11:15:00 PM 1.06 33.908 0.041 6.95 2 13.17
12/25/2022 11:30:00 PM 1.05 33.89 0.041 6.88 2.09 13.18
12/25/2022 11:45:00 PM 1.04 33.872 0.041 6.88 2.11 13.18
12/26/2022 12:00:00 AM 1.03 33.854 0.041 6.94 2.14 13.18
12/26/2022 12:15:00 AM 1.02 33.836 0.041 6.88 2.07 13.18
12/26/2022 12:30:00 AM 1.01 33.818 0.041 6.92 2.01 13.19
12/26/2022 12:45:00 AM 0.99 33.782 0.041 6.88 2.15 13.19
12/26/2022 1:00:00 AM 0.98 33.764 0.041 6.9 2.05 13.21
12/26/2022 1:15:00 AM 0.97 33.746 0.041 6.88 2.24 13.21
12/26/2022 1:30:00 AM 0.96 33.728 0.041 6.88 2.03 13.22
12/26/2022 1:45:00 AM 0.96 33.728 0.041 6.88 2.06 13.22
12/26/2022 2:00:00 AM 0.95 33.71 0.041 6.88 2.06 13.22
12/26/2022 2:15:00 AM 0.95 33.71 0.041 6.9 1.98 13.23
12/26/2022 2:30:00 AM 0.95 33.71 0.041 6.91 1.98 13.23
12/26/2022 2:45:00 AM 0.95 33.71 0.041 6.91 2.03 13.24
12/26/2022 3:00:00 AM 0.95 33.71 0.041 6.92 2.13 13.24
12/26/2022 3:15:00 AM 0.95 33.71 0.041 6.87 2.1 13.24
12/26/2022 3:30:00 AM 0.94 33.692 0.041 6.87 2.09 13.24
12/26/2022 3:45:00 AM 0.93 33.674 0.041 6.89 2.08 13.25
12/26/2022 4:00:00 AM 0.92 33.656 0.041 6.86 2.09 13.26
12/26/2022 4:15:00 AM 0.91 33.638 0.041 6.86 2.02 13.26
12/26/2022 4:30:00 AM 0.92 33.656 0.041 6.86 2.05 13.26
12/26/2022 4:45:00 AM 0.91 33.638 0.041 6.88 2.1 13.26
12/26/2022 5:00:00 AM 0.9 33.62 0.041 6.87 2.04 13.27
12/26/2022 5:15:00 AM 0.89 33.602 0.041 6.92 1.99 13.28
12/26/2022 5:30:00 AM 0.87 33.566 0.041 6.86 2 13.28
12/26/2022 5:45:00 AM 0.86 33.548 0.041 6.86 2.14 13.29
12/26/2022 6:00:00 AM 0.86 33.548 0.041 6.9 2.12 13.29
12/26/2022 6:15:00 AM 0.86 33.548 0.041 6.86 2.02 13.3
12/26/2022 6:30:00 AM 0.85 33.53 0.041 6.92 2.11 13.31
12/26/2022 6:45:00 AM 0.84 33.512 0.041 6.85 1.98 13.31
12/26/2022 7:00:00 AM 0.83 33.494 0.041 6.87 2.02 13.31
12/26/2022 7:15:00 AM 0.81 33.458 0.041 6.92 2.06 13.32
12/26/2022 7:30:00 AM 0.8 33.44 0.041 6.84 2.04 13.33
12/26/2022 7:45:00 AM 0.8 33.44 0.041 6.93 2.05 13.34
12/26/2022 8:00:00 AM 0.8 33.44 0.041 6.92 1.99 13.35
12/26/2022 8:15:00 AM 0.81 33.458 0.041 6.86 1.99 13.38
12/26/2022 8:30:00 AM 0.82 33.476 0.041 6.86 1.97 13.41
12/26/2022 8:45:00 AM 0.84 33.512 0.041 6.91 1.93 13.44
12/26/2022 9:00:00 AM 0.85 33.53 0.041 6.89 1.91 13.46
12/26/2022 9:15:00 AM 0.87 33.566 0.041 6.9 1.9 13.48
12/26/2022 9:30:00 AM 0.89 33.602 0.041 6.9 1.88 13.5
12/26/2022 9:45:00 AM 0.92 33.656 0.041 6.92 1.89 13.52
12/26/2022 10:00:00 AM 0.96 33.728 0.041 6.97 1.89 13.53
12/26/2022 10:15:00 AM 0.99 33.782 0.041 6.93 1.94 13.54
12/26/2022 10:30:00 AM 1.03 33.854 0.041 6.94 1.88 13.54
12/26/2022 10:45:00 AM 1.08 33.944 0.041 6.93 1.83 13.54
12/26/2022 11:00:00 AM 1.12 34.016 0.041 7 1.87 13.54
12/26/2022 11:15:00 AM 1.17 34.106 0.041 6.95 1.88 13.52
12/26/2022 11:30:00 AM 1.21 34.178 0.04 6.95 1.82 13.51
12/26/2022 11:45:00 AM 1.26 34.268 0.04 6.95 1.82 13.51
12/26/2022 12:00:00 PM 1.31 34.358 0.04 6.97 1.86 13.49
12/26/2022 12:15:00 PM 1.37 34.466 0.04 6.97 1.84 13.48
12/26/2022 12:30:00 PM 1.42 34.556 0.04 6.96 1.81 13.47
12/26/2022 12:45:00 PM 1.46 34.628 0.04 7.02 1.86 13.45
12/26/2022 1:00:00 PM 1.5 34.7 0.04 6.97 1.83 13.43
12/26/2022 1:15:00 PM 1.53 34.754 0.04 7.02 1.84 13.42
12/26/2022 1:30:00 PM 1.57 34.826 0.04 6.97 1.87 13.39
12/26/2022 1:45:00 PM 1.6 34.88 0.04 6.98 1.95 13.38
12/26/2022 2:00:00 PM 1.63 34.934 0.04 6.99 1.87 13.37
12/26/2022 2:15:00 PM 1.66 34.988 0.04 7 1.87 13.35
12/26/2022 2:30:00 PM 1.68 35.024 0.04 6.98 1.92 13.34
12/26/2022 2:45:00 PM 1.69 35.042 0.04 6.97 1.9 13.32
12/26/2022 3:00:00 PM 1.7 35.06 0.04 6.96 1.89 13.31
12/26/2022 3:15:00 PM 1.7 35.06 0.04 6.99 1.87 13.3
12/26/2022 3:30:00 PM 1.7 35.06 0.04 7.01 1.91 13.29
12/26/2022 3:45:00 PM 1.69 35.042 0.04 7.03 1.92 13.27
12/26/2022 4:00:00 PM 1.68 35.024 0.04 6.98 1.87 13.25
12/26/2022 4:15:00 PM 1.68 35.024 0.04 7.02 1.92 13.22
12/26/2022 4:30:00 PM 1.68 35.024 0.04 6.97 1.97 13.19
12/26/2022 4:45:00 PM 1.67 35.006 0.04 6.96 1.87 13.16
12/26/2022 5:00:00 PM 1.66 34.988 0.04 6.96 1.94 13.14
12/26/2022 5:15:00 PM 1.66 34.988 0.04 6.95 2 13.11
12/26/2022 5:30:00 PM 1.65 34.97 0.041 6.94 1.88 13.09
12/26/2022 5:45:00 PM 1.64 34.952 0.041 6.96 1.91 13.08
12/26/2022 6:00:00 PM 1.63 34.934 0.041 6.93 1.97 13.07
12/26/2022 6:15:00 PM 1.62 34.916 0.041 6.93 1.98 13.07
12/26/2022 6:30:00 PM 1.61 34.898 0.041 6.92 1.96 13.07
12/26/2022 6:45:00 PM 1.59 34.862 0.041 6.92 1.97 13.07
12/26/2022 7:00:00 PM 1.58 34.844 0.041 6.97 1.96 13.07
12/26/2022 7:15:00 PM 1.56 34.808 0.041 6.97 1.97 13.07
12/26/2022 7:30:00 PM 1.55 34.79 0.041 6.98 2.04 13.07
12/26/2022 7:45:00 PM 1.55 34.79 0.041 6.94 2.03 13.08
12/26/2022 8:00:00 PM 1.54 34.772 0.041 6.94 2 13.08
12/26/2022 8:15:00 PM 1.53 34.754 0.041 6.92 1.94 13.08
12/26/2022 8:30:00 PM 1.53 34.754 0.041 6.91 1.96 13.08
12/26/2022 8:45:00 PM 1.53 34.754 0.041 6.91 1.95 13.08
12/26/2022 9:00:00 PM 1.53 34.754 0.041 6.91 1.99 13.08
12/26/2022 9:15:00 PM 1.53 34.754 0.041 6.91 1.91 13.08
12/26/2022 9:30:00 PM 1.52 34.736 0.041 6.91 1.95 13.09
12/26/2022 9:45:00 PM 1.52 34.736 0.041 6.9 1.85 13.08
12/26/2022 10:00:00 PM 1.52 34.736 0.041 6.92 1.85 13.09
12/26/2022 10:15:00 PM 1.52 34.736 0.041 6.91 1.91 13.09
12/26/2022 10:30:00 PM 1.52 34.736 0.041 6.91 1.83 13.09
12/26/2022 10:45:00 PM 1.53 34.754 0.041 6.93 1.9 13.09
12/26/2022 11:00:00 PM 1.53 34.754 0.041 6.97 1.86 13.09
12/26/2022 11:15:00 PM 1.53 34.754 0.041 6.96 1.77 13.09
12/26/2022 11:30:00 PM 1.54 34.772 0.041 6.9 1.88 13.09
12/26/2022 11:45:00 PM 1.54 34.772 0.041 6.96 1.87 13.08
12/27/2022 12:00:00 AM 1.54 34.772 0.041 6.9 1.96 13.08
12/27/2022 12:15:00 AM 1.54 34.772 0.041 6.93 1.86 13.08
12/27/2022 12:30:00 AM 1.54 34.772 0.041 6.9 1.84 13.08
12/27/2022 12:45:00 AM 1.54 34.772 0.041 6.91 1.89 13.08
12/27/2022 1:00:00 AM 1.54 34.772 0.041 6.96 1.83 13.08
12/27/2022 1:15:00 AM 1.54 34.772 0.041 6.89 1.87 13.08
12/27/2022 1:30:00 AM 1.55 34.79 0.041 6.9 1.86 13.08
12/27/2022 1:45:00 AM 1.55 34.79 0.041 6.95 1.92 13.08
12/27/2022 2:00:00 AM 1.55 34.79 0.041 6.97 1.8 13.08
12/27/2022 2:15:00 AM 1.55 34.79 0.041 6.83 1.9 13.08
12/27/2022 2:30:00 AM 1.55 34.79 0.041 6.95 1.84 13.08
12/27/2022 2:45:00 AM 1.55 34.79 0.041 6.96 1.82 13.07
12/27/2022 3:00:00 AM 1.55 34.79 0.041 6.95 1.87 13.08
12/27/2022 3:15:00 AM 1.56 34.808 0.041 6.96 1.82 13.07
12/27/2022 3:30:00 AM 1.56 34.808 0.041 6.96 1.85 13.07
12/27/2022 3:45:00 AM 1.56 34.808 0.041 6.95 1.92 13.07
12/27/2022 4:00:00 AM 1.57 34.826 0.041 6.96 1.86 13.07
12/27/2022 4:15:00 AM 1.58 34.844 0.041 6.89 1.87 13.07
12/27/2022 4:30:00 AM 1.58 34.844 0.041 6.96 1.82 13.07
12/27/2022 4:45:00 AM 1.59 34.862 0.041 6.9 1.83 13.07
12/27/2022 5:00:00 AM 1.59 34.862 0.041 6.89 1.79 13.06
12/27/2022 5:15:00 AM 1.6 34.88 0.041 6.9 1.82 13.07
12/27/2022 5:30:00 AM 1.6 34.88 0.041 6.96 1.81 13.07
12/27/2022 5:45:00 AM 1.6 34.88 0.041 6.94 1.91 13.07
12/27/2022 6:00:00 AM 1.6 34.88 0.041 6.95 1.92 13.06
12/27/2022 6:15:00 AM 1.61 34.898 0.041 6.93 1.89 13.06
12/27/2022 6:30:00 AM 1.61 34.898 0.041 6.89 1.83 13.07
12/27/2022 6:45:00 AM 1.61 34.898 0.041 6.89 1.79 13.07
12/27/2022 7:00:00 AM 1.62 34.916 0.041 6.9 1.83 13.07
12/27/2022 7:15:00 AM 1.62 34.916 0.041 6.89 1.81 13.07
12/27/2022 7:30:00 AM 1.63 34.934 0.041 6.96 1.87 13.07
12/27/2022 7:45:00 AM 1.63 34.934 0.041 6.92 1.82 13.07
12/27/2022 8:00:00 AM 1.64 34.952 0.041 6.89 1.83 13.08
12/27/2022 8:15:00 AM 1.64 34.952 0.041 6.9 1.86 13.09
12/27/2022 8:30:00 AM 1.66 34.988 0.041 6.97 1.87 13.11
12/27/2022 8:45:00 AM 1.67 35.006 0.041 6.91 1.87 13.13
12/27/2022 9:00:00 AM 1.68 35.024 0.041 6.92 1.8 13.16
12/27/2022 9:15:00 AM 1.69 35.042 0.041 6.99 1.81 13.18
12/27/2022 9:30:00 AM 1.71 35.078 0.041 6.93 1.8 13.21
12/27/2022 9:45:00 AM 1.73 35.114 0.041 6.98 1.75 13.23
12/27/2022 10:00:00 AM 1.74 35.132 0.041 6.96 1.68 13.25
12/27/2022 10:15:00 AM 1.76 35.168 0.041 7.01 1.67 13.26
12/27/2022 10:30:00 AM 1.78 35.204 0.041 6.96 1.71 13.27
12/27/2022 10:45:00 AM 1.8 35.24 0.041 6.97 1.67 13.27
12/27/2022 11:00:00 AM 1.82 35.276 0.041 6.99 1.71 13.27
12/27/2022 11:15:00 AM 1.84 35.312 0.041 7.04 1.7 13.28
12/27/2022 11:30:00 AM 1.87 35.366 0.041 7.02 1.66 13.28
12/27/2022 11:45:00 AM 1.9 35.42 0.041 7.05 1.7 13.29
12/27/2022 12:00:00 PM 1.94 35.492 0.041 6.99 1.68 13.29
12/27/2022 12:15:00 PM 1.98 35.564 0.041 6.99 1.68 13.28
12/27/2022 12:30:00 PM 2.01 35.618 0.041 6.99 1.66 13.28
12/27/2022 12:45:00 PM 2.04 35.672 0.041 7 1.66 13.27
12/27/2022 1:00:00 PM 2.07 35.726 0.041 7 1.7 13.27
12/27/2022 1:15:00 PM 2.09 35.762 0.04 7 1.66 13.26
12/27/2022 1:30:00 PM 2.12 35.816 0.04 7.01 1.65 13.24
12/27/2022 1:45:00 PM 2.13 35.834 0.04 7.01 1.72 13.22
12/27/2022 2:00:00 PM 2.15 35.87 0.04 7.01 1.66 13.21
12/27/2022 2:15:00 PM 2.16 35.888 0.04 7.02 1.63 13.19
12/27/2022 2:30:00 PM 2.16 35.888 0.04 7 1.64 13.19
12/27/2022 2:45:00 PM 2.17 35.906 0.04 7.01 1.69 13.18
12/27/2022 3:00:00 PM 2.18 35.924 0.04 7 1.64 13.17
12/27/2022 3:15:00 PM 2.19 35.942 0.04 7.01 1.7 13.16
12/27/2022 3:30:00 PM 2.19 35.942 0.04 7 1.7 13.14
12/27/2022 3:45:00 PM 2.2 35.96 0.04 6.98 1.64 13.13
12/27/2022 4:00:00 PM 2.2 35.96 0.041 6.99 1.63 13.1
12/27/2022 4:15:00 PM 2.2 35.96 0.041 7.02 1.72 13.07
12/27/2022 4:30:00 PM 2.2 35.96 0.041 7 1.68 13.04
12/27/2022 4:45:00 PM 2.2 35.96 0.041 7.01 1.7 13.01
12/27/2022 5:00:00 PM 2.2 35.96 0.041 7.03 1.64 12.98
12/27/2022 5:15:00 PM 2.2 35.96 0.041 6.99 1.69 12.95
12/27/2022 5:30:00 PM 2.2 35.96 0.041 6.95 1.66 12.93
12/27/2022 5:45:00 PM 2.2 35.96 0.041 6.96 1.69 12.92
12/27/2022 6:00:00 PM 2.2 35.96 0.041 6.93 1.64 12.9
12/27/2022 6:15:00 PM 2.2 35.96 0.041 7.02 1.65 12.9
12/27/2022 6:30:00 PM 2.2 35.96 0.041 6.92 1.66 12.89
12/27/2022 6:45:00 PM 2.2 35.96 0.041 6.91 1.64 12.88
12/27/2022 7:00:00 PM 2.19 35.942 0.041 6.97 1.68 12.88
12/27/2022 7:15:00 PM 2.19 35.942 0.041 6.98 1.67 12.88
12/27/2022 7:30:00 PM 2.18 35.924 0.041 6.93 1.7 12.88
12/27/2022 7:45:00 PM 2.18 35.924 0.041 6.92 1.67 12.88
12/27/2022 8:00:00 PM 2.18 35.924 0.041 6.92 1.68 12.88
12/27/2022 8:15:00 PM 2.19 35.942 0.041 6.92 1.68 12.88
12/27/2022 8:30:00 PM 2.19 35.942 0.041 6.91 1.65 12.87
12/27/2022 8:45:00 PM 2.19 35.942 0.041 6.95 1.63 12.87
12/27/2022 9:00:00 PM 2.19 35.942 0.041 6.92 1.7 12.87
12/27/2022 9:15:00 PM 2.19 35.942 0.041 6.91 1.68 12.87
12/27/2022 9:30:00 PM 2.19 35.942 0.041 6.91 1.69 12.86
12/27/2022 9:45:00 PM 2.19 35.942 0.041 6.9 1.71 12.87
12/27/2022 10:00:00 PM 2.2 35.96 0.041 6.89 1.63 12.86
12/27/2022 10:15:00 PM 2.21 35.978 0.041 6.92 1.69 12.86
12/27/2022 10:30:00 PM 2.22 35.996 0.041 6.89 1.71 12.85
12/27/2022 10:45:00 PM 2.23 36.014 0.041 6.99 1.68 12.85
12/27/2022 11:00:00 PM 2.24 36.032 0.041 6.97 1.64 12.85
12/27/2022 11:15:00 PM 2.25 36.05 0.041 6.9 1.7 12.84
12/27/2022 11:30:00 PM 2.25 36.05 0.041 6.82 1.74 12.84
12/27/2022 11:45:00 PM 2.26 36.068 0.041 6.89 1.75 12.84
12/28/2022 12:00:00 AM 2.26 36.068 0.041 6.97 1.73 12.83
12/28/2022 12:15:00 AM 2.27 36.086 0.041 6.85 1.69 12.83
12/28/2022 12:30:00 AM 2.27 36.086 0.041 6.98 1.69 12.83
12/28/2022 12:45:00 AM 2.27 36.086 0.041 6.89 1.76 12.82
12/28/2022 1:00:00 AM 2.28 36.104 0.041 6.89 1.75 12.82
12/28/2022 1:15:00 AM 2.28 36.104 0.041 6.86 1.68 12.82
12/28/2022 1:30:00 AM 2.28 36.104 0.041 6.78 1.73 12.81
12/28/2022 1:45:00 AM 2.29 36.122 0.041 6.9 1.74 12.81
12/28/2022 2:00:00 AM 2.3 36.14 0.041 6.9 1.79 12.81
12/28/2022 2:15:00 AM 2.31 36.158 0.041 6.96 1.78 12.8
12/28/2022 2:30:00 AM 2.32 36.176 0.041 6.95 1.75 12.81
12/28/2022 2:45:00 AM 2.33 36.194 0.041 6.9 1.74 12.8
12/28/2022 3:00:00 AM 2.33 36.194 0.041 6.89 1.76 12.8
12/28/2022 3:15:00 AM 2.33 36.194 0.041 6.89 1.83 12.8
12/28/2022 3:30:00 AM 2.32 36.176 0.041 6.89 1.73 12.79
12/28/2022 3:45:00 AM 2.32 36.176 0.041 6.9 1.78 12.79
12/28/2022 4:00:00 AM 2.31 36.158 0.041 6.9 1.76 12.79
12/28/2022 4:15:00 AM 2.31 36.158 0.041 6.9 1.73 12.8
12/28/2022 4:30:00 AM 2.31 36.158 0.041 6.88 1.74 12.8
12/28/2022 4:45:00 AM 2.3 36.14 0.041 6.88 1.71 12.8
12/28/2022 5:00:00 AM 2.29 36.122 0.041 6.96 1.73 12.8
12/28/2022 5:15:00 AM 2.28 36.104 0.041 6.89 1.75 12.8
12/28/2022 5:30:00 AM 2.28 36.104 0.041 6.89 1.74 12.8
12/28/2022 5:45:00 AM 2.27 36.086 0.041 6.9 1.73 12.81
12/28/2022 6:00:00 AM 2.27 36.086 0.041 6.9 1.76 12.82
12/28/2022 6:15:00 AM 2.27 36.086 0.041 6.9 1.75 12.82
12/28/2022 6:30:00 AM 2.26 36.068 0.041 6.92 1.71 12.82
12/28/2022 6:45:00 AM 2.25 36.05 0.041 6.89 1.74 12.82
12/28/2022 7:00:00 AM 2.24 36.032 0.041 6.88 1.81 12.82
12/28/2022 7:15:00 AM 2.23 36.014 0.041 6.9 1.72 12.83
12/28/2022 7:30:00 AM 2.22 35.996 0.041 6.89 1.71 12.83
12/28/2022 7:45:00 AM 2.21 35.978 0.041 6.94 1.76 12.84
12/28/2022 8:00:00 AM 2.2 35.96 0.041 6.88 1.74 12.87
12/28/2022 8:15:00 AM 2.2 35.96 0.041 6.9 1.79 12.9
12/28/2022 8:30:00 AM 2.2 35.96 0.041 6.91 1.76 12.95
12/28/2022 8:45:00 AM 2.21 35.978 0.041 6.92 1.76 12.99
12/28/2022 9:00:00 AM 2.23 36.014 0.041 6.93 1.76 13.03
12/28/2022 9:15:00 AM 2.25 36.05 0.041 6.98 1.76 13.06
12/28/2022 9:30:00 AM 2.27 36.086 0.041 6.96 1.76 13.08
12/28/2022 9:45:00 AM 2.29 36.122 0.041 6.96 1.73 13.1
12/28/2022 10:00:00 AM 2.32 36.176 0.041 6.96 1.74 13.11
12/28/2022 10:15:00 AM 2.36 36.248 0.041 7.03 1.7 13.12
12/28/2022 10:30:00 AM 2.39 36.302 0.041 6.97 1.66 13.12
12/28/2022 10:45:00 AM 2.45 36.41 0.041 6.98 1.75 13.12
12/28/2022 11:00:00 AM 2.49 36.482 0.041 6.99 1.75 13.12
12/28/2022 11:15:00 AM 2.52 36.536 0.041 6.99 2.35 13.11
12/28/2022 11:30:00 AM 2.63 36.734 0.041 6.98 1.96 13.1
12/28/2022 11:45:00 AM 2.7 36.86 0.041 7.07 1.68 13.09
12/28/2022 12:00:00 PM 2.74 36.932 0.041 7.02 1.7 13.07
12/28/2022 12:15:00 PM 2.79 37.022 0.041 7 1.82 13.05
12/28/2022 12:30:00 PM 2.84 37.112 0.041 7.05 1.67 13.02
12/28/2022 12:45:00 PM 2.88 37.184 0.041 7.01 1.68 12.99
12/28/2022 1:00:00 PM 2.96 37.328 0.041 7.01 1.65 12.97
12/28/2022 1:15:00 PM 3 37.4 0.041 7.07 1.73 12.96
12/28/2022 1:30:00 PM 3.07 37.526 0.04 7.01 1.76 12.95
12/28/2022 1:45:00 PM 3.14 37.652 0.04 7.04 1.7 12.93
12/28/2022 2:00:00 PM 3.21 37.778 0.04 7.03 1.62 12.91
12/28/2022 2:15:00 PM 3.26 37.868 0.04 7.02 1.65 12.89
12/28/2022 2:30:00 PM 3.3 37.94 0.04 7.04 1.69 12.88
12/28/2022 2:45:00 PM 3.31 37.958 0.04 7.11 1.72 12.86
12/28/2022 3:00:00 PM 3.33 37.994 0.04 7.03 1.65 12.84
12/28/2022 3:15:00 PM 3.34 38.012 0.04 7.04 1.65 12.83
12/28/2022 3:30:00 PM 3.35 38.03 0.04 7.02 1.75 12.81
12/28/2022 3:45:00 PM 3.34 38.012 0.04 7.1 1.66 12.8
12/28/2022 4:00:00 PM 3.34 38.012 0.04 7.02 1.64 12.78
12/28/2022 4:15:00 PM 3.33 37.994 0.04 7 1.67 12.74
12/28/2022 4:30:00 PM 3.33 37.994 0.041 7.01 1.61 12.7
12/28/2022 4:45:00 PM 3.32 37.976 0.041 6.99 1.7 12.65
12/28/2022 5:00:00 PM 3.31 37.958 0.041 6.99 1.63 12.62
12/28/2022 5:15:00 PM 3.3 37.94 0.041 7.01 1.68 12.58
12/28/2022 5:30:00 PM 3.29 37.922 0.041 7.01 1.77 12.56
12/28/2022 5:45:00 PM 3.27 37.886 0.041 6.96 1.76 12.53
12/28/2022 6:00:00 PM 3.25 37.85 0.041 7.02 1.79 12.52
12/28/2022 6:15:00 PM 3.23 37.814 0.041 6.94 1.74 12.52
12/28/2022 6:30:00 PM 3.21 37.778 0.041 6.94 1.78 12.51
12/28/2022 6:45:00 PM 3.2 37.76 0.041 7 1.85 12.51
12/28/2022 7:00:00 PM 3.17 37.706 0.041 6.94 1.77 12.51
12/28/2022 7:15:00 PM 3.16 37.688 0.041 6.91 1.73 12.52
12/28/2022 7:30:00 PM 3.14 37.652 0.041 6.97 1.75 12.52
12/28/2022 7:45:00 PM 3.11 37.598 0.041 6.98 1.79 12.52
12/28/2022 8:00:00 PM 3.09 37.562 0.041 6.91 1.75 12.53
12/28/2022 8:15:00 PM 3.06 37.508 0.041 6.93 1.76 12.53
12/28/2022 8:30:00 PM 3.04 37.472 0.041 6.97 1.7 12.55
12/28/2022 8:45:00 PM 3 37.4 0.041 6.93 1.76 12.56
12/28/2022 9:00:00 PM 2.97 37.346 0.041 6.91 1.73 12.57
12/28/2022 9:15:00 PM 2.94 37.292 0.041 6.97 1.69 12.57
12/28/2022 9:30:00 PM 2.91 37.238 0.041 6.91 1.73 12.58
12/28/2022 9:45:00 PM 2.87 37.166 0.041 6.9 1.72 12.59
12/28/2022 10:00:00 PM 2.85 37.13 0.041 6.9 1.72 12.6
12/28/2022 10:15:00 PM 2.82 37.076 0.041 6.96 1.71 12.62
12/28/2022 10:30:00 PM 2.79 37.022 0.041 6.9 1.72 12.62
12/28/2022 10:45:00 PM 2.76 36.968 0.042 6.9 1.77 12.64
12/28/2022 11:00:00 PM 2.73 36.914 0.042 6.9 1.73 12.65
12/28/2022 11:15:00 PM 2.7 36.86 0.042 6.95 1.74 12.65
12/28/2022 11:30:00 PM 2.67 36.806 0.042 6.94 1.75 12.66
12/28/2022 11:45:00 PM 2.64 36.752 0.042 6.89 1.76 12.68
12/29/2022 12:00:00 AM 2.61 36.698 0.042 6.96 1.77 12.68
12/29/2022 12:15:00 AM 2.58 36.644 0.042 6.95 1.79 12.69
12/29/2022 12:30:00 AM 2.55 36.59 0.042 6.9 1.78 12.7
12/29/2022 12:45:00 AM 2.52 36.536 0.042 6.96 1.77 12.71
12/29/2022 1:00:00 AM 2.49 36.482 0.042 6.95 1.71 12.73
12/29/2022 1:15:00 AM 2.47 36.446 0.042 6.9 1.72 12.74
12/29/2022 1:30:00 AM 2.44 36.392 0.042 6.92 1.75 12.74
12/29/2022 1:45:00 AM 2.41 36.338 0.042 6.89 1.7 12.76
12/29/2022 2:00:00 AM 2.39 36.302 0.042 6.9 1.76 12.77
12/29/2022 2:15:00 AM 2.36 36.248 0.042 6.91 1.72 12.78
12/29/2022 2:30:00 AM 2.33 36.194 0.042 6.94 1.74 12.78
12/29/2022 2:45:00 AM 2.31 36.158 0.042 6.87 1.79 12.79
12/29/2022 3:00:00 AM 2.27 36.086 0.042 6.88 1.74 12.8
12/29/2022 3:15:00 AM 2.24 36.032 0.042 6.92 1.84 12.81
12/29/2022 3:30:00 AM 2.21 35.978 0.042 6.93 1.69 12.82
12/29/2022 3:45:00 AM 2.18 35.924 0.042 6.87 1.73 12.83
12/29/2022 4:00:00 AM 2.15 35.87 0.042 6.87 1.7 12.84
12/29/2022 4:15:00 AM 2.12 35.816 0.042 6.88 1.76 12.85
12/29/2022 4:30:00 AM 2.08 35.744 0.042 6.87 1.69 12.87
12/29/2022 4:45:00 AM 2.05 35.69 0.042 6.87 1.73 12.88
12/29/2022 5:00:00 AM 2.03 35.654 0.042 6.88 1.74 12.89
12/29/2022 5:15:00 AM 2 35.6 0.042 6.87 1.7 12.9
12/29/2022 5:30:00 AM 1.97 35.546 0.042 6.87 1.71 12.91
12/29/2022 5:45:00 AM 1.94 35.492 0.042 6.87 1.69 12.93
12/29/2022 6:00:00 AM 1.91 35.438 0.042 6.86 1.75 12.93
12/29/2022 6:15:00 AM 1.88 35.384 0.042 6.87 1.67 12.95
12/29/2022 6:30:00 AM 1.86 35.348 0.042 6.86 1.75 12.96
12/29/2022 6:45:00 AM 1.84 35.312 0.042 6.91 1.73 12.97
12/29/2022 7:00:00 AM 1.82 35.276 0.042 6.86 1.68 12.98
12/29/2022 7:15:00 AM 1.8 35.24 0.042 6.86 1.7 12.99
12/29/2022 7:30:00 AM 1.78 35.204 0.042 6.86 1.72 13
12/29/2022 7:45:00 AM 1.75 35.15 0.042 6.86 1.64 13.02
12/29/2022 8:00:00 AM 1.72 35.096 0.042 6.9 1.68 13.05
12/29/2022 8:15:00 AM 1.7 35.06 0.042 6.87 1.68 13.08
12/29/2022 8:30:00 AM 1.68 35.024 0.042 6.87 1.68 13.12
12/29/2022 8:45:00 AM 1.66 34.988 0.042 6.93 1.67 13.16
12/29/2022 9:00:00 AM 1.65 34.97 0.042 6.88 1.57 13.19
12/29/2022 9:15:00 AM 1.64 34.952 0.042 6.89 1.65 13.23
12/29/2022 9:30:00 AM 1.64 34.952 0.042 6.9 1.66 13.26
12/29/2022 9:45:00 AM 1.65 34.97 0.042 6.91 1.64 13.29
12/29/2022 10:00:00 AM 1.68 35.024 0.042 6.92 1.71 13.3
12/29/2022 10:15:00 AM 1.71 35.078 0.042 6.93 1.67 13.32
12/29/2022 10:30:00 AM 1.75 35.15 0.041 6.93 1.77 13.32
12/29/2022 10:45:00 AM 1.81 35.258 0.041 6.94 1.78 13.33
12/29/2022 11:00:00 AM 1.88 35.384 0.041 6.95 1.79 13.33
12/29/2022 11:15:00 AM 1.96 35.528 0.041 6.96 1.72 13.31
12/29/2022 11:30:00 AM 2.04 35.672 0.041 6.97 1.67 13.29
12/29/2022 11:45:00 AM 2.14 35.852 0.041 6.98 1.67 13.28
12/29/2022 12:00:00 PM 2.27 36.086 0.041 6.98 1.63 13.26
12/29/2022 12:15:00 PM 2.43 36.374 0.041 7 1.57 13.23
12/29/2022 12:30:00 PM 2.58 36.644 0.041 7 1.57 13.2
12/29/2022 12:45:00 PM 2.72 36.896 0.041 7.07 1.57 13.16
12/29/2022 1:00:00 PM 2.86 37.148 0.041 7.01 1.6 13.12
12/29/2022 1:15:00 PM 2.98 37.364 0.041 7.03 1.58 13.08
12/29/2022 1:30:00 PM 3.09 37.562 0.041 7.04 1.63 13.04
12/29/2022 1:45:00 PM 3.18 37.724 0.041 7.04 1.55 13.01
12/29/2022 2:00:00 PM 3.25 37.85 0.041 7.05 1.57 12.98
12/29/2022 2:15:00 PM 3.31 37.958 0.041 7.11 1.6 12.96
12/29/2022 2:30:00 PM 3.32 37.976 0.041 7.05 1.58 12.92
12/29/2022 2:45:00 PM 3.34 38.012 0.041 7.12 1.55 12.88
12/29/2022 3:00:00 PM 3.38 38.084 0.041 7.05 1.57 12.85
12/29/2022 3:15:00 PM 3.4 38.12 0.041 7.05 1.62 12.82
12/29/2022 3:30:00 PM 3.41 38.138 0.041 7.05 1.61 12.8
12/29/2022 3:45:00 PM 3.41 38.138 0.041 7.05 1.63 12.78
12/29/2022 4:00:00 PM 3.41 38.138 0.041 7.04 1.62 12.76
12/29/2022 4:15:00 PM 3.43 38.174 0.041 7.04 1.59 12.73
12/29/2022 4:30:00 PM 3.45 38.21 0.041 7.03 1.56 12.69
12/29/2022 4:45:00 PM 3.47 38.246 0.041 7.03 1.61 12.64
12/29/2022 5:00:00 PM 3.49 38.282 0.041 7.04 1.59 12.59
12/29/2022 5:15:00 PM 3.52 38.336 0.041 7.01 1.67 12.53
12/29/2022 5:30:00 PM 3.55 38.39 0.041 6.98 1.63 12.49
12/29/2022 5:45:00 PM 3.57 38.426 0.041 6.99 1.69 12.46
12/29/2022 6:00:00 PM 3.58 38.444 0.041 6.97 1.61 12.44
12/29/2022 6:15:00 PM 3.58 38.444 0.041 6.98 1.65 12.41
12/29/2022 6:30:00 PM 3.6 38.48 0.041 7.03 1.65 12.4
12/29/2022 6:45:00 PM 3.61 38.498 0.041 6.96 1.68 12.4
12/29/2022 7:00:00 PM 3.62 38.516 0.041 7.03 1.69 12.39
12/29/2022 7:15:00 PM 3.64 38.552 0.041 6.92 1.7 12.38
12/29/2022 7:30:00 PM 3.65 38.57 0.041 6.93 1.66 12.37
12/29/2022 7:45:00 PM 3.67 38.606 0.042 6.95 1.71 12.37
12/29/2022 8:00:00 PM 3.68 38.624 0.042 6.95 1.68 12.36
12/29/2022 8:15:00 PM 3.69 38.642 0.042 6.95 1.66 12.36
12/29/2022 8:30:00 PM 3.7 38.66 0.042 6.95 1.74 12.35
12/29/2022 8:45:00 PM 3.71 38.678 0.042 6.94 1.63 12.34
12/29/2022 9:00:00 PM 3.72 38.696 0.042 6.94 1.63 12.35
12/29/2022 9:15:00 PM 3.72 38.696 0.042 6.94 1.69 12.34
12/29/2022 9:30:00 PM 3.73 38.714 0.042 6.94 1.77 12.33
12/29/2022 9:45:00 PM 3.73 38.714 0.042 6.93 1.64 12.33
12/29/2022 10:00:00 PM 3.74 38.732 0.042 6.93 1.67 12.33
12/29/2022 10:15:00 PM 3.74 38.732 0.042 6.95 1.63 12.34
12/29/2022 10:30:00 PM 3.74 38.732 0.042 6.93 1.77 12.33
12/29/2022 10:45:00 PM 3.74 38.732 0.042 6.93 1.77 12.34
12/29/2022 11:00:00 PM 3.75 38.75 0.042 6.94 1.71 12.34
12/29/2022 11:15:00 PM 3.75 38.75 0.042 6.93 1.65 12.33
12/29/2022 11:30:00 PM 3.76 38.768 0.042 6.92 1.67 12.33
12/29/2022 11:45:00 PM 3.76 38.768 0.042 6.94 1.7 12.33
12/30/2022 12:00:00 AM 3.76 38.768 0.042 6.92 1.66 12.33
12/30/2022 12:15:00 AM 3.76 38.768 0.042 6.99 1.63 12.34
12/30/2022 12:30:00 AM 3.76 38.768 0.042 6.94 1.69 12.33
12/30/2022 12:45:00 AM 3.76 38.768 0.042 6.95 1.7 12.33
12/30/2022 1:00:00 AM 3.77 38.786 0.042 6.92 1.66 12.34
12/30/2022 1:15:00 AM 3.77 38.786 0.042 6.94 1.72 12.32
12/30/2022 1:30:00 AM 3.77 38.786 0.042 6.92 1.75 12.32
12/30/2022 1:45:00 AM 3.76 38.768 0.042 6.93 1.69 12.32
12/30/2022 2:00:00 AM 3.76 38.768 0.042 6.93 1.68 12.33
12/30/2022 2:15:00 AM 3.74 38.732 0.042 6.92 1.75 12.32
12/30/2022 2:30:00 AM 3.74 38.732 0.042 6.89 1.66 12.33
12/30/2022 2:45:00 AM 3.73 38.714 0.042 6.92 1.66 12.34
12/30/2022 3:00:00 AM 3.72 38.696 0.042 6.91 1.71 12.33
12/30/2022 3:15:00 AM 3.72 38.696 0.042 6.98 1.72 12.33
12/30/2022 3:30:00 AM 3.71 38.678 0.042 6.93 1.74 12.33
12/30/2022 3:45:00 AM 3.71 38.678 0.042 6.93 1.68 12.33
12/30/2022 4:00:00 AM 3.69 38.642 0.042 6.98 1.71 12.33
12/30/2022 4:15:00 AM 3.7 38.66 0.042 6.92 1.78 12.34
12/30/2022 4:30:00 AM 3.69 38.642 0.042 6.98 1.77 12.33
12/30/2022 4:45:00 AM 3.7 38.66 0.042 6.92 1.73 12.34
12/30/2022 5:00:00 AM 3.71 38.678 0.042 6.91 1.74 12.34
12/30/2022 5:15:00 AM 3.71 38.678 0.042 6.91 1.67 12.33
12/30/2022 5:30:00 AM 3.72 38.696 0.042 6.92 1.62 12.34
12/30/2022 5:45:00 AM 3.73 38.714 0.042 6.91 1.68 12.33
12/30/2022 6:00:00 AM 3.74 38.732 0.042 6.92 1.74 12.33
12/30/2022 6:15:00 AM 3.75 38.75 0.042 6.92 1.77 12.33
12/30/2022 6:30:00 AM 3.76 38.768 0.042 6.91 1.8 12.32
12/30/2022 6:45:00 AM 3.76 38.768 0.042 6.91 1.72 12.33
12/30/2022 7:00:00 AM 3.77 38.786 0.042 6.91 1.73 12.33
12/30/2022 7:15:00 AM 3.78 38.804 0.042 6.92 1.74 12.33
12/30/2022 7:30:00 AM 3.79 38.822 0.042 6.91 1.67 12.33
12/30/2022 7:45:00 AM 3.79 38.822 0.042 6.91 1.7 12.33
12/30/2022 8:00:00 AM 3.78 38.804 0.042 6.92 1.72 12.36
12/30/2022 8:15:00 AM 3.77 38.786 0.042 6.92 1.67 12.38
12/30/2022 8:30:00 AM 3.79 38.822 0.042 6.93 1.72 12.43
12/30/2022 8:45:00 AM 3.8 38.84 0.042 6.94 1.72 12.47
12/30/2022 9:00:00 AM 3.82 38.876 0.041 6.96 1.67 12.53
12/30/2022 9:15:00 AM 3.86 38.948 0.041 6.97 1.68 12.57
12/30/2022 9:30:00 AM 3.89 39.002 0.041 6.99 1.61 12.58
12/30/2022 9:45:00 AM 3.93 39.074 0.041 6.99 1.7 12.62
12/30/2022 10:00:00 AM 3.98 39.164 0.041 7.02 1.62 12.63
12/30/2022 10:15:00 AM 4.04 39.272 0.041 7.01 1.64 12.65
12/30/2022 10:30:00 AM 4.12 39.416 0.041 7.02 1.6 12.65
12/30/2022 10:45:00 AM 4.16 39.488 0.041 7.03 1.64 12.64
12/30/2022 11:00:00 AM 4.22 39.596 0.041 7.05 1.6 12.63
12/30/2022 11:15:00 AM 4.27 39.686 0.041 7.05 1.66 12.61
12/30/2022 11:30:00 AM 4.35 39.83 0.041 7.06 1.59 12.61
12/30/2022 11:45:00 AM 4.43 39.974 0.041 7.07 1.56 12.6
12/30/2022 12:00:00 PM 4.46 40.028 0.041 7.06 1.58 12.57
12/30/2022 12:15:00 PM 4.55 40.19 0.041 6.98 1.68 12.54
12/30/2022 12:30:00 PM 4.61 40.298 0.041 7.08 1.61 12.53
12/30/2022 12:45:00 PM 4.67 40.406 0.041 7.15 1.64 12.51
12/30/2022 1:00:00 PM 4.73 40.514 0.041 7.09 1.68 12.49
12/30/2022 1:15:00 PM 4.77 40.586 0.041 7.16 1.65 12.48
12/30/2022 1:30:00 PM 4.83 40.694 0.041 7.09 1.65 12.46
12/30/2022 1:45:00 PM 4.85 40.73 0.041 7.16 1.68 12.45
12/30/2022 2:00:00 PM 4.88 40.784 0.041 7.1 1.69 12.43
12/30/2022 2:15:00 PM 4.91 40.838 0.041 7.16 1.69 12.42
12/30/2022 2:30:00 PM 4.93 40.874 0.041 7.12 1.7 12.41
12/30/2022 2:45:00 PM 4.94 40.892 0.041 7.14 1.75 12.39
12/30/2022 3:00:00 PM 4.95 40.91 0.041 7.12 1.73 12.37
12/30/2022 3:15:00 PM 4.94 40.892 0.041 7.1 1.79 12.34
12/30/2022 3:30:00 PM 4.94 40.892 0.041 7.09 1.81 12.32
12/30/2022 3:45:00 PM 4.93 40.874 0.041 7.11 1.81 12.29
12/30/2022 4:00:00 PM 4.91 40.838 0.041 7.08 1.82 12.28
12/30/2022 4:15:00 PM 4.88 40.784 0.041 7.07 1.8 12.26
12/30/2022 4:30:00 PM 4.84 40.712 0.041 7.06 1.92 12.23
12/30/2022 4:45:00 PM 4.8 40.64 0.041 7.09 1.92 12.19
12/30/2022 5:00:00 PM 4.76 40.568 0.041 7.02 1.94 12.15
12/30/2022 5:15:00 PM 4.71 40.478 0.041 7.08 2 12.12
12/30/2022 5:30:00 PM 4.66 40.388 0.041 7.01 1.99 12.1
12/30/2022 5:45:00 PM 4.61 40.298 0.041 7.06 2.01 12.08
12/30/2022 6:00:00 PM 4.57 40.226 0.041 6.97 2.04 12.07
12/30/2022 6:15:00 PM 4.53 40.154 0.041 6.97 2.04 12.07
12/30/2022 6:30:00 PM 4.48 40.064 0.041 7.03 2.12 12.07
12/30/2022 6:45:00 PM 4.44 39.992 0.041 6.96 2.18 12.08
12/30/2022 7:00:00 PM 4.4 39.92 0.041 6.94 2.05 12.08
12/30/2022 7:15:00 PM 4.36 39.848 0.041 7 2.07 12.1
12/30/2022 7:30:00 PM 4.32 39.776 0.041 6.94 2.16 12.1
12/30/2022 7:45:00 PM 4.28 39.704 0.041 6.94 2.12 12.12
12/30/2022 8:00:00 PM 4.24 39.632 0.041 6.99 2.12 12.13
12/30/2022 8:15:00 PM 4.21 39.578 0.041 6.95 2.1 12.14
12/30/2022 8:30:00 PM 4.17 39.506 0.041 6.94 2.08 12.15
12/30/2022 8:45:00 PM 4.14 39.452 0.041 6.92 2.14 12.15
12/30/2022 9:00:00 PM 4.11 39.398 0.042 6.92 2.1 12.16
12/30/2022 9:15:00 PM 4.08 39.344 0.042 6.98 2.11 12.17
12/30/2022 9:30:00 PM 4.07 39.326 0.042 6.92 2.07 12.18
12/30/2022 9:45:00 PM 4.06 39.308 0.042 6.98 1.97 12.18
12/30/2022 10:00:00 PM 4.05 39.29 0.042 6.91 2.04 12.19
12/30/2022 10:15:00 PM 4.04 39.272 0.042 6.94 1.94 12.2
12/30/2022 10:30:00 PM 4.02 39.236 0.042 6.94 1.96 12.2
12/30/2022 10:45:00 PM 4 39.2 0.042 6.92 1.97 12.2
12/30/2022 11:00:00 PM 3.98 39.164 0.042 6.92 1.91 12.21
12/30/2022 11:15:00 PM 3.96 39.128 0.042 6.92 1.94 12.21
12/30/2022 11:30:00 PM 3.93 39.074 0.042 6.9 1.91 12.21
12/30/2022 11:45:00 PM 3.9 39.02 0.042 6.9 1.95 12.22
12/31/2022 12:00:00 AM 3.87 38.966 0.042 6.9 1.93 12.23
12/31/2022 12:15:00 AM 3.84 38.912 0.042 6.89 2.01 12.25
12/31/2022 12:30:00 AM 3.82 38.876 0.042 6.96 1.94 12.24
12/31/2022 12:45:00 AM 3.8 38.84 0.042 6.91 1.94 12.25
12/31/2022 1:00:00 AM 3.78 38.804 0.042 6.96 1.91 12.25
12/31/2022 1:15:00 AM 3.76 38.768 0.042 6.9 1.95 12.26
12/31/2022 1:30:00 AM 3.75 38.75 0.042 6.91 1.98 12.26
12/31/2022 1:45:00 AM 3.74 38.732 0.042 6.93 1.98 12.26
12/31/2022 2:00:00 AM 3.73 38.714 0.042 6.9 1.92 12.27
12/31/2022 2:15:00 AM 3.72 38.696 0.042 6.88 1.97 12.27
12/31/2022 2:30:00 AM 3.71 38.678 0.042 6.9 1.96 12.27
12/31/2022 2:45:00 AM 3.7 38.66 0.042 6.91 1.91 12.27
12/31/2022 3:00:00 AM 3.69 38.642 0.042 6.89 1.92 12.28
12/31/2022 3:15:00 AM 3.68 38.624 0.042 6.89 1.94 12.28
12/31/2022 3:30:00 AM 3.66 38.588 0.042 6.95 1.88 12.28
12/31/2022 3:45:00 AM 3.65 38.57 0.042 6.88 1.88 12.3
12/31/2022 4:00:00 AM 3.63 38.534 0.042 6.87 1.98 12.29
12/31/2022 4:15:00 AM 3.62 38.516 0.042 6.9 1.89 12.29
12/31/2022 4:30:00 AM 3.6 38.48 0.042 6.89 1.92 12.3
12/31/2022 4:45:00 AM 3.59 38.462 0.042 6.89 1.98 12.3
12/31/2022 5:00:00 AM 3.58 38.444 0.042 6.89 1.93 12.3
12/31/2022 5:15:00 AM 3.57 38.426 0.042 6.96 1.92 12.3
12/31/2022 5:30:00 AM 3.56 38.408 0.042 6.9 1.92 12.31
12/31/2022 5:45:00 AM 3.55 38.39 0.042 6.9 1.95 12.31
12/31/2022 6:00:00 AM 3.54 38.372 0.042 6.89 1.95 12.31
12/31/2022 6:15:00 AM 3.53 38.354 0.042 6.89 1.9 12.31
12/31/2022 6:30:00 AM 3.53 38.354 0.042 6.94 1.93 12.32
12/31/2022 6:45:00 AM 3.53 38.354 0.042 6.88 1.92 12.32
12/31/2022 7:00:00 AM 3.53 38.354 0.042 6.89 1.92 12.32
12/31/2022 7:15:00 AM 3.54 38.372 0.042 6.89 2 12.31
12/31/2022 7:30:00 AM 3.55 38.39 0.042 6.89 2 12.31
12/31/2022 7:45:00 AM 3.56 38.408 0.042 6.89 1.94 12.32
12/31/2022 8:00:00 AM 3.58 38.444 0.042 6.9 1.94 12.31
12/31/2022 8:15:00 AM 3.6 38.48 0.042 6.9 1.96 12.33
12/31/2022 8:30:00 AM 3.61 38.498 0.042 6.96 1.96 12.35
12/31/2022 8:45:00 AM 3.63 38.534 0.042 6.91 1.9 12.39
12/31/2022 9:00:00 AM 3.66 38.588 0.041 6.94 1.93 12.44
12/31/2022 9:15:00 AM 3.68 38.624 0.041 6.93 1.84 12.48
12/31/2022 9:30:00 AM 3.72 38.696 0.041 6.95 1.86 12.5
12/31/2022 9:45:00 AM 3.76 38.768 0.041 6.97 1.83 12.54
12/31/2022 10:00:00 AM 3.8 38.84 0.041 6.98 1.92 12.57
12/31/2022 10:15:00 AM 3.84 38.912 0.041 7 1.82 12.56
12/31/2022 10:30:00 AM 3.9 39.02 0.041 6.99 1.87 12.59
12/31/2022 10:45:00 AM 3.96 39.128 0.041 7.01 1.81 12.6
12/31/2022 11:00:00 AM 4.03 39.254 0.041 7.01 1.89 12.6
12/31/2022 11:15:00 AM 4.1 39.38 0.041 7.04 1.85 12.59
12/31/2022 11:30:00 AM 4.18 39.524 0.041 7.05 1.8 12.57
12/31/2022 11:45:00 AM 4.25 39.65 0.041 7.04 1.91 12.56
12/31/2022 12:00:00 PM 4.33 39.794 0.041 7.06 1.81 12.54
12/31/2022 12:15:00 PM 4.41 39.938 0.041 7.06 1.87 12.52
12/31/2022 12:30:00 PM 4.49 40.082 0.041 7.07 1.82 12.5
12/31/2022 12:45:00 PM 4.55 40.19 0.041 7.08 1.86 12.47
12/31/2022 1:00:00 PM 4.61 40.298 0.041 7.08 1.89 12.43
12/31/2022 1:15:00 PM 4.65 40.37 0.041 7.13 1.81 12.38
12/31/2022 1:30:00 PM 4.68 40.424 0.041 7.11 1.89 12.34
12/31/2022 1:45:00 PM 4.71 40.478 0.041 7.08 1.9 12.31
12/31/2022 2:00:00 PM 4.74 40.532 0.04 7.07 1.88 12.3
12/31/2022 2:15:00 PM 4.76 40.568 0.04 7.07 1.95 12.27
12/31/2022 2:30:00 PM 4.79 40.622 0.04 7.07 1.96 12.25
12/31/2022 2:45:00 PM 4.81 40.658 0.04 7.1 1.85 12.22
12/31/2022 3:00:00 PM 4.83 40.694 0.04 7.08 2.02 12.18
12/31/2022 3:15:00 PM 4.84 40.712 0.04 7.06 1.99 12.14
12/31/2022 3:30:00 PM 4.86 40.748 0.04 7.03 2.01 12.1
12/31/2022 3:45:00 PM 4.87 40.766 0.04 7.09 2.01 12.06
12/31/2022 4:00:00 PM 4.87 40.766 0.041 7.01 2.08 12.02
12/31/2022 4:15:00 PM 4.87 40.766 0.041 7 2.09 11.98
12/31/2022 4:30:00 PM 4.88 40.784 0.041 6.99 2.33 11.95
12/31/2022 4:45:00 PM 4.87 40.766 0.041 7.05 2.29 11.92
12/31/2022 5:00:00 PM 4.87 40.766 0.041 6.97 2.28 11.9
12/31/2022 5:15:00 PM 4.87 40.766 0.041 6.96 2.36 11.88
12/31/2022 5:30:00 PM 4.87 40.766 0.041 6.97 2.63 11.86
12/31/2022 5:45:00 PM 4.86 40.748 0.041 7.02 2.61 11.86
12/31/2022 6:00:00 PM 4.86 40.748 0.041 6.95 2.6 11.85
12/31/2022 6:15:00 PM 4.85 40.73 0.041 6.95 2.73 11.84
12/31/2022 6:30:00 PM 4.84 40.712 0.041 6.94 2.78 11.84
12/31/2022 6:45:00 PM 4.84 40.712 0.041 6.95 2.86 11.83
12/31/2022 7:00:00 PM 4.83 40.694 0.041 6.94 2.91 11.84
12/31/2022 7:15:00 PM 4.82 40.676 0.041 6.94 2.92 11.83
12/31/2022 7:30:00 PM 4.81 40.658 0.041 6.93 2.9 11.84
12/31/2022 7:45:00 PM 4.81 40.658 0.041 6.94 2.96 11.83
12/31/2022 8:00:00 PM 4.8 40.64 0.041 6.93 2.94 11.83
12/31/2022 8:15:00 PM 4.8 40.64 0.041 6.92 2.98 11.84
12/31/2022 8:30:00 PM 4.79 40.622 0.041 6.92 2.79 11.84
12/31/2022 8:45:00 PM 4.78 40.604 0.041 6.92 3.02 11.84
12/31/2022 9:00:00 PM 4.78 40.604 0.041 6.92 3.03 11.84
12/31/2022 9:15:00 PM 4.77 40.586 0.041 6.91 3.01 11.85
12/31/2022 9:30:00 PM 4.75 40.55 0.041 6.9 3.21 11.85
12/31/2022 9:45:00 PM 4.74 40.532 0.041 6.96 3.16 11.85
12/31/2022 10:00:00 PM 4.72 40.496 0.041 6.91 3.1 11.86
12/31/2022 10:15:00 PM 4.72 40.496 0.041 6.97 3.06 11.86
12/31/2022 10:30:00 PM 4.71 40.478 0.041 6.9 3.12 11.87
12/31/2022 10:45:00 PM 4.69 40.442 0.041 6.97 3.16 11.87
12/31/2022 11:00:00 PM 4.69 40.442 0.041 6.89 3.27 11.87
12/31/2022 11:15:00 PM 4.68 40.424 0.041 6.9 3.36 11.88
12/31/2022 11:30:00 PM 4.66 40.388 0.041 6.89 3.31 11.88
12/31/2022 11:45:00 PM 4.65 40.37 0.041 6.89 3.31 11.89
1/1/2023 12:00:00 AM 4.64 40.352 0.041 6.87 3.31 11.89
1/1/2023 12:15:00 AM 4.62 40.316 0.041 6.88 3.25 11.89
1/1/2023 12:30:00 AM 4.62 40.316 0.041 6.87 3.07 11.9
1/1/2023 12:45:00 AM 4.61 40.298 0.041 6.88 3.4 11.9
1/1/2023 1:00:00 AM 4.61 40.298 0.041 6.89 3.15 11.91
1/1/2023 1:15:00 AM 4.6 40.28 0.041 6.87 3.35 11.91
1/1/2023 1:30:00 AM 4.6 40.28 0.041 6.87 3.24 11.91
1/1/2023 1:45:00 AM 4.6 40.28 0.041 6.89 3.3 11.91
1/1/2023 2:00:00 AM 4.6 40.28 0.041 6.88 3.46 11.92
1/1/2023 2:15:00 AM 4.59 40.262 0.041 6.89 3.36 11.92
1/1/2023 2:30:00 AM 4.58 40.244 0.041 6.87 3.41 11.93
1/1/2023 2:45:00 AM 4.57 40.226 0.04 6.87 3.54 11.93
1/1/2023 3:00:00 AM 4.56 40.208 0.04 6.87 3.3 11.94
1/1/2023 3:15:00 AM 4.53 40.154 0.04 6.91 3.36 11.94
1/1/2023 3:30:00 AM 4.51 40.118 0.04 6.88 3.45 11.95
1/1/2023 3:45:00 AM 4.49 40.082 0.04 6.88 3.51 11.96
1/1/2023 4:00:00 AM 4.46 40.028 0.04 6.93 3.51 11.96
1/1/2023 4:15:00 AM 4.44 39.992 0.04 6.88 3.64 11.98
1/1/2023 4:30:00 AM 4.41 39.938 0.04 6.89 3.53 11.99
1/1/2023 4:45:00 AM 4.38 39.884 0.04 6.88 3.5 11.99
1/1/2023 5:00:00 AM 4.36 39.848 0.04 6.87 3.71 12
1/1/2023 5:15:00 AM 4.34 39.812 0.04 6.9 3.67 12
1/1/2023 5:30:00 AM 4.33 39.794 0.04 6.89 3.66 12.01
1/1/2023 5:45:00 AM 4.32 39.776 0.04 6.88 3.79 12.01
1/1/2023 6:00:00 AM 4.32 39.776 0.04 6.86 3.79 12.01
1/1/2023 6:15:00 AM 4.31 39.758 0.04 6.93 3.77 12.02
1/1/2023 6:30:00 AM 4.32 39.776 0.04 6.85 3.82 12.02
1/1/2023 6:45:00 AM 4.34 39.812 0.04 6.85 3.97 12.02
1/1/2023 7:00:00 AM 4.36 39.848 0.04 6.85 3.92 12.02
1/1/2023 7:15:00 AM 4.37 39.866 0.04 6.85 4.14 12.02
1/1/2023 7:30:00 AM 4.38 39.884 0.04 6.85 3.99 12.02
1/1/2023 7:45:00 AM 4.39 39.902 0.04 6.86 3.93 12.02
1/1/2023 8:00:00 AM 4.4 39.92 0.04 6.86 4.18 12.04
1/1/2023 8:15:00 AM 4.4 39.92 0.04 6.87 3.97 12.07
1/1/2023 8:30:00 AM 4.4 39.92 0.04 6.86 4.04 12.1
1/1/2023 8:45:00 AM 4.41 39.938 0.04 6.88 4 12.14
1/1/2023 9:00:00 AM 4.43 39.974 0.04 6.89 4.12 12.17
1/1/2023 9:15:00 AM 4.45 40.01 0.04 6.9 4.02 12.2
1/1/2023 9:30:00 AM 4.48 40.064 0.04 6.91 4.01 12.22
1/1/2023 9:45:00 AM 4.52 40.136 0.04 6.92 4.22 12.24
1/1/2023 10:00:00 AM 4.56 40.208 0.04 6.93 4.02 12.27
1/1/2023 10:15:00 AM 4.61 40.298 0.04 6.94 3.98 12.28
1/1/2023 10:30:00 AM 4.64 40.352 0.039 6.94 4.02 12.29
1/1/2023 10:45:00 AM 4.65 40.37 0.039 7.01 4.05 12.28
1/1/2023 11:00:00 AM 4.69 40.442 0.039 6.95 4.07 12.28
1/1/2023 11:15:00 AM 4.71 40.478 0.039 6.96 4.07 12.27
1/1/2023 11:30:00 AM 4.76 40.568 0.039 7 4.22 12.28
1/1/2023 11:45:00 AM 4.79 40.622 0.039 6.98 4.16 12.29
1/1/2023 12:00:00 PM 4.89 40.802 0.039 7.06 4.27 12.29
1/1/2023 12:15:00 PM 4.94 40.892 0.039 6.99 4.29 12.25
1/1/2023 12:30:00 PM 4.99 40.982 0.039 7 4.34 12.24
1/1/2023 12:45:00 PM 5.01 41.018 0.039 7.01 4.53 12.21
1/1/2023 1:00:00 PM 5.06 41.108 0.039 7 4.49 12.2
1/1/2023 1:15:00 PM 5.09 41.162 0.039 6.99 4.65 12.2
1/1/2023 1:30:00 PM 5.12 41.216 0.039 7 4.39 12.19
1/1/2023 1:45:00 PM 5.16 41.288 0.039 7.02 4.6 12.18
1/1/2023 2:00:00 PM 5.2 41.36 0.039 6.99 4.98 12.16
1/1/2023 2:15:00 PM 5.21 41.378 0.039 7.01 5.05 12.14
1/1/2023 2:30:00 PM 5.21 41.378 0.039 6.98 4.84 12.1
1/1/2023 2:45:00 PM 5.22 41.396 0.039 7.05 4.94 12.07
1/1/2023 3:00:00 PM 5.23 41.414 0.039 6.97 5.08 12.05
1/1/2023 3:15:00 PM 5.24 41.432 0.039 7.04 4.85 12.03
1/1/2023 3:30:00 PM 5.25 41.45 0.039 6.97 5.23 12
1/1/2023 3:45:00 PM 5.26 41.468 0.039 7.03 5.42 12
1/1/2023 4:00:00 PM 5.27 41.486 0.039 7 5.57 12
1/1/2023 4:15:00 PM 5.27 41.486 0.039 7 5.8 11.97
1/1/2023 4:30:00 PM 5.27 41.486 0.039 6.96 5.49 11.93
1/1/2023 4:45:00 PM 5.26 41.468 0.039 6.94 6.01 11.89
1/1/2023 5:00:00 PM 5.25 41.45 0.039 6.94 5.5 11.86
1/1/2023 5:15:00 PM 5.24 41.432 0.039 6.93 5.96 11.83
1/1/2023 5:30:00 PM 5.23 41.414 0.039 6.92 5.87 11.82
1/1/2023 5:45:00 PM 5.21 41.378 0.039 6.92 5.85 11.81
1/1/2023 6:00:00 PM 5.19 41.342 0.039 6.91 6.12 11.81
1/1/2023 6:15:00 PM 5.18 41.324 0.039 6.93 6.18 11.81
1/1/2023 6:30:00 PM 5.16 41.288 0.039 6.91 5.88 11.81
1/1/2023 6:45:00 PM 5.15 41.27 0.039 6.97 5.93 11.81
1/1/2023 7:00:00 PM 5.14 41.252 0.039 6.9 6.15 11.81
1/1/2023 7:15:00 PM 5.14 41.252 0.039 6.89 5.99 11.81
1/1/2023 7:30:00 PM 5.13 41.234 0.039 6.89 5.93 11.81
1/1/2023 7:45:00 PM 5.12 41.216 0.039 6.89 5.97 11.81
1/1/2023 8:00:00 PM 5.12 41.216 0.039 6.9 6.19 11.81
1/1/2023 8:15:00 PM 5.11 41.198 0.039 6.95 6.21 11.82
1/1/2023 8:30:00 PM 5.1 41.18 0.039 6.87 6.66 11.83
1/1/2023 8:45:00 PM 5.09 41.162 0.039 6.88 6.21 11.83
1/1/2023 9:00:00 PM 5.08 41.144 0.039 6.89 6.17 11.83
1/1/2023 9:15:00 PM 5.08 41.144 0.039 6.86 6.06 11.83
1/1/2023 9:30:00 PM 5.08 41.144 0.039 6.92 6.03 11.83
1/1/2023 9:45:00 PM 5.07 41.126 0.039 6.9 6.17 11.83
1/1/2023 10:00:00 PM 5.06 41.108 0.039 6.89 6.11 11.83
1/1/2023 10:15:00 PM 5.06 41.108 0.039 6.87 6.06 11.84
1/1/2023 10:30:00 PM 5.05 41.09 0.039 6.86 6.83 11.84
1/1/2023 10:45:00 PM 5.04 41.072 0.039 6.86 6.22 11.84
1/1/2023 11:00:00 PM 5.04 41.072 0.039 6.77 6.34 11.84
1/1/2023 11:15:00 PM 5.03 41.054 0.039 6.81 6.38 11.85
1/1/2023 11:30:00 PM 5.02 41.036 0.039 6.88 6.32 11.85
1/1/2023 11:45:00 PM 5.02 41.036 0.039 6.86 6.47 11.85
1/2/2023 12:00:00 AM 5.02 41.036 0.039 6.86 6.07 11.85
1/2/2023 12:15:00 AM 5.01 41.018 0.039 6.85 6.4 11.85
1/2/2023 12:30:00 AM 5.01 41.018 0.039 6.85 6.68 11.86
1/2/2023 12:45:00 AM 5 41 0.039 6.9 6.3 11.86
1/2/2023 1:00:00 AM 5 41 0.039 6.82 6.2 11.86
1/2/2023 1:15:00 AM 5 41 0.039 6.89 6.33 11.86
1/2/2023 1:30:00 AM 5 41 0.039 6.84 6.18 11.87
1/2/2023 1:45:00 AM 5 41 0.039 6.83 6.19 11.86
1/2/2023 2:00:00 AM 5 41 0.039 6.83 6.14 11.86
1/2/2023 2:15:00 AM 4.99 40.982 0.039 6.82 6.65 11.87
1/2/2023 2:30:00 AM 4.99 40.982 0.039 6.82 6.01 11.87
1/2/2023 2:45:00 AM 4.99 40.982 0.039 6.89 6.37 11.87
1/2/2023 3:00:00 AM 4.98 40.964 0.039 6.84 6.44 11.88
1/2/2023 3:15:00 AM 4.99 40.982 0.039 6.82 6.42 11.87
1/2/2023 3:30:00 AM 4.98 40.964 0.039 6.82 6.03 11.87
1/2/2023 3:45:00 AM 4.98 40.964 0.039 6.82 6 11.87
1/2/2023 4:00:00 AM 4.98 40.964 0.039 6.82 6.1 11.87
1/2/2023 4:15:00 AM 4.99 40.982 0.039 6.83 6 11.87
1/2/2023 4:30:00 AM 4.99 40.982 0.039 6.82 6.07 11.87
1/2/2023 4:45:00 AM 4.98 40.964 0.039 6.82 6.17 11.87
1/2/2023 5:00:00 AM 4.98 40.964 0.039 6.88 5.75 11.87
1/2/2023 5:15:00 AM 4.98 40.964 0.039 6.81 5.74 11.88
1/2/2023 5:30:00 AM 4.98 40.964 0.039 6.82 5.81 11.88
1/2/2023 5:45:00 AM 4.97 40.946 0.039 6.82 5.9 11.88
1/2/2023 6:00:00 AM 4.97 40.946 0.039 6.88 5.66 11.88
1/2/2023 6:15:00 AM 4.97 40.946 0.039 6.82 5.78 11.89
1/2/2023 6:30:00 AM 4.97 40.946 0.039 6.83 5.73 11.89
1/2/2023 6:45:00 AM 4.96 40.928 0.039 6.84 5.76 11.89
1/2/2023 7:00:00 AM 4.96 40.928 0.039 6.79 5.96 11.89
1/2/2023 7:15:00 AM 4.96 40.928 0.039 6.81 5.56 11.9
1/2/2023 7:30:00 AM 4.95 40.91 0.039 6.81 5.68 11.9
1/2/2023 7:45:00 AM 4.94 40.892 0.039 6.82 5.72 11.91
1/2/2023 8:00:00 AM 4.93 40.874 0.039 6.8 5.65 11.91
1/2/2023 8:15:00 AM 4.92 40.856 0.039 6.8 5.7 11.93
1/2/2023 8:30:00 AM 4.92 40.856 0.039 6.81 5.51 11.96
1/2/2023 8:45:00 AM 4.93 40.874 0.039 6.84 5.32 11.99
1/2/2023 9:00:00 AM 4.94 40.892 0.038 6.82 5.26 12.02
1/2/2023 9:15:00 AM 4.96 40.928 0.038 6.83 5.16 12.05
1/2/2023 9:30:00 AM 4.98 40.964 0.038 6.85 5.13 12.07
1/2/2023 9:45:00 AM 5.01 41.018 0.038 6.87 6.42 12.09
1/2/2023 10:00:00 AM 5.04 41.072 0.038 6.84 5.2 12.1
1/2/2023 10:15:00 AM 5.08 41.144 0.038 6.86 5.1 12.11
1/2/2023 10:30:00 AM 5.11 41.198 0.038 6.91 4.88 12.12
1/2/2023 10:45:00 AM 5.16 41.288 0.038 6.88 5.05 12.12
1/2/2023 11:00:00 AM 5.2 41.36 0.038 6.9 4.62 12.11
1/2/2023 11:15:00 AM 5.25 41.45 0.038 6.97 4.94 12.1
1/2/2023 11:30:00 AM 5.33 41.594 0.038 6.91 4.74 12.1
1/2/2023 11:45:00 AM 5.39 41.702 0.038 6.92 4.94 12.09
1/2/2023 12:00:00 PM 5.45 41.81 0.038 6.91 4.68 12.07
1/2/2023 12:15:00 PM 5.51 41.918 0.038 6.91 4.66 12.04
1/2/2023 12:30:00 PM 5.56 42.008 0.038 6.95 4.69 12.02
1/2/2023 12:45:00 PM 5.63 42.134 0.038 6.93 4.49 12
1/2/2023 1:00:00 PM 5.67 42.206 0.038 7 4.58 11.99
1/2/2023 1:15:00 PM 5.73 42.314 0.038 6.98 4.8 11.98
1/2/2023 1:30:00 PM 5.76 42.368 0.038 6.96 4.67 11.97
1/2/2023 1:45:00 PM 5.81 42.458 0.038 6.94 4.68 11.96
1/2/2023 2:00:00 PM 5.84 42.512 0.038 6.95 4.57 11.95
1/2/2023 2:15:00 PM 5.86 42.548 0.038 6.94 4.75 11.94
1/2/2023 2:30:00 PM 5.9 42.62 0.038 7.02 4.95 11.93
1/2/2023 2:45:00 PM 5.92 42.656 0.038 6.96 4.92 11.91
1/2/2023 3:00:00 PM 5.94 42.692 0.038 6.94 5.38 11.89
1/2/2023 3:15:00 PM 5.96 42.728 0.038 7 4.95 11.86
1/2/2023 3:30:00 PM 5.96 42.728 0.038 6.92 5.06 11.82
1/2/2023 3:45:00 PM 5.98 42.764 0.038 7 4.93 11.8
1/2/2023 4:00:00 PM 5.98 42.764 0.038 6.92 5.19 11.78
1/2/2023 4:15:00 PM 5.98 42.764 0.038 6.92 5.15 11.75
1/2/2023 4:30:00 PM 5.98 42.764 0.038 6.97 4.85 11.73
1/2/2023 4:45:00 PM 5.96 42.728 0.038 6.89 5.01 11.7
1/2/2023 5:00:00 PM 5.95 42.71 0.038 6.96 5.07 11.68
1/2/2023 5:15:00 PM 5.93 42.674 0.038 6.86 5.34 11.66
1/2/2023 5:30:00 PM 5.91 42.638 0.038 6.84 5.2 11.65
1/2/2023 5:45:00 PM 5.89 42.602 0.038 6.93 5.39 11.64
1/2/2023 6:00:00 PM 5.87 42.566 0.038 6.83 5.14 11.64
1/2/2023 6:15:00 PM 5.85 42.53 0.038 6.81 5.27 11.65
1/2/2023 6:30:00 PM 5.83 42.494 0.038 6.83 5.35 11.64
1/2/2023 6:45:00 PM 5.81 42.458 0.038 6.86 5.4 11.65
1/2/2023 7:00:00 PM 5.79 42.422 0.038 6.85 5.53 11.65
1/2/2023 7:15:00 PM 5.77 42.386 0.038 6.84 5.42 11.66
1/2/2023 7:30:00 PM 5.75 42.35 0.038 6.83 5.28 11.66
1/2/2023 7:45:00 PM 5.73 42.314 0.038 6.8 5.57 11.67
1/2/2023 8:00:00 PM 5.71 42.278 0.038 6.81 5.58 11.68
1/2/2023 8:15:00 PM 5.68 42.224 0.038 6.79 5.38 11.68
1/2/2023 8:30:00 PM 5.66 42.188 0.038 6.79 5.33 11.69
1/2/2023 8:45:00 PM 5.65 42.17 0.038 6.79 5.3 11.69
1/2/2023 9:00:00 PM 5.63 42.134 0.038 6.89 5.38 11.7
1/2/2023 9:15:00 PM 5.61 42.098 0.038 6.84 5.43 11.7
1/2/2023 9:30:00 PM 5.59 42.062 0.038 6.77 5.23 11.71
1/2/2023 9:45:00 PM 5.58 42.044 0.038 6.81 5.43 11.71
1/2/2023 10:00:00 PM 5.57 42.026 0.038 6.78 5.25 11.71
1/2/2023 10:15:00 PM 5.56 42.008 0.038 6.8 5.27 11.72
1/2/2023 10:30:00 PM 5.55 41.99 0.038 6.79 5.21 11.72
1/2/2023 10:45:00 PM 5.54 41.972 0.038 6.78 5.3 11.72
1/2/2023 11:00:00 PM 5.52 41.936 0.038 6.77 5.33 11.72
1/2/2023 11:15:00 PM 5.51 41.918 0.038 6.78 5.23 11.73
1/2/2023 11:30:00 PM 5.5 41.9 0.038 6.84 5.07 11.73
1/2/2023 11:45:00 PM 5.5 41.9 0.038 6.76 5.06 11.73
1/3/2023 12:00:00 AM 5.49 41.882 0.038 6.74 4.91 11.73
1/3/2023 12:15:00 AM 5.49 41.882 0.038 6.75 4.94 11.73
1/3/2023 12:30:00 AM 5.49 41.882 0.038 6.77 4.93 11.73
1/3/2023 12:45:00 AM 5.49 41.882 0.038 6.76 4.86 11.73
1/3/2023 1:00:00 AM 5.49 41.882 0.038 6.75 5.02 11.73
1/3/2023 1:15:00 AM 5.48 41.864 0.038 6.72 4.98 11.72
1/3/2023 1:30:00 AM 5.48 41.864 0.038 6.82 4.74 11.72
1/3/2023 1:45:00 AM 5.48 41.864 0.038 6.79 4.83 11.72
1/3/2023 2:00:00 AM 5.48 41.864 0.038 6.78 4.83 11.72
1/3/2023 2:15:00 AM 5.48 41.864 0.038 6.85 4.88 11.72
1/3/2023 2:30:00 AM 5.48 41.864 0.038 6.8 4.74 11.73
1/3/2023 2:45:00 AM 5.48 41.864 0.038 6.76 5.49 11.72
1/3/2023 3:00:00 AM 5.48 41.864 0.038 6.76 4.9 11.72
1/3/2023 3:15:00 AM 5.48 41.864 0.038 6.77 4.54 11.72
1/3/2023 3:30:00 AM 5.49 41.882 0.038 6.83 4.74 11.73
1/3/2023 3:45:00 AM 5.49 41.882 0.038 6.78 4.69 11.72
1/3/2023 4:00:00 AM 5.49 41.882 0.038 6.83 4.69 11.72
1/3/2023 4:15:00 AM 5.49 41.882 0.038 6.77 4.66 11.72
1/3/2023 4:30:00 AM 5.49 41.882 0.038 6.85 4.5 11.71
1/3/2023 4:45:00 AM 5.49 41.882 0.038 6.78 4.55 11.71
1/3/2023 5:00:00 AM 5.49 41.882 0.038 6.78 4.64 11.71
1/3/2023 5:15:00 AM 5.49 41.882 0.038 6.86 4.46 11.71
1/3/2023 5:30:00 AM 5.49 41.882 0.038 6.77 4.53 11.7
1/3/2023 5:45:00 AM 5.49 41.882 0.038 6.76 4.51 11.7
1/3/2023 6:00:00 AM 5.49 41.882 0.038 6.76 4.35 11.7
1/3/2023 6:15:00 AM 5.49 41.882 0.038 6.73 4.51 11.7
1/3/2023 6:30:00 AM 5.49 41.882 0.038 6.76 4.53 11.69
1/3/2023 6:45:00 AM 5.49 41.882 0.038 6.75 4.29 11.69
1/3/2023 7:00:00 AM 5.49 41.882 0.038 6.75 4.4 11.69
1/3/2023 7:15:00 AM 5.49 41.882 0.038 6.78 4.25 11.69
1/3/2023 7:30:00 AM 5.49 41.882 0.038 6.79 4.21 11.69
1/3/2023 7:45:00 AM 5.5 41.9 0.038 6.77 4.6 11.68
1/3/2023 8:00:00 AM 5.5 41.9 0.038 6.71 4.33 11.68
1/3/2023 8:15:00 AM 5.5 41.9 0.038 6.76 4.41 11.68
1/3/2023 8:30:00 AM 5.5 41.9 0.038 6.78 4.37 11.69
1/3/2023 8:45:00 AM 5.51 41.918 0.038 6.77 4.25 11.69
1/3/2023 9:00:00 AM 5.51 41.918 0.038 6.74 4.42 11.7
1/3/2023 9:15:00 AM 5.52 41.936 0.038 6.71 4.66 11.71
1/3/2023 9:30:00 AM 5.53 41.954 0.038 6.71 5.03 11.71
1/3/2023 9:45:00 AM 5.54 41.972 0.038 6.85 5.23 11.71
1/3/2023 10:00:00 AM 5.55 41.99 0.038 6.74 5.9 11.71
1/3/2023 10:15:00 AM 5.56 42.008 0.038 6.7 6.31 11.72
1/3/2023 10:30:00 AM 5.57 42.026 0.038 6.75 7.09 11.74
1/3/2023 10:45:00 AM 5.59 42.062 0.038 6.8 7.53 11.74
1/3/2023 11:00:00 AM 5.6 42.08 0.038 6.71 8.19 11.75
1/3/2023 11:15:00 AM 5.62 42.116 0.038 6.77 8.84 11.75
1/3/2023 11:30:00 AM 5.63 42.134 0.037 6.71 9.49 11.74
1/3/2023 11:45:00 AM 5.64 42.152 0.037 6.73 9.89 11.74
1/3/2023 12:00:00 PM 5.66 42.188 0.037 6.84 10.21 11.74
1/3/2023 12:15:00 PM 5.68 42.224 0.037 6.75 11.04 11.73
1/3/2023 12:30:00 PM 5.69 42.242 0.037 6.74 11.26 11.72
1/3/2023 12:45:00 PM 5.71 42.278 0.037 6.72 11.35 11.71
1/3/2023 1:00:00 PM 5.72 42.296 0.037 6.77 12.17 11.7
1/3/2023 1:15:00 PM 5.74 42.332 0.037 6.78 11.93 11.69
1/3/2023 1:30:00 PM 5.76 42.368 0.037 6.78 11.86 11.69
1/3/2023 1:45:00 PM 5.78 42.404 0.037 6.77 12.18 11.67
1/3/2023 2:00:00 PM 5.8 42.44 0.037 6.8 12.62 11.65
1/3/2023 2:15:00 PM 5.81 42.458 0.037 6.82 13.02 11.63
1/3/2023 2:30:00 PM 5.82 42.476 0.037 6.82 13.37 11.61
1/3/2023 2:45:00 PM 5.83 42.494 0.037 6.74 13.41 11.6
1/3/2023 3:00:00 PM 5.85 42.53 0.037 6.8 13.61 11.58
1/3/2023 3:15:00 PM 5.86 42.548 0.037 6.72 14.15 11.57
1/3/2023 3:30:00 PM 5.87 42.566 0.037 6.73 14.94 11.56
1/3/2023 3:45:00 PM 5.88 42.584 0.037 6.78 15.12 11.55
1/3/2023 4:00:00 PM 5.89 42.602 0.037 6.71 14.35 11.54
1/3/2023 4:15:00 PM 5.89 42.602 0.037 6.78 13.65 11.53
1/3/2023 4:30:00 PM 5.9 42.62 0.037 6.71 14.71 11.52
1/3/2023 4:45:00 PM 5.9 42.62 0.037 6.81 14.34 11.51
1/3/2023 5:00:00 PM 5.9 42.62 0.037 6.77 14.68 11.51
1/3/2023 5:15:00 PM 5.91 42.638 0.036 6.76 14.67 11.49
1/3/2023 5:30:00 PM 5.91 42.638 0.036 6.83 13.3 11.49
1/3/2023 5:45:00 PM 5.91 42.638 0.036 6.75 13.38 11.49
1/3/2023 6:00:00 PM 5.91 42.638 0.036 6.75 12.74 11.48
1/3/2023 6:15:00 PM 5.91 42.638 0.036 6.75 13.24 11.48
1/3/2023 6:30:00 PM 5.92 42.656 0.036 6.71 12.64 11.47
1/3/2023 6:45:00 PM 5.92 42.656 0.036 6.72 12.18 11.47
1/3/2023 7:00:00 PM 5.93 42.674 0.036 6.73 11.83 11.47
1/3/2023 7:15:00 PM 5.94 42.692 0.036 6.81 11.43 11.46
1/3/2023 7:30:00 PM 5.95 42.71 0.036 6.74 11.54 11.47
1/3/2023 7:45:00 PM 5.95 42.71 0.036 6.8 11.13 11.46
1/3/2023 8:00:00 PM 5.96 42.728 0.036 6.72 10.77 11.46
1/3/2023 8:15:00 PM 5.97 42.746 0.036 6.79 10.48 11.46
1/3/2023 8:30:00 PM 5.98 42.764 0.036 6.66 10.57 11.46
1/3/2023 8:45:00 PM 6 42.8 0.036 6.76 10.28 11.45
1/3/2023 9:00:00 PM 6.01 42.818 0.036 6.68 9.99 11.45
1/3/2023 9:15:00 PM 6.03 42.854 0.037 6.69 9.86 11.44
1/3/2023 9:30:00 PM 6.04 42.872 0.036 6.68 9.71 11.44
1/3/2023 9:45:00 PM 6.05 42.89 0.036 6.66 9.86 11.44
1/3/2023 10:00:00 PM 6.07 42.926 0.036 6.7 9.47 11.43
1/3/2023 10:15:00 PM 6.08 42.944 0.036 6.77 9.51 11.43
1/3/2023 10:30:00 PM 6.1 42.98 0.036 6.7 9.57 11.42
1/3/2023 10:45:00 PM 6.11 42.998 0.036 6.69 9.32 11.42
1/3/2023 11:00:00 PM 6.12 43.016 0.036 6.72 9.11 11.41
1/3/2023 11:15:00 PM 6.14 43.052 0.036 6.69 8.95 11.41
1/3/2023 11:30:00 PM 6.16 43.088 0.036 6.67 8.79 11.4
1/3/2023 11:45:00 PM 6.18 43.124 0.036 6.63 8.74 11.4
1/4/2023 12:00:00 AM 6.19 43.142 0.036 6.69 8.7 11.39
1/4/2023 12:15:00 AM 6.21 43.178 0.036 6.7 8.61 11.39
1/4/2023 12:30:00 AM 6.23 43.214 0.036 6.68 8.4 11.38
1/4/2023 12:45:00 AM 6.25 43.25 0.036 6.68 8.28 11.38
1/4/2023 1:00:00 AM 6.27 43.286 0.036 6.8 8.38 11.38
1/4/2023 1:15:00 AM 6.29 43.322 0.036 6.72 8.37 11.38
1/4/2023 1:30:00 AM 6.3 43.34 0.036 6.71 8.42 11.37
1/4/2023 1:45:00 AM 6.31 43.358 0.036 6.71 8.38 11.37
1/4/2023 2:00:00 AM 6.33 43.394 0.036 6.67 8.4 11.37
1/4/2023 2:15:00 AM 6.33 43.394 0.036 6.76 8.05 11.36
1/4/2023 2:30:00 AM 6.33 43.394 0.036 6.71 8.29 11.36
1/4/2023 2:45:00 AM 6.33 43.394 0.036 6.74 8.37 11.36
1/4/2023 3:00:00 AM 6.33 43.394 0.036 6.74 8.24 11.36
1/4/2023 3:15:00 AM 6.34 43.412 0.036 6.65 8.31 11.36
1/4/2023 3:30:00 AM 6.35 43.43 0.036 6.69 8.39 11.36
1/4/2023 3:45:00 AM 6.35 43.43 0.036 6.75 8.31 11.36
1/4/2023 4:00:00 AM 6.36 43.448 0.036 6.65 8.05 11.36
1/4/2023 4:15:00 AM 6.37 43.466 0.036 6.69 8.21 11.36
1/4/2023 4:30:00 AM 6.38 43.484 0.036 6.7 8.42 11.36
1/4/2023 4:45:00 AM 6.39 43.502 0.036 6.7 8.01 11.35
1/4/2023 5:00:00 AM 6.4 43.52 0.036 6.72 7.89 11.35
1/4/2023 5:15:00 AM 6.41 43.538 0.036 6.64 7.89 11.35
1/4/2023 5:30:00 AM 6.42 43.556 0.036 6.7 8.24 11.34
1/4/2023 5:45:00 AM 6.42 43.556 0.036 6.71 8.4 11.35
1/4/2023 6:00:00 AM 6.43 43.574 0.036 6.7 8.26 11.35
1/4/2023 6:15:00 AM 6.43 43.574 0.036 6.72 8.22 11.34
1/4/2023 6:30:00 AM 6.44 43.592 0.036 6.67 8.3 11.34
1/4/2023 6:45:00 AM 6.44 43.592 0.036 6.79 8.36 11.34
1/4/2023 7:00:00 AM 6.45 43.61 0.036 6.69 8.31 11.35
1/4/2023 7:15:00 AM 6.45 43.61 0.036 6.71 8.54 11.35
1/4/2023 7:30:00 AM 6.45 43.61 0.036 6.7 8.57 11.35
1/4/2023 7:45:00 AM 6.46 43.628 0.036 6.67 8.49 11.34
1/4/2023 8:00:00 AM 6.46 43.628 0.036 6.69 8.63 11.35
1/4/2023 8:15:00 AM 6.47 43.646 0.036 6.69 8.61 11.35
1/4/2023 8:30:00 AM 6.47 43.646 0.036 6.67 8.59 11.35
1/4/2023 8:45:00 AM 6.48 43.664 0.036 6.69 8.03 11.37
1/4/2023 9:00:00 AM 6.49 43.682 0.036 6.69 7.98 11.37
1/4/2023 9:15:00 AM 6.51 43.718 0.036 6.7 7.77 11.38
1/4/2023 9:30:00 AM 6.52 43.736 0.036 6.78 8.1 11.39
1/4/2023 9:45:00 AM 6.54 43.772 0.036 6.68 7.89 11.42
1/4/2023 10:00:00 AM 6.57 43.826 0.036 6.72 7.85 11.44
1/4/2023 10:15:00 AM 6.6 43.88 0.036 6.73 7.61 11.46
1/4/2023 10:30:00 AM 6.64 43.952 0.036 6.81 7.64 11.47
1/4/2023 10:45:00 AM 6.67 44.006 0.036 6.76 7.67 11.47
1/4/2023 11:00:00 AM 6.72 44.096 0.036 6.8 7.69 11.46
1/4/2023 11:15:00 AM 6.76 44.168 0.036 6.77 7.83 11.45
1/4/2023 11:30:00 AM 6.8 44.24 0.036 6.77 8.03 11.46
1/4/2023 11:45:00 AM 6.86 44.348 0.036 6.76 7.59 11.45
1/4/2023 12:00:00 PM 6.9 44.42 0.036 6.81 7.49 11.44
1/4/2023 12:15:00 PM 6.93 44.474 0.036 6.79 7.88 11.41
1/4/2023 12:30:00 PM 6.97 44.546 0.036 6.83 7.66 11.4
1/4/2023 12:45:00 PM 7 44.6 0.036 6.77 7.73 11.37
1/4/2023 1:00:00 PM 7.02 44.636 0.036 6.75 7.69 11.36
1/4/2023 1:15:00 PM 7.05 44.69 0.036 6.87 7.6 11.35
1/4/2023 1:30:00 PM 7.07 44.726 0.036 6.79 7.63 11.33
1/4/2023 1:45:00 PM 7.08 44.744 0.036 6.77 7.65 11.31
1/4/2023 2:00:00 PM 7.08 44.744 0.036 6.76 7.75 11.29
1/4/2023 2:15:00 PM 7.09 44.762 0.036 6.74 7.84 11.27
1/4/2023 2:30:00 PM 7.11 44.798 0.036 6.76 7.71 11.26
1/4/2023 2:45:00 PM 7.12 44.816 0.036 6.81 8.19 11.24
1/4/2023 3:00:00 PM 7.14 44.852 0.036 6.78 7.99 11.23
1/4/2023 3:15:00 PM 7.15 44.87 0.036 6.85 7.99 11.23
1/4/2023 3:30:00 PM 7.16 44.888 0.036 6.76 7.81 11.23
1/4/2023 3:45:00 PM 7.17 44.906 0.036 6.78 8.04 11.21
1/4/2023 4:00:00 PM 7.17 44.906 0.036 6.69 8.19 11.19
1/4/2023 4:15:00 PM 7.17 44.906 0.036 6.79 8.42 11.18
1/4/2023 4:30:00 PM 7.18 44.924 0.036 6.74 8.29 11.16
1/4/2023 4:45:00 PM 7.17 44.906 0.036 6.83 8 11.15
1/4/2023 5:00:00 PM 7.16 44.888 0.036 6.78 7.97 11.14
1/4/2023 5:15:00 PM 7.16 44.888 0.036 6.75 8.17 11.13
1/4/2023 5:30:00 PM 7.14 44.852 0.036 6.8 8.25 11.13
1/4/2023 5:45:00 PM 7.14 44.852 0.036 6.75 8.4 11.12
1/4/2023 6:00:00 PM 7.13 44.834 0.036 6.74 8.44 11.12
1/4/2023 6:15:00 PM 7.12 44.816 0.036 6.74 8.61 11.11
1/4/2023 6:30:00 PM 7.11 44.798 0.036 6.74 8.25 11.11
1/4/2023 6:45:00 PM 7.11 44.798 0.036 6.73 8.33 11.11
1/4/2023 7:00:00 PM 7.1 44.78 0.036 6.74 8.44 11.12
1/4/2023 7:15:00 PM 7.09 44.762 0.036 6.74 8.25 11.12
1/4/2023 7:30:00 PM 7.09 44.762 0.036 6.75 8.22 11.12
1/4/2023 7:45:00 PM 7.08 44.744 0.036 6.74 8.33 11.12
1/4/2023 8:00:00 PM 7.08 44.744 0.036 6.76 8.14 11.12
1/4/2023 8:15:00 PM 7.09 44.762 0.036 6.8 8.09 11.12
1/4/2023 8:30:00 PM 7.09 44.762 0.036 6.74 7.94 11.12
1/4/2023 8:45:00 PM 7.1 44.78 0.036 6.74 8.12 11.12
1/4/2023 9:00:00 PM 7.09 44.762 0.036 6.74 8.06 11.12
1/4/2023 9:15:00 PM 7.09 44.762 0.036 6.75 8.28 11.12
1/4/2023 9:30:00 PM 7.09 44.762 0.036 6.74 8.32 11.12
1/4/2023 9:45:00 PM 7.09 44.762 0.036 6.72 8.18 11.12
1/4/2023 10:00:00 PM 7.08 44.744 0.036 6.68 8.01 11.12
1/4/2023 10:15:00 PM 7.07 44.726 0.036 6.79 8.08 11.13
1/4/2023 10:30:00 PM 7.06 44.708 0.036 6.7 8.08 11.13
1/4/2023 10:45:00 PM 7.06 44.708 0.036 6.7 8.06 11.13
1/4/2023 11:00:00 PM 7.05 44.69 0.036 6.72 7.94 11.13
1/4/2023 11:15:00 PM 7.05 44.69 0.036 6.74 8.01 11.13
1/4/2023 11:30:00 PM 7.06 44.708 0.036 6.66 8.29 11.14
1/4/2023 11:45:00 PM 7.07 44.726 0.036 6.77 7.79 11.14
1/5/2023 12:00:00 AM 7.07 44.726 0.036 6.73 7.71 11.15
1/5/2023 12:15:00 AM 7.06 44.708 0.036 6.68 7.82 11.14
1/5/2023 12:30:00 AM 7.05 44.69 0.036 6.71 7.94 11.15
1/5/2023 12:45:00 AM 7.05 44.69 0.036 6.71 7.59 11.16
1/5/2023 1:00:00 AM 7.04 44.672 0.036 6.73 7.53 11.16
1/5/2023 1:15:00 AM 7.02 44.636 0.036 6.74 7.25 11.16
1/5/2023 1:30:00 AM 7.01 44.618 0.036 6.75 7.39 11.17
1/5/2023 1:45:00 AM 6.98 44.564 0.036 6.75 7.46 11.17
1/5/2023 2:00:00 AM 6.95 44.51 0.036 6.75 7.42 11.17
1/5/2023 2:15:00 AM 6.92 44.456 0.036 6.74 7.51 11.19
1/5/2023 2:30:00 AM 6.9 44.42 0.036 6.73 7.33 11.2
1/5/2023 2:45:00 AM 6.87 44.366 0.036 6.71 7.13 11.2
1/5/2023 3:00:00 AM 6.83 44.294 0.036 6.8 7.34 11.22
1/5/2023 3:15:00 AM 6.79 44.222 0.036 6.73 7.13 11.23
1/5/2023 3:30:00 AM 6.75 44.15 0.036 6.74 7.18 11.24
1/5/2023 3:45:00 AM 6.71 44.078 0.036 6.74 6.9 11.25
1/5/2023 4:00:00 AM 6.66 43.988 0.036 6.74 7.15 11.27
1/5/2023 4:15:00 AM 6.62 43.916 0.036 6.74 6.87 11.29
1/5/2023 4:30:00 AM 6.57 43.826 0.036 6.75 7.01 11.3
1/5/2023 4:45:00 AM 6.53 43.754 0.036 6.74 6.78 11.31
1/5/2023 5:00:00 AM 6.49 43.682 0.036 6.74 6.86 11.33
1/5/2023 5:15:00 AM 6.46 43.628 0.036 6.74 6.77 11.33
1/5/2023 5:30:00 AM 6.41 43.538 0.036 6.81 6.67 11.34
1/5/2023 5:45:00 AM 6.37 43.466 0.036 6.75 6.91 11.36
1/5/2023 6:00:00 AM 6.33 43.394 0.036 6.74 6.56 11.38
1/5/2023 6:15:00 AM 6.3 43.34 0.036 6.83 6.47 11.39
1/5/2023 6:30:00 AM 6.27 43.286 0.036 6.72 6.36 11.39
1/5/2023 6:45:00 AM 6.25 43.25 0.036 6.7 6.51 11.41
1/5/2023 7:00:00 AM 6.22 43.196 0.036 6.76 6.44 11.42
1/5/2023 7:15:00 AM 6.2 43.16 0.036 6.75 6.34 11.43
1/5/2023 7:30:00 AM 6.17 43.106 0.036 6.79 6.38 11.43
1/5/2023 7:45:00 AM 6.15 43.07 0.036 6.73 7.12 11.44
1/5/2023 8:00:00 AM 6.14 43.052 0.036 6.64 6.16 11.45
1/5/2023 8:15:00 AM 6.13 43.034 0.036 6.78 6.15 11.48
1/5/2023 8:30:00 AM 6.13 43.034 0.036 6.77 6.13 11.5
1/5/2023 8:45:00 AM 6.15 43.07 0.036 6.78 5.87 11.53
1/5/2023 9:00:00 AM 6.17 43.106 0.036 6.76 5.8 11.56
1/5/2023 9:15:00 AM 6.19 43.142 0.036 6.77 5.68 11.58
1/5/2023 9:30:00 AM 6.22 43.196 0.036 6.84 5.75 11.6
1/5/2023 9:45:00 AM 6.25 43.25 0.036 6.77 5.64 11.61
1/5/2023 10:00:00 AM 6.28 43.304 0.036 6.86 5.57 11.62
1/5/2023 10:15:00 AM 6.3 43.34 0.036 6.79 5.44 11.62
1/5/2023 10:30:00 AM 6.33 43.394 0.036 6.82 5.74 11.63
1/5/2023 10:45:00 AM 6.36 43.448 0.036 6.76 5.49 11.62
1/5/2023 11:00:00 AM 6.4 43.52 0.036 6.75 5.39 11.62
1/5/2023 11:15:00 AM 6.44 43.592 0.036 6.75 5.49 11.62
1/5/2023 11:30:00 AM 6.46 43.628 0.036 6.85 5.27 11.6
1/5/2023 11:45:00 AM 6.49 43.682 0.036 6.79 5.32 11.58
1/5/2023 12:00:00 PM 6.54 43.772 0.036 6.83 5.24 11.58
1/5/2023 12:15:00 PM 6.58 43.844 0.036 6.8 5.45 11.59
1/5/2023 12:30:00 PM 6.59 43.862 0.036 6.82 5.14 11.58
1/5/2023 12:45:00 PM 6.6 43.88 0.036 6.8 5.13 11.57
1/5/2023 1:00:00 PM 6.63 43.934 0.036 6.81 5.17 11.57
1/5/2023 1:15:00 PM 6.66 43.988 0.036 6.79 5.24 11.55
1/5/2023 1:30:00 PM 6.7 44.06 0.036 6.87 5.14 11.54
1/5/2023 1:45:00 PM 6.74 44.132 0.036 6.81 5.15 11.53
1/5/2023 2:00:00 PM 6.76 44.168 0.036 6.81 5.08 11.52
1/5/2023 2:15:00 PM 6.78 44.204 0.036 6.87 5.25 11.51
1/5/2023 2:30:00 PM 6.8 44.24 0.036 6.85 5.19 11.51
1/5/2023 2:45:00 PM 6.82 44.276 0.036 6.84 5.01 11.5
1/5/2023 3:00:00 PM 6.81 44.258 0.036 6.82 5.03 11.48
1/5/2023 3:15:00 PM 6.8 44.24 0.036 6.84 5 11.48
1/5/2023 3:30:00 PM 6.78 44.204 0.036 6.81 5.04 11.48
1/5/2023 3:45:00 PM 6.75 44.15 0.036 6.85 5.19 11.48
1/5/2023 4:00:00 PM 6.72 44.096 0.036 6.84 5.17 11.47
1/5/2023 4:15:00 PM 6.69 44.042 0.037 6.79 5.07 11.46
1/5/2023 4:30:00 PM 6.67 44.006 0.037 6.83 5 11.45
1/5/2023 4:45:00 PM 6.66 43.988 0.037 6.84 5.13 11.42
1/5/2023 5:00:00 PM 6.64 43.952 0.037 6.82 5.1 11.4
1/5/2023 5:15:00 PM 6.62 43.916 0.037 6.84 5.23 11.37
1/5/2023 5:30:00 PM 6.6 43.88 0.037 6.84 5.01 11.36
1/5/2023 5:45:00 PM 6.56 43.808 0.037 6.8 5.09 11.36
1/5/2023 6:00:00 PM 6.52 43.736 0.037 6.79 5.09 11.36
1/5/2023 6:15:00 PM 6.47 43.646 0.037 6.78 5.12 11.37
1/5/2023 6:30:00 PM 6.43 43.574 0.037 6.79 5.22 11.37
1/5/2023 6:45:00 PM 6.39 43.502 0.037 6.78 5.27 11.38
1/5/2023 7:00:00 PM 6.35 43.43 0.037 6.85 5.22 11.39
1/5/2023 7:15:00 PM 6.32 43.376 0.037 6.77 5.17 11.39
1/5/2023 7:30:00 PM 6.28 43.304 0.037 6.79 5.25 11.41
1/5/2023 7:45:00 PM 6.24 43.232 0.037 6.79 5.06 11.42
1/5/2023 8:00:00 PM 6.19 43.142 0.037 6.76 5.04 11.43
1/5/2023 8:15:00 PM 6.15 43.07 0.037 6.77 4.92 11.44
1/5/2023 8:30:00 PM 6.11 42.998 0.037 6.77 5 11.46
1/5/2023 8:45:00 PM 6.06 42.908 0.037 6.83 5.04 11.47
1/5/2023 9:00:00 PM 6.01 42.818 0.037 6.76 5.17 11.48
1/5/2023 9:15:00 PM 5.96 42.728 0.037 6.85 5.07 11.5
1/5/2023 9:30:00 PM 5.92 42.656 0.037 6.76 5.15 11.51
1/5/2023 9:45:00 PM 5.88 42.584 0.037 6.82 4.94 11.52
1/5/2023 10:00:00 PM 5.83 42.494 0.037 6.78 4.91 11.53
1/5/2023 10:15:00 PM 5.79 42.422 0.037 6.75 5.16 11.55
1/5/2023 10:30:00 PM 5.75 42.35 0.037 6.77 4.96 11.56
1/5/2023 10:45:00 PM 5.71 42.278 0.037 6.77 5.01 11.57
1/5/2023 11:00:00 PM 5.67 42.206 0.037 6.78 5.01 11.58
1/5/2023 11:15:00 PM 5.64 42.152 0.037 6.78 5.02 11.6
1/5/2023 11:30:00 PM 5.61 42.098 0.037 6.73 4.98 11.6
1/5/2023 11:45:00 PM 5.58 42.044 0.037 6.8 5.06 11.62
1/6/2023 12:00:00 AM 5.56 42.008 0.037 6.76 4.85 11.62
1/6/2023 12:15:00 AM 5.55 41.99 0.037 6.75 4.85 11.63
1/6/2023 12:30:00 AM 5.52 41.936 0.037 6.77 5.08 11.64
1/6/2023 12:45:00 AM 5.49 41.882 0.037 6.76 4.74 11.64
1/6/2023 1:00:00 AM 5.47 41.846 0.037 6.74 4.9 11.65
1/6/2023 1:15:00 AM 5.44 41.792 0.037 6.75 4.97 11.65
1/6/2023 1:30:00 AM 5.42 41.756 0.037 6.74 4.85 11.66
1/6/2023 1:45:00 AM 5.41 41.738 0.037 6.73 4.83 11.66
1/6/2023 2:00:00 AM 5.39 41.702 0.037 6.81 4.85 11.67
1/6/2023 2:15:00 AM 5.39 41.702 0.037 6.74 4.79 11.68
1/6/2023 2:30:00 AM 5.38 41.684 0.037 6.73 4.89 11.68
1/6/2023 2:45:00 AM 5.37 41.666 0.037 6.74 4.76 11.68
1/6/2023 3:00:00 AM 5.37 41.666 0.037 6.72 4.71 11.69
1/6/2023 3:15:00 AM 5.36 41.648 0.037 6.8 4.66 11.69
1/6/2023 3:30:00 AM 5.36 41.648 0.037 6.79 4.77 11.69
1/6/2023 3:45:00 AM 5.36 41.648 0.037 6.75 4.76 11.69
1/6/2023 4:00:00 AM 5.36 41.648 0.037 6.78 4.77 11.69
1/6/2023 4:15:00 AM 5.35 41.63 0.037 6.79 4.77 11.69
1/6/2023 4:30:00 AM 5.36 41.648 0.037 6.75 4.78 11.7
1/6/2023 4:45:00 AM 5.35 41.63 0.037 6.75 4.7 11.69
1/6/2023 5:00:00 AM 5.34 41.612 0.037 6.75 4.69 11.69
1/6/2023 5:15:00 AM 5.34 41.612 0.037 6.78 4.82 11.69
1/6/2023 5:30:00 AM 5.33 41.594 0.037 6.72 4.7 11.7
1/6/2023 5:45:00 AM 5.32 41.576 0.037 6.82 4.73 11.7
1/6/2023 6:00:00 AM 5.31 41.558 0.037 6.78 4.61 11.7
1/6/2023 6:15:00 AM 5.29 41.522 0.037 6.78 4.68 11.7
1/6/2023 6:30:00 AM 5.28 41.504 0.037 6.79 4.7 11.7
1/6/2023 6:45:00 AM 5.27 41.486 0.037 6.8 4.68 11.71
1/6/2023 7:00:00 AM 5.26 41.468 0.037 6.79 4.81 11.71
1/6/2023 7:15:00 AM 5.25 41.45 0.037 6.79 4.67 11.72
1/6/2023 7:30:00 AM 5.25 41.45 0.037 6.78 4.54 11.72
1/6/2023 7:45:00 AM 5.25 41.45 0.037 6.83 4.52 11.73
1/6/2023 8:00:00 AM 5.26 41.468 0.037 6.83 4.56 11.74
1/6/2023 8:15:00 AM 5.26 41.468 0.037 6.77 4.6 11.75
1/6/2023 8:30:00 AM 5.27 41.486 0.037 6.85 4.46 11.75
1/6/2023 8:45:00 AM 5.29 41.522 0.037 6.81 4.46 11.78
1/6/2023 9:00:00 AM 5.3 41.54 0.037 6.79 4.43 11.81
1/6/2023 9:15:00 AM 5.32 41.576 0.037 6.88 4.38 11.83
1/6/2023 9:30:00 AM 5.33 41.594 0.037 6.8 4.31 11.83
1/6/2023 9:45:00 AM 5.35 41.63 0.037 6.83 4.29 11.84
1/6/2023 10:00:00 AM 5.38 41.684 0.037 6.84 4.26 11.86
1/6/2023 10:15:00 AM 5.4 41.72 0.037 6.9 4.26 11.88
1/6/2023 10:30:00 AM 5.43 41.774 0.037 6.84 4.13 11.89
1/6/2023 10:45:00 AM 5.45 41.81 0.037 6.85 4.17 11.89
1/6/2023 11:00:00 AM 5.47 41.846 0.037 6.88 4.13 11.9
1/6/2023 11:15:00 AM 5.49 41.882 0.037 6.84 4.06 11.9
1/6/2023 11:30:00 AM 5.52 41.936 0.037 6.86 4.17 11.91
1/6/2023 11:45:00 AM 5.56 42.008 0.037 6.88 4.13 11.91
1/6/2023 12:00:00 PM 5.61 42.098 0.037 6.9 4.15 11.91
1/6/2023 12:15:00 PM 5.66 42.188 0.037 6.88 4.09 11.91
1/6/2023 12:30:00 PM 5.69 42.242 0.037 6.91 4.07 11.9
1/6/2023 12:45:00 PM 5.72 42.296 0.037 6.9 4.09 11.89
1/6/2023 1:00:00 PM 5.72 42.296 0.037 6.9 4.05 11.88
1/6/2023 1:15:00 PM 5.73 42.314 0.037 6.9 4.06 11.87
1/6/2023 1:30:00 PM 5.75 42.35 0.037 6.92 4.07 11.87
1/6/2023 1:45:00 PM 5.77 42.386 0.037 6.9 4.09 11.86
1/6/2023 2:00:00 PM 5.78 42.404 0.037 6.9 4.06 11.85
1/6/2023 2:15:00 PM 5.79 42.422 0.037 6.9 3.9 11.85
1/6/2023 2:30:00 PM 5.8 42.44 0.037 6.88 4.01 11.85
1/6/2023 2:45:00 PM 5.8 42.44 0.037 6.94 4.13 11.85
1/6/2023 3:00:00 PM 5.79 42.422 0.037 6.92 4.11 11.83
1/6/2023 3:15:00 PM 5.78 42.404 0.037 6.89 3.96 11.8
1/6/2023 3:30:00 PM 5.77 42.386 0.037 6.91 4.11 11.78
1/6/2023 3:45:00 PM 5.76 42.368 0.037 6.83 3.87 11.77
1/6/2023 4:00:00 PM 5.75 42.35 0.037 6.87 4.03 11.76
1/6/2023 4:15:00 PM 5.74 42.332 0.037 6.94 4.04 11.74
1/6/2023 4:30:00 PM 5.73 42.314 0.037 6.88 4.15 11.72
1/6/2023 4:45:00 PM 5.72 42.296 0.037 6.86 3.98 11.71
1/6/2023 5:00:00 PM 5.7 42.26 0.037 6.84 4.22 11.7
1/6/2023 5:15:00 PM 5.68 42.224 0.037 6.83 4.22 11.69
1/6/2023 5:30:00 PM 5.67 42.206 0.037 6.84 4.12 11.69
1/6/2023 5:45:00 PM 5.65 42.17 0.038 6.87 4.06 11.68
1/6/2023 6:00:00 PM 5.63 42.134 0.038 6.85 4.13 11.68
1/6/2023 6:15:00 PM 5.61 42.098 0.038 6.85 4.12 11.68
1/6/2023 6:30:00 PM 5.6 42.08 0.038 6.82 4.23 11.69
1/6/2023 6:45:00 PM 5.58 42.044 0.038 6.82 4.28 11.69
1/6/2023 7:00:00 PM 5.57 42.026 0.038 6.83 4.15 11.69
1/6/2023 7:15:00 PM 5.56 42.008 0.038 6.83 4.22 11.7
1/6/2023 7:30:00 PM 5.55 41.99 0.038 6.82 4.13 11.7
1/6/2023 7:45:00 PM 5.54 41.972 0.038 6.84 4.1 11.71
1/6/2023 8:00:00 PM 5.53 41.954 0.038 6.81 3.97 11.71
1/6/2023 8:15:00 PM 5.51 41.918 0.038 6.8 4.18 11.72
1/6/2023 8:30:00 PM 5.49 41.882 0.038 6.81 4.24 11.72
1/6/2023 8:45:00 PM 5.47 41.846 0.038 6.79 4.26 11.73
1/6/2023 9:00:00 PM 5.46 41.828 0.038 6.81 4.21 11.73
1/6/2023 9:15:00 PM 5.44 41.792 0.038 6.79 4.18 11.74
1/6/2023 9:30:00 PM 5.43 41.774 0.038 6.84 4.17 11.75
1/6/2023 9:45:00 PM 5.41 41.738 0.038 6.82 4.17 11.75
1/6/2023 10:00:00 PM 5.4 41.72 0.038 6.8 4.15 11.75
1/6/2023 10:15:00 PM 5.38 41.684 0.038 6.78 4.29 11.76
1/6/2023 10:30:00 PM 5.36 41.648 0.038 6.8 4.08 11.76
1/6/2023 10:45:00 PM 5.35 41.63 0.038 6.8 4.14 11.77
1/6/2023 11:00:00 PM 5.34 41.612 0.038 6.8 4.22 11.78
1/6/2023 11:15:00 PM 5.33 41.594 0.038 6.81 4 11.78
1/6/2023 11:30:00 PM 5.32 41.576 0.038 6.8 3.97 11.79
1/6/2023 11:45:00 PM 5.31 41.558 0.038 6.82 4.03 11.78
1/7/2023 12:00:00 AM 5.3 41.54 0.038 6.8 4.07 11.78
1/7/2023 12:15:00 AM 5.25 41.45 0.038 6.77 4.19 11.79
1/7/2023 12:30:00 AM 5.23 41.414 0.038 6.77 4.13 11.8
1/7/2023 12:45:00 AM 5.22 41.396 0.038 6.77 4.13 11.81
1/7/2023 1:00:00 AM 5.21 41.378 0.038 6.79 4.18 11.8
1/7/2023 1:15:00 AM 5.21 41.378 0.038 6.81 4.1 11.81
1/7/2023 1:30:00 AM 5.21 41.378 0.038 6.81 4.21 11.81
1/7/2023 1:45:00 AM 5.2 41.36 0.038 6.87 4.09 11.81
1/7/2023 2:00:00 AM 5.2 41.36 0.038 6.78 4 11.81
1/7/2023 2:15:00 AM 5.19 41.342 0.038 6.78 4.08 11.81
1/7/2023 2:30:00 AM 5.19 41.342 0.038 6.8 4.03 11.82
1/7/2023 2:45:00 AM 5.18 41.324 0.038 6.79 4.01 11.82
1/7/2023 3:00:00 AM 5.18 41.324 0.038 6.87 3.92 11.82
1/7/2023 3:15:00 AM 5.18 41.324 0.038 6.77 4.05 11.83
1/7/2023 3:30:00 AM 5.19 41.342 0.038 6.77 3.93 11.82
1/7/2023 3:45:00 AM 5.19 41.342 0.038 6.8 4.03 11.82
1/7/2023 4:00:00 AM 5.19 41.342 0.038 6.75 3.96 11.82
1/7/2023 4:15:00 AM 5.19 41.342 0.038 6.78 4.06 11.81
1/7/2023 4:30:00 AM 5.19 41.342 0.038 6.79 4.03 11.82
1/7/2023 4:45:00 AM 5.19 41.342 0.038 6.81 4.08 11.81
1/7/2023 5:00:00 AM 5.19 41.342 0.038 6.8 3.97 11.82
1/7/2023 5:15:00 AM 5.2 41.36 0.038 6.74 4 11.82
1/7/2023 5:30:00 AM 5.2 41.36 0.038 6.81 4.05 11.81
1/7/2023 5:45:00 AM 5.2 41.36 0.038 6.75 4.1 11.82
1/7/2023 6:00:00 AM 5.2 41.36 0.038 6.77 4.03 11.82
1/7/2023 6:15:00 AM 5.19 41.342 0.038 6.8 3.9 11.82
1/7/2023 6:30:00 AM 5.19 41.342 0.038 6.78 3.98 11.82
1/7/2023 6:45:00 AM 5.19 41.342 0.038 6.77 3.9 11.82
1/7/2023 7:00:00 AM 5.19 41.342 0.038 6.78 3.94 11.83
1/7/2023 7:15:00 AM 5.18 41.324 0.038 6.8 3.95 11.83
1/7/2023 7:30:00 AM 5.18 41.324 0.038 6.82 3.98 11.83
1/7/2023 7:45:00 AM 5.17 41.306 0.038 6.8 4.01 11.84
1/7/2023 8:00:00 AM 5.17 41.306 0.038 6.8 4.01 11.84
1/7/2023 8:15:00 AM 5.17 41.306 0.038 6.82 3.88 11.86
1/7/2023 8:30:00 AM 5.17 41.306 0.038 6.82 4.03 11.88
1/7/2023 8:45:00 AM 5.18 41.324 0.038 6.8 3.72 11.91
1/7/2023 9:00:00 AM 5.19 41.342 0.038 6.82 3.85 11.94
1/7/2023 9:15:00 AM 5.21 41.378 0.038 6.85 3.78 11.97
1/7/2023 9:30:00 AM 5.23 41.414 0.038 6.85 3.61 11.99
1/7/2023 9:45:00 AM 5.25 41.45 0.038 6.82 3.72 12.01
1/7/2023 10:00:00 AM 5.27 41.486 0.038 6.87 3.68 12.02
1/7/2023 10:15:00 AM 5.28 41.504 0.038 6.86 3.74 12.03
1/7/2023 10:30:00 AM 5.3 41.54 0.038 6.87 3.63 12.03
1/7/2023 10:45:00 AM 5.32 41.576 0.038 6.91 3.91 12.04
1/7/2023 11:00:00 AM 5.34 41.612 0.038 6.88 3.7 12.04
1/7/2023 11:15:00 AM 5.36 41.648 0.038 6.9 3.62 12.04
1/7/2023 11:30:00 AM 5.38 41.684 0.038 6.88 3.47 12.04
1/7/2023 11:45:00 AM 5.4 41.72 0.038 6.91 3.68 12.04
1/7/2023 12:00:00 PM 5.42 41.756 0.038 6.9 3.58 12.04
1/7/2023 12:15:00 PM 5.44 41.792 0.038 6.94 3.57 12.04
1/7/2023 12:30:00 PM 5.48 41.864 0.038 6.89 3.53 12.04
1/7/2023 12:45:00 PM 5.51 41.918 0.038 6.95 3.7 12.04
1/7/2023 1:00:00 PM 5.54 41.972 0.038 6.92 3.55 12.03
1/7/2023 1:15:00 PM 5.56 42.008 0.038 6.92 3.62 12.02
1/7/2023 1:30:00 PM 5.57 42.026 0.038 6.96 3.66 12
1/7/2023 1:45:00 PM 5.57 42.026 0.038 6.93 3.59 11.99
1/7/2023 2:00:00 PM 5.58 42.044 0.038 6.92 3.65 11.98
1/7/2023 2:15:00 PM 5.59 42.062 0.038 6.94 3.68 11.97
1/7/2023 2:30:00 PM 5.6 42.08 0.038 6.92 3.67 11.97
1/7/2023 2:45:00 PM 5.6 42.08 0.038 6.9 3.64 11.96
1/7/2023 3:00:00 PM 5.6 42.08 0.038 6.93 3.58 11.95
1/7/2023 3:15:00 PM 5.59 42.062 0.038 6.89 3.65 11.94
1/7/2023 3:30:00 PM 5.58 42.044 0.038 6.9 3.66 11.93
1/7/2023 3:45:00 PM 5.56 42.008 0.038 6.9 3.55 11.93
1/7/2023 4:00:00 PM 5.56 42.008 0.038 6.9 3.92 11.93
1/7/2023 4:15:00 PM 5.55 41.99 0.038 6.97 3.7 11.92
1/7/2023 4:30:00 PM 5.53 41.954 0.038 6.88 3.9 11.9
1/7/2023 4:45:00 PM 5.52 41.936 0.038 6.9 3.65 11.88
1/7/2023 5:00:00 PM 5.52 41.936 0.038 6.88 3.91 11.85
1/7/2023 5:15:00 PM 5.5 41.9 0.038 6.89 3.58 11.84
1/7/2023 5:30:00 PM 5.48 41.864 0.038 6.86 3.79 11.82
1/7/2023 5:45:00 PM 5.45 41.81 0.038 6.93 3.66 11.81
1/7/2023 6:00:00 PM 5.44 41.792 0.038 6.85 3.81 11.81
1/7/2023 6:15:00 PM 5.42 41.756 0.038 6.93 3.7 11.81
1/7/2023 6:30:00 PM 5.4 41.72 0.038 6.86 3.74 11.81
1/7/2023 6:45:00 PM 5.39 41.702 0.038 6.81 3.69 11.82
1/7/2023 7:00:00 PM 5.36 41.648 0.038 6.88 3.65 11.83
1/7/2023 7:15:00 PM 5.34 41.612 0.038 6.81 3.77 11.83
1/7/2023 7:30:00 PM 5.32 41.576 0.038 6.85 3.68 11.84
1/7/2023 7:45:00 PM 5.3 41.54 0.038 6.83 3.79 11.84
1/7/2023 8:00:00 PM 5.28 41.504 0.038 6.85 3.66 11.85
1/7/2023 8:15:00 PM 5.25 41.45 0.038 6.83 3.91 11.86
1/7/2023 8:30:00 PM 5.24 41.432 0.038 6.8 3.72 11.86
1/7/2023 8:45:00 PM 5.22 41.396 0.038 6.84 3.69 11.87
1/7/2023 9:00:00 PM 5.2 41.36 0.038 6.82 3.7 11.87
1/7/2023 9:15:00 PM 5.18 41.324 0.038 6.84 3.68 11.88
1/7/2023 9:30:00 PM 5.16 41.288 0.038 6.83 3.76 11.89
1/7/2023 9:45:00 PM 5.15 41.27 0.038 6.81 3.71 11.89
1/7/2023 10:00:00 PM 5.13 41.234 0.038 6.82 3.78 11.9
1/7/2023 10:15:00 PM 5.12 41.216 0.038 6.85 3.69 11.9
1/7/2023 10:30:00 PM 5.11 41.198 0.038 6.85 3.77 11.91
1/7/2023 10:45:00 PM 5.1 41.18 0.038 6.81 3.57 11.92
1/7/2023 11:00:00 PM 5.09 41.162 0.038 6.91 3.75 11.91
1/7/2023 11:15:00 PM 5.07 41.126 0.038 6.81 3.7 11.92
1/7/2023 11:30:00 PM 5.06 41.108 0.038 6.83 3.63 11.93
1/7/2023 11:45:00 PM 5.04 41.072 0.038 6.82 3.74 11.93
1/8/2023 12:00:00 AM 5.03 41.054 0.038 6.82 3.64 11.94
1/8/2023 12:15:00 AM 5.01 41.018 0.038 6.81 3.69 11.94
1/8/2023 12:30:00 AM 5 41 0.038 6.84 3.71 11.95
1/8/2023 12:45:00 AM 4.98 40.964 0.038 6.82 3.78 11.95
1/8/2023 1:00:00 AM 4.96 40.928 0.038 6.81 3.75 11.95
1/8/2023 1:15:00 AM 4.94 40.892 0.038 6.83 3.65 11.96
1/8/2023 1:30:00 AM 4.93 40.874 0.038 6.82 3.71 11.97
1/8/2023 1:45:00 AM 4.93 40.874 0.038 6.82 3.71 11.97
1/8/2023 2:00:00 AM 4.92 40.856 0.038 6.82 3.81 11.97
1/8/2023 2:15:00 AM 4.91 40.838 0.038 6.83 3.78 11.97
1/8/2023 2:30:00 AM 4.9 40.82 0.038 6.83 3.66 11.98
1/8/2023 2:45:00 AM 4.89 40.802 0.038 6.82 3.78 11.98
1/8/2023 3:00:00 AM 4.88 40.784 0.038 6.84 3.75 11.99
1/8/2023 3:15:00 AM 4.87 40.766 0.038 6.83 3.6 11.98
1/8/2023 3:30:00 AM 4.85 40.73 0.038 6.83 3.72 12
1/8/2023 3:45:00 AM 4.84 40.712 0.038 6.82 3.69 12
1/8/2023 4:00:00 AM 4.84 40.712 0.038 6.82 3.68 12
1/8/2023 4:15:00 AM 4.83 40.694 0.038 6.88 3.75 12
1/8/2023 4:30:00 AM 4.82 40.676 0.038 6.82 3.55 12
1/8/2023 4:45:00 AM 4.81 40.658 0.038 6.83 3.77 12
1/8/2023 5:00:00 AM 4.8 40.64 0.038 6.83 3.59 12.01
1/8/2023 5:15:00 AM 4.79 40.622 0.039 6.9 3.59 12.01
1/8/2023 5:30:00 AM 4.78 40.604 0.039 6.82 3.59 12.02
1/8/2023 5:45:00 AM 4.77 40.586 0.039 6.8 3.56 12.02
1/8/2023 6:00:00 AM 4.76 40.568 0.039 6.86 3.5 12.02
1/8/2023 6:15:00 AM 4.75 40.55 0.039 6.82 3.55 12.02
1/8/2023 6:30:00 AM 4.74 40.532 0.039 6.84 3.53 12.03
1/8/2023 6:45:00 AM 4.73 40.514 0.039 6.81 3.59 12.03
1/8/2023 7:00:00 AM 4.72 40.496 0.039 6.9 3.46 12.03
1/8/2023 7:15:00 AM 4.71 40.478 0.039 6.81 3.49 12.03
1/8/2023 7:30:00 AM 4.7 40.46 0.039 6.77 3.56 12.04
1/8/2023 7:45:00 AM 4.7 40.46 0.039 6.83 3.62 12.04
1/8/2023 8:00:00 AM 4.7 40.46 0.039 6.83 3.73 12.05
1/8/2023 8:15:00 AM 4.69 40.442 0.039 6.85 3.59 12.07
1/8/2023 8:30:00 AM 4.69 40.442 0.039 6.83 3.6 12.09
1/8/2023 8:45:00 AM 4.69 40.442 0.039 6.87 3.76 12.12
1/8/2023 9:00:00 AM 4.69 40.442 0.038 6.88 3.61 12.15
1/8/2023 9:15:00 AM 4.69 40.442 0.038 6.86 3.53 12.19
1/8/2023 9:30:00 AM 4.69 40.442 0.038 6.86 3.33 12.22
1/8/2023 9:45:00 AM 4.71 40.478 0.038 6.89 3.45 12.24
1/8/2023 10:00:00 AM 4.72 40.496 0.038 6.9 3.37 12.26
1/8/2023 10:15:00 AM 4.74 40.532 0.038 6.89 3.38 12.28
1/8/2023 10:30:00 AM 4.76 40.568 0.038 6.97 3.37 12.29
1/8/2023 10:45:00 AM 4.8 40.64 0.038 6.92 3.34 12.29
1/8/2023 11:00:00 AM 4.83 40.694 0.038 6.97 3.24 12.3
1/8/2023 11:15:00 AM 4.86 40.748 0.038 6.92 3.32 12.3
1/8/2023 11:30:00 AM 4.91 40.838 0.038 6.97 3.35 12.3
1/8/2023 11:45:00 AM 4.96 40.928 0.038 6.94 3.43 12.29
1/8/2023 12:00:00 PM 4.94 40.892 0.038 7.01 3.34 12.28
1/8/2023 12:15:00 PM 5.01 41.018 0.038 6.89 3.22 12.26
1/8/2023 12:30:00 PM 5.04 41.072 0.038 6.94 3.34 12.24
1/8/2023 12:45:00 PM 5.06 41.108 0.038 6.95 3.16 12.22
1/8/2023 1:00:00 PM 5.1 41.18 0.038 6.97 3.29 12.2
1/8/2023 1:15:00 PM 5.11 41.198 0.038 6.96 3.33 12.18
1/8/2023 1:30:00 PM 5.14 41.252 0.038 6.95 3.18 12.17
1/8/2023 1:45:00 PM 5.16 41.288 0.038 6.92 3.28 12.14
1/8/2023 2:00:00 PM 5.23 41.414 0.038 6.94 3.2 12.13
1/8/2023 2:15:00 PM 5.25 41.45 0.038 6.94 3.22 12.12
1/8/2023 2:30:00 PM 5.26 41.468 0.038 7.03 3.23 12.11
1/8/2023 2:45:00 PM 5.26 41.468 0.038 6.93 3.24 12.1
1/8/2023 3:00:00 PM 5.25 41.45 0.038 6.94 3.17 12.1
1/8/2023 3:15:00 PM 5.25 41.45 0.038 6.94 3.18 12.09
1/8/2023 3:30:00 PM 5.24 41.432 0.038 6.93 3.17 12.08
1/8/2023 3:45:00 PM 5.23 41.414 0.038 6.94 3.24 12.06
1/8/2023 4:00:00 PM 5.2 41.36 0.038 6.93 3.07 12.05
1/8/2023 4:15:00 PM 5.17 41.306 0.038 6.97 3.1 12.04
1/8/2023 4:30:00 PM 5.14 41.252 0.038 6.9 3.24 12.03
1/8/2023 4:45:00 PM 5.1 41.18 0.038 6.96 3.28 12.01
1/8/2023 5:00:00 PM 5.07 41.126 0.038 6.93 3.26 11.98
1/8/2023 5:15:00 PM 5.03 41.054 0.038 6.98 3.26 11.96
1/8/2023 5:30:00 PM 4.99 40.982 0.038 6.88 3.27 11.94
1/8/2023 5:45:00 PM 4.94 40.892 0.039 6.9 3.18 11.93
1/8/2023 6:00:00 PM 4.91 40.838 0.039 6.89 3.15 11.93
1/8/2023 6:15:00 PM 4.87 40.766 0.039 6.86 3.5 11.93
1/8/2023 6:30:00 PM 4.84 40.712 0.039 6.94 3.09 11.93
1/8/2023 6:45:00 PM 4.82 40.676 0.039 6.89 3.28 11.93
1/8/2023 7:00:00 PM 4.79 40.622 0.039 6.85 3.27 11.93
1/8/2023 7:15:00 PM 4.76 40.568 0.039 6.85 3.28 11.94
1/8/2023 7:30:00 PM 4.73 40.514 0.039 6.88 3.15 11.95
1/8/2023 7:45:00 PM 4.71 40.478 0.039 6.89 3.2 11.95
1/8/2023 8:00:00 PM 4.69 40.442 0.039 6.84 3.22 11.96
1/8/2023 8:15:00 PM 4.67 40.406 0.039 6.83 3.22 11.97
1/8/2023 8:30:00 PM 4.66 40.388 0.039 6.84 3.17 11.97
1/8/2023 8:45:00 PM 4.65 40.37 0.039 6.86 3.27 11.96
1/8/2023 9:00:00 PM 4.63 40.334 0.039 6.93 3.33 11.97
1/8/2023 9:15:00 PM 4.61 40.298 0.039 6.81 3.17 11.97
1/8/2023 9:30:00 PM 4.58 40.244 0.039 6.84 3.32 11.97
1/8/2023 9:45:00 PM 4.55 40.19 0.039 6.85 3.17 11.98
1/8/2023 10:00:00 PM 4.51 40.118 0.039 6.84 3.23 11.99
1/8/2023 10:15:00 PM 4.47 40.046 0.039 6.83 3.21 11.99
1/8/2023 10:30:00 PM 4.44 39.992 0.039 6.82 3.24 12
1/8/2023 10:45:00 PM 4.4 39.92 0.039 6.8 3.2 12.01
1/8/2023 11:00:00 PM 4.37 39.866 0.039 6.91 3.1 12.02
1/8/2023 11:15:00 PM 4.35 39.83 0.039 6.85 3.27 12.03
1/8/2023 11:30:00 PM 4.33 39.794 0.039 6.8 3.12 12.04
1/8/2023 11:45:00 PM 4.32 39.776 0.039 6.84 3.08 12.05
1/9/2023 12:00:00 AM 4.32 39.776 0.039 6.83 3.34 12.05
1/9/2023 12:15:00 AM 4.31 39.758 0.039 6.83 3.18 12.05
1/9/2023 12:30:00 AM 4.3 39.74 0.039 6.91 3.21 12.06
1/9/2023 12:45:00 AM 4.3 39.74 0.039 6.82 3.13 12.05
1/9/2023 1:00:00 AM 4.29 39.722 0.039 6.78 3.13 12.05
1/9/2023 1:15:00 AM 4.28 39.704 0.039 6.82 3.12 12.05
1/9/2023 1:30:00 AM 4.26 39.668 0.039 6.83 3.18 12.06
1/9/2023 1:45:00 AM 4.25 39.65 0.039 6.8 3.09 12.06
1/9/2023 2:00:00 AM 4.24 39.632 0.039 6.8 3.1 12.06
1/9/2023 2:15:00 AM 4.23 39.614 0.039 6.83 3.12 12.07
1/9/2023 2:30:00 AM 4.23 39.614 0.039 6.81 3.13 12.07
1/9/2023 2:45:00 AM 4.22 39.596 0.039 6.82 3.1 12.07
1/9/2023 3:00:00 AM 4.21 39.578 0.039 6.8 3.14 12.07
1/9/2023 3:15:00 AM 4.19 39.542 0.039 6.82 3.29 12.07
1/9/2023 3:30:00 AM 4.18 39.524 0.039 6.84 3.07 12.07
1/9/2023 3:45:00 AM 4.15 39.47 0.039 6.82 3.2 12.08
1/9/2023 4:00:00 AM 4.14 39.452 0.039 6.82 3.13 12.08
1/9/2023 4:15:00 AM 4.13 39.434 0.039 6.85 3.25 12.08
1/9/2023 4:30:00 AM 4.13 39.434 0.039 6.81 3.07 12.08
1/9/2023 4:45:00 AM 4.13 39.434 0.039 6.85 3.1 12.09
1/9/2023 5:00:00 AM 4.13 39.434 0.039 6.84 3.01 12.09
1/9/2023 5:15:00 AM 4.13 39.434 0.039 6.81 3.07 12.09
1/9/2023 5:30:00 AM 4.13 39.434 0.039 6.83 3.04 12.09
1/9/2023 5:45:00 AM 4.14 39.452 0.039 6.84 3.03 12.09
1/9/2023 6:00:00 AM 4.13 39.434 0.039 6.83 3.04 12.09
1/9/2023 6:15:00 AM 4.13 39.434 0.039 6.82 3.11 12.09
1/9/2023 6:30:00 AM 4.14 39.452 0.039 6.82 3.23 12.09
1/9/2023 6:45:00 AM 4.14 39.452 0.039 6.82 3.1 12.09
1/9/2023 7:00:00 AM 4.12 39.416 0.039 6.83 3.16 12.09
1/9/2023 7:15:00 AM 4.11 39.398 0.039 6.86 3.13 12.11
1/9/2023 7:30:00 AM 4.1 39.38 0.039 6.82 3.11 12.11
1/9/2023 7:45:00 AM 4.1 39.38 0.039 6.83 3.01 12.11
1/9/2023 8:00:00 AM 4.09 39.362 0.039 6.82 3.16 12.13
1/9/2023 8:15:00 AM 4.09 39.362 0.039 6.86 3.32 12.15
1/9/2023 8:30:00 AM 4.09 39.362 0.039 6.84 3.15 12.18
1/9/2023 8:45:00 AM 4.08 39.344 0.039 6.9 3.15 12.21
1/9/2023 9:00:00 AM 4.08 39.344 0.039 6.86 3.07 12.24
1/9/2023 9:15:00 AM 4.09 39.362 0.039 6.87 3.1 12.28
1/9/2023 9:30:00 AM 4.1 39.38 0.039 6.97 3.12 12.32
1/9/2023 9:45:00 AM 4.1 39.38 0.039 6.91 3.04 12.34
1/9/2023 10:00:00 AM 4.11 39.398 0.039 6.95 2.95 12.36
1/9/2023 10:15:00 AM 4.13 39.434 0.039 6.93 3 12.38
1/9/2023 10:30:00 AM 4.16 39.488 0.039 6.92 2.95 12.37
1/9/2023 10:45:00 AM 4.17 39.506 0.039 6.93 2.99 12.38
1/9/2023 11:00:00 AM 4.17 39.506 0.039 7.01 2.92 12.37
1/9/2023 11:15:00 AM 4.18 39.524 0.039 6.94 2.93 12.37
1/9/2023 11:30:00 AM 4.2 39.56 0.039 6.97 2.88 12.37
1/9/2023 11:45:00 AM 4.22 39.596 0.039 6.92 2.94 12.37
1/9/2023 12:00:00 PM 4.23 39.614 0.039 6.94 2.96 12.37
1/9/2023 12:15:00 PM 4.29 39.722 0.039 7.03 2.86 12.35
1/9/2023 12:30:00 PM 4.35 39.83 0.039 6.93 2.83 12.34
1/9/2023 12:45:00 PM 4.42 39.956 0.039 6.95 2.82 12.32
1/9/2023 1:00:00 PM 4.47 40.046 0.039 6.98 2.94 12.31
1/9/2023 1:15:00 PM 4.52 40.136 0.039 6.94 2.86 12.29
1/9/2023 1:30:00 PM 4.57 40.226 0.039 6.95 2.95 12.27
1/9/2023 1:45:00 PM 4.61 40.298 0.039 6.95 2.91 12.25
1/9/2023 2:00:00 PM 4.64 40.352 0.038 6.93 2.83 12.24
1/9/2023 2:15:00 PM 4.68 40.424 0.039 6.98 2.85 12.23
1/9/2023 2:30:00 PM 4.7 40.46 0.039 6.94 2.93 12.21
1/9/2023 2:45:00 PM 4.72 40.496 0.038 6.94 2.93 12.2
1/9/2023 3:00:00 PM 4.73 40.514 0.039 6.97 2.84 12.19
1/9/2023 3:15:00 PM 4.74 40.532 0.039 6.96 2.86 12.18
1/9/2023 3:30:00 PM 4.73 40.514 0.039 6.97 2.82 12.17
1/9/2023 3:45:00 PM 4.73 40.514 0.039 6.95 2.88 12.16
1/9/2023 4:00:00 PM 4.72 40.496 0.039 6.94 2.83 12.15
1/9/2023 4:15:00 PM 4.69 40.442 0.039 6.95 2.84 12.14
1/9/2023 4:30:00 PM 4.65 40.37 0.039 6.93 2.97 12.12
1/9/2023 4:45:00 PM 4.62 40.316 0.039 6.95 2.82 12.11
1/9/2023 5:00:00 PM 4.58 40.244 0.039 7.01 2.87 12.08
1/9/2023 5:15:00 PM 4.55 40.19 0.039 6.91 2.88 12.06
1/9/2023 5:30:00 PM 4.51 40.118 0.039 6.94 2.85 12.04
1/9/2023 5:45:00 PM 4.48 40.064 0.039 6.89 2.98 12.03
1/9/2023 6:00:00 PM 4.44 39.992 0.039 6.88 3.02 12.02
1/9/2023 6:15:00 PM 4.41 39.938 0.039 6.92 2.92 12.02
1/9/2023 6:30:00 PM 4.38 39.884 0.039 6.88 3.02 12.02
1/9/2023 6:45:00 PM 4.35 39.83 0.039 6.87 3 12.02
1/9/2023 7:00:00 PM 4.32 39.776 0.039 6.95 3.15 12.03
1/9/2023 7:15:00 PM 4.29 39.722 0.039 6.89 2.95 12.04
1/9/2023 7:30:00 PM 4.27 39.686 0.039 6.87 3 12.04
1/9/2023 7:45:00 PM 4.24 39.632 0.039 6.87 3.01 12.05
1/9/2023 8:00:00 PM 4.22 39.596 0.039 6.88 2.88 12.06
1/9/2023 8:15:00 PM 4.2 39.56 0.039 6.86 2.85 12.07
1/9/2023 8:30:00 PM 4.19 39.542 0.039 6.94 2.87 12.07
1/9/2023 8:45:00 PM 4.18 39.524 0.039 6.85 2.91 12.08
1/9/2023 9:00:00 PM 4.17 39.506 0.039 6.88 3.04 12.08
1/9/2023 9:15:00 PM 4.15 39.47 0.039 6.85 3 12.09
1/9/2023 9:30:00 PM 4.13 39.434 0.039 6.86 2.94 12.1
1/9/2023 9:45:00 PM 4.12 39.416 0.039 6.86 2.94 12.11
1/9/2023 10:00:00 PM 4.11 39.398 0.039 6.85 2.92 12.11
1/9/2023 10:15:00 PM 4.09 39.362 0.039 6.93 3.01 12.11
1/9/2023 10:30:00 PM 4.09 39.362 0.039 6.85 3.02 12.12
1/9/2023 10:45:00 PM 4.08 39.344 0.039 6.93 2.88 12.13
1/9/2023 11:00:00 PM 4.09 39.362 0.039 6.84 2.97 12.12
1/9/2023 11:15:00 PM 4.08 39.344 0.039 6.85 2.9 12.12
1/9/2023 11:30:00 PM 4.09 39.362 0.039 6.85 2.84 12.12
1/9/2023 11:45:00 PM 4.09 39.362 0.039 6.85 2.95 12.13
1/10/2023 12:00:00 AM 4.09 39.362 0.039 6.85 2.86 12.12
1/10/2023 12:15:00 AM 4.09 39.362 0.039 6.81 2.95 12.12
1/10/2023 12:30:00 AM 4.08 39.344 0.039 6.85 3.03 12.13
1/10/2023 12:45:00 AM 4.08 39.344 0.039 6.76 3.07 12.13
1/10/2023 1:00:00 AM 4.08 39.344 0.039 6.83 3.01 12.13
1/10/2023 1:15:00 AM 4.08 39.344 0.039 6.84 2.96 12.13
1/10/2023 1:30:00 AM 4.08 39.344 0.039 6.84 3.09 12.13
1/10/2023 1:45:00 AM 4.09 39.362 0.039 6.83 2.94 12.13
1/10/2023 2:00:00 AM 4.09 39.362 0.039 6.85 3.03 12.13
1/10/2023 2:15:00 AM 4.08 39.344 0.039 6.82 2.93 12.14
1/10/2023 2:30:00 AM 4.09 39.362 0.039 6.8 2.96 12.13
1/10/2023 2:45:00 AM 4.09 39.362 0.039 6.83 2.93 12.13
1/10/2023 3:00:00 AM 4.09 39.362 0.039 6.86 2.87 12.14
1/10/2023 3:15:00 AM 4.09 39.362 0.039 6.84 2.88 12.13
1/10/2023 3:30:00 AM 4.09 39.362 0.039 6.92 2.93 12.14
1/10/2023 3:45:00 AM 4.08 39.344 0.039 6.84 2.89 12.14
1/10/2023 4:00:00 AM 4.08 39.344 0.039 6.84 2.95 12.14
1/10/2023 4:15:00 AM 4.08 39.344 0.039 6.83 2.98 12.14
1/10/2023 4:30:00 AM 4.08 39.344 0.039 6.84 2.92 12.14
1/10/2023 4:45:00 AM 4.08 39.344 0.039 6.84 2.89 12.14
1/10/2023 5:00:00 AM 4.08 39.344 0.039 6.93 3.08 12.13
1/10/2023 5:15:00 AM 4.08 39.344 0.039 6.84 2.89 12.14
1/10/2023 5:30:00 AM 4.08 39.344 0.039 6.87 2.96 12.14
1/10/2023 5:45:00 AM 4.08 39.344 0.039 6.84 2.92 12.14
1/10/2023 6:00:00 AM 4.08 39.344 0.039 6.83 2.95 12.14
1/10/2023 6:15:00 AM 4.08 39.344 0.039 6.85 2.97 12.14
1/10/2023 6:30:00 AM 4.08 39.344 0.039 6.84 2.9 12.13
1/10/2023 6:45:00 AM 4.08 39.344 0.039 6.84 2.97 12.14
1/10/2023 7:00:00 AM 4.09 39.362 0.039 6.87 2.92 12.14
1/10/2023 7:15:00 AM 4.09 39.362 0.039 6.84 2.89 12.14
1/10/2023 7:30:00 AM 4.09 39.362 0.039 6.91 2.98 12.14
1/10/2023 7:45:00 AM 4.09 39.362 0.039 6.88 2.98 12.14
1/10/2023 8:00:00 AM 4.09 39.362 0.039 6.81 2.93 12.14
1/10/2023 8:15:00 AM 4.09 39.362 0.039 6.93 2.8 12.16
1/10/2023 8:30:00 AM 4.09 39.362 0.039 6.83 2.86 12.17
1/10/2023 8:45:00 AM 4.1 39.38 0.039 6.87 2.88 12.18
1/10/2023 9:00:00 AM 4.11 39.398 0.039 6.86 2.8 12.21
1/10/2023 9:15:00 AM 4.12 39.416 0.039 6.87 2.78 12.25
1/10/2023 9:30:00 AM 4.14 39.452 0.039 6.88 2.78 12.28
1/10/2023 9:45:00 AM 4.16 39.488 0.039 6.97 2.77 12.31
1/10/2023 10:00:00 AM 4.19 39.542 0.039 6.91 2.77 12.33
1/10/2023 10:15:00 AM 4.21 39.578 0.039 6.91 2.79 12.35
1/10/2023 10:30:00 AM 4.24 39.632 0.039 6.93 2.78 12.36
1/10/2023 10:45:00 AM 4.26 39.668 0.039 6.94 2.71 12.37
1/10/2023 11:00:00 AM 4.29 39.722 0.039 6.95 2.78 12.37
1/10/2023 11:15:00 AM 4.32 39.776 0.039 6.95 2.71 12.37
1/10/2023 11:30:00 AM 4.35 39.83 0.039 6.95 2.65 12.37
1/10/2023 11:45:00 AM 4.37 39.866 0.039 6.96 2.72 12.37
1/10/2023 12:00:00 PM 4.4 39.92 0.039 7.04 2.72 12.36
1/10/2023 12:15:00 PM 4.43 39.974 0.039 6.96 2.75 12.36
1/10/2023 12:30:00 PM 4.47 40.046 0.039 6.99 2.73 12.35
1/10/2023 12:45:00 PM 4.5 40.1 0.039 7 2.65 12.35
1/10/2023 1:00:00 PM 4.53 40.154 0.039 7.06 2.72 12.34
1/10/2023 1:15:00 PM 4.57 40.226 0.039 6.95 2.72 12.33
1/10/2023 1:30:00 PM 4.6 40.28 0.039 6.99 2.74 12.32
1/10/2023 1:45:00 PM 4.63 40.334 0.039 6.97 2.69 12.31
1/10/2023 2:00:00 PM 4.66 40.388 0.039 6.97 2.63 12.3
1/10/2023 2:15:00 PM 4.7 40.46 0.039 7 2.65 12.29
1/10/2023 2:30:00 PM 4.73 40.514 0.039 6.96 2.71 12.28
1/10/2023 2:45:00 PM 4.76 40.568 0.039 6.95 2.61 12.27
1/10/2023 3:00:00 PM 4.78 40.604 0.039 6.96 2.97 12.25
1/10/2023 3:15:00 PM 4.8 40.64 0.039 6.94 2.72 12.24
1/10/2023 3:30:00 PM 4.82 40.676 0.039 6.94 2.68 12.22
1/10/2023 3:45:00 PM 4.83 40.694 0.039 6.99 2.64 12.19
1/10/2023 4:00:00 PM 4.84 40.712 0.039 7.06 2.78 12.17
1/10/2023 4:15:00 PM 4.84 40.712 0.039 6.95 2.76 12.14
1/10/2023 4:30:00 PM 4.83 40.694 0.039 6.95 2.64 12.1
1/10/2023 4:45:00 PM 4.82 40.676 0.039 6.95 2.81 12.07
1/10/2023 5:00:00 PM 4.81 40.658 0.039 6.95 2.65 12.03
1/10/2023 5:15:00 PM 4.81 40.658 0.039 6.96 2.71 12
1/10/2023 5:30:00 PM 4.8 40.64 0.039 6.91 2.69 11.98
1/10/2023 5:45:00 PM 4.79 40.622 0.039 6.91 2.69 11.96
1/10/2023 6:00:00 PM 4.78 40.604 0.039 6.91 2.75 11.95
1/10/2023 6:15:00 PM 4.78 40.604 0.039 6.89 2.71 11.94
1/10/2023 6:30:00 PM 4.77 40.586 0.039 6.92 2.72 11.94
1/10/2023 6:45:00 PM 4.76 40.568 0.039 6.93 2.72 11.94
1/10/2023 7:00:00 PM 4.75 40.55 0.039 6.88 2.74 11.94
1/10/2023 7:15:00 PM 4.74 40.532 0.039 6.88 2.78 11.94
1/10/2023 7:30:00 PM 4.73 40.514 0.039 6.87 2.94 11.94
1/10/2023 7:45:00 PM 4.72 40.496 0.039 6.87 2.76 11.94
1/10/2023 8:00:00 PM 4.71 40.478 0.039 6.87 2.76 11.94
1/10/2023 8:15:00 PM 4.7 40.46 0.04 6.88 2.76 11.94
1/10/2023 8:30:00 PM 4.69 40.442 0.04 6.87 2.8 11.95
1/10/2023 8:45:00 PM 4.67 40.406 0.04 6.86 2.83 11.95
1/10/2023 9:00:00 PM 4.66 40.388 0.04 6.9 2.79 11.95
1/10/2023 9:15:00 PM 4.64 40.352 0.04 6.86 2.84 11.96
1/10/2023 9:30:00 PM 4.62 40.316 0.04 6.95 2.75 11.97
1/10/2023 9:45:00 PM 4.6 40.28 0.04 6.84 2.88 11.97
1/10/2023 10:00:00 PM 4.58 40.244 0.04 6.93 2.8 11.98
1/10/2023 10:15:00 PM 4.56 40.208 0.04 6.84 2.83 11.99
1/10/2023 10:30:00 PM 4.54 40.172 0.04 6.85 2.76 12
1/10/2023 10:45:00 PM 4.53 40.154 0.04 6.88 2.77 12
1/10/2023 11:00:00 PM 4.52 40.136 0.04 6.85 2.79 12.01
1/10/2023 11:15:00 PM 4.5 40.1 0.04 6.85 2.81 12.01
1/10/2023 11:30:00 PM 4.49 40.082 0.04 6.86 2.81 12.02
1/10/2023 11:45:00 PM 4.48 40.064 0.04 6.85 2.77 12.02
1/11/2023 12:00:00 AM 4.47 40.046 0.04 6.87 2.79 12.02
1/11/2023 12:15:00 AM 4.46 40.028 0.04 6.84 2.77 12.02
1/11/2023 12:30:00 AM 4.45 40.01 0.04 6.88 2.73 12.03
1/11/2023 12:45:00 AM 4.44 39.992 0.04 6.85 2.76 12.03
1/11/2023 1:00:00 AM 4.42 39.956 0.04 6.85 2.73 12.04
1/11/2023 1:15:00 AM 4.39 39.902 0.04 6.88 2.73 12.04
1/11/2023 1:30:00 AM 4.36 39.848 0.04 6.85 2.79 12.05
1/11/2023 1:45:00 AM 4.32 39.776 0.04 6.85 2.86 12.06
1/11/2023 2:00:00 AM 4.28 39.704 0.04 6.85 2.68 12.07
1/11/2023 2:15:00 AM 4.24 39.632 0.04 6.85 2.76 12.09
1/11/2023 2:30:00 AM 4.2 39.56 0.04 6.81 2.77 12.1
1/11/2023 2:45:00 AM 4.17 39.506 0.04 6.86 2.74 12.12
1/11/2023 3:00:00 AM 4.14 39.452 0.04 6.84 2.79 12.13
1/11/2023 3:15:00 AM 4.12 39.416 0.04 6.85 2.81 12.13
1/11/2023 3:30:00 AM 4.11 39.398 0.04 6.84 2.83 12.15
1/11/2023 3:45:00 AM 4.1 39.38 0.04 6.85 2.91 12.14
1/11/2023 4:00:00 AM 4.08 39.344 0.04 6.82 2.66 12.16
1/11/2023 4:15:00 AM 4.08 39.344 0.04 6.9 2.82 12.15
1/11/2023 4:30:00 AM 4.08 39.344 0.04 6.84 2.8 12.15
1/11/2023 4:45:00 AM 4.07 39.326 0.04 6.92 2.77 12.16
1/11/2023 5:00:00 AM 4.06 39.308 0.04 6.85 2.76 12.16
1/11/2023 5:15:00 AM 4.05 39.29 0.04 6.86 2.78 12.16
1/11/2023 5:30:00 AM 4.05 39.29 0.04 6.83 2.73 12.17
1/11/2023 5:45:00 AM 4.04 39.272 0.04 6.83 2.71 12.17
1/11/2023 6:00:00 AM 4.04 39.272 0.04 6.87 2.77 12.17
1/11/2023 6:15:00 AM 4.04 39.272 0.04 6.84 2.81 12.18
1/11/2023 6:30:00 AM 4.03 39.254 0.04 6.85 2.76 12.18
1/11/2023 6:45:00 AM 4.03 39.254 0.04 6.82 2.81 12.18
1/11/2023 7:00:00 AM 4.03 39.254 0.04 6.83 2.76 12.19
1/11/2023 7:15:00 AM 4.03 39.254 0.04 6.85 2.84 12.18
1/11/2023 7:30:00 AM 4.03 39.254 0.04 6.86 2.79 12.19
1/11/2023 7:45:00 AM 4.01 39.218 0.04 6.84 2.68 12.21
1/11/2023 8:00:00 AM 4 39.2 0.04 6.85 2.72 12.24
1/11/2023 8:15:00 AM 4 39.2 0.04 6.86 2.72 12.27
1/11/2023 8:30:00 AM 3.99 39.182 0.04 6.87 2.7 12.32
1/11/2023 8:45:00 AM 3.99 39.182 0.04 6.94 2.76 12.35
1/11/2023 9:00:00 AM 3.99 39.182 0.04 6.9 2.73 12.4
1/11/2023 9:15:00 AM 4 39.2 0.04 6.98 2.71 12.44
1/11/2023 9:30:00 AM 4.02 39.236 0.04 6.93 2.81 12.45
1/11/2023 9:45:00 AM 4.05 39.29 0.04 6.93 2.74 12.48
1/11/2023 10:00:00 AM 4.09 39.362 0.039 6.93 2.64 12.5
1/11/2023 10:15:00 AM 4.13 39.434 0.039 6.93 2.65 12.5
1/11/2023 10:30:00 AM 4.17 39.506 0.039 6.95 2.65 12.5
1/11/2023 10:45:00 AM 4.23 39.614 0.039 6.96 2.65 12.5
1/11/2023 11:00:00 AM 4.28 39.704 0.039 6.99 2.56 12.5
1/11/2023 11:15:00 AM 4.34 39.812 0.039 6.98 2.61 12.48
1/11/2023 11:30:00 AM 4.4 39.92 0.039 6.98 2.67 12.47
1/11/2023 11:45:00 AM 4.46 40.028 0.039 6.98 2.58 12.45
1/11/2023 12:00:00 PM 4.52 40.136 0.039 7.01 2.55 12.44
1/11/2023 12:15:00 PM 4.58 40.244 0.039 7.01 2.62 12.42
1/11/2023 12:30:00 PM 4.65 40.37 0.039 6.99 2.61 12.4
1/11/2023 12:45:00 PM 4.7 40.46 0.039 7 2.61 12.39
1/11/2023 1:00:00 PM 4.76 40.568 0.039 6.99 2.87 12.36
1/11/2023 1:15:00 PM 4.81 40.658 0.039 7 2.71 12.35
1/11/2023 1:30:00 PM 4.86 40.748 0.039 7.02 2.59 12.33
1/11/2023 1:45:00 PM 4.91 40.838 0.039 7.01 2.68 12.31
1/11/2023 2:00:00 PM 4.95 40.91 0.039 7.02 2.59 12.3
1/11/2023 2:15:00 PM 4.97 40.946 0.039 7.01 2.6 12.28
1/11/2023 2:30:00 PM 5.01 41.018 0.039 7.04 2.66 12.26
1/11/2023 2:45:00 PM 5.02 41.036 0.039 7 2.52 12.25
1/11/2023 3:00:00 PM 5.03 41.054 0.039 7.01 2.63 12.23
1/11/2023 3:15:00 PM 5.03 41.054 0.039 6.99 2.61 12.2
1/11/2023 3:30:00 PM 5.03 41.054 0.039 7.01 2.54 12.18
1/11/2023 3:45:00 PM 5.03 41.054 0.039 6.99 2.62 12.15
1/11/2023 4:00:00 PM 5.02 41.036 0.039 7 2.62 12.13
1/11/2023 4:15:00 PM 5.01 41.018 0.039 6.99 2.55 12.1
1/11/2023 4:30:00 PM 5.01 41.018 0.039 6.95 2.53 12.08
1/11/2023 4:45:00 PM 5.01 41.018 0.039 6.99 2.62 12.06
1/11/2023 5:00:00 PM 4.99 40.982 0.039 6.94 2.57 12.03
1/11/2023 5:15:00 PM 4.97 40.946 0.039 7 2.7 12
1/11/2023 5:30:00 PM 4.93 40.874 0.039 6.94 2.65 11.97
1/11/2023 5:45:00 PM 4.89 40.802 0.04 6.91 2.64 11.95
1/11/2023 6:00:00 PM 4.84 40.712 0.04 6.99 2.6 11.94
1/11/2023 6:15:00 PM 4.79 40.622 0.04 6.89 2.71 11.93
1/11/2023 6:30:00 PM 4.75 40.55 0.04 6.98 2.64 11.94
1/11/2023 6:45:00 PM 4.71 40.478 0.04 6.9 2.64 11.94
1/11/2023 7:00:00 PM 4.68 40.424 0.04 6.97 2.74 11.95
1/11/2023 7:15:00 PM 4.64 40.352 0.04 6.93 2.7 11.96
1/11/2023 7:30:00 PM 4.61 40.298 0.04 6.89 2.69 11.96
1/11/2023 7:45:00 PM 4.58 40.244 0.04 6.89 2.63 11.97
1/11/2023 8:00:00 PM 4.56 40.208 0.04 6.91 2.69 11.97
1/11/2023 8:15:00 PM 4.54 40.172 0.04 6.91 2.74 11.98
1/11/2023 8:30:00 PM 4.52 40.136 0.04 6.9 2.63 11.99
1/11/2023 8:45:00 PM 4.51 40.118 0.04 6.9 2.73 11.99
1/11/2023 9:00:00 PM 4.5 40.1 0.04 6.91 2.72 12
1/11/2023 9:15:00 PM 4.5 40.1 0.04 6.92 2.65 12
1/11/2023 9:30:00 PM 4.49 40.082 0.04 6.92 2.76 12.01
1/11/2023 9:45:00 PM 4.48 40.064 0.04 6.86 2.65 12.01
1/11/2023 10:00:00 PM 4.47 40.046 0.04 6.86 2.69 12.01
1/11/2023 10:15:00 PM 4.46 40.028 0.04 6.88 2.73 12.02
1/11/2023 10:30:00 PM 4.43 39.974 0.04 6.89 2.72 12.02
1/11/2023 10:45:00 PM 4.42 39.956 0.04 6.86 2.68 12.03
1/11/2023 11:00:00 PM 4.39 39.902 0.04 6.88 2.66 12.03
1/11/2023 11:15:00 PM 4.38 39.884 0.04 6.86 2.66 12.04
1/11/2023 11:30:00 PM 4.36 39.848 0.04 6.86 2.65 12.04
1/11/2023 11:45:00 PM 4.34 39.812 0.04 6.86 2.64 12.05
1/12/2023 12:00:00 AM 4.33 39.794 0.04 6.93 2.62 12.05
1/12/2023 12:15:00 AM 4.32 39.776 0.04 6.88 2.67 12.05
1/12/2023 12:30:00 AM 4.32 39.776 0.04 6.73 2.62 12.05
1/12/2023 12:45:00 AM 4.32 39.776 0.04 6.84 2.66 12.06
1/12/2023 1:00:00 AM 4.32 39.776 0.04 6.86 2.71 12.06
1/12/2023 1:15:00 AM 4.32 39.776 0.04 6.89 2.66 12.05
1/12/2023 1:30:00 AM 4.31 39.758 0.04 6.87 2.77 12.05
1/12/2023 1:45:00 AM 4.31 39.758 0.04 6.92 2.65 12.05
1/12/2023 2:00:00 AM 4.31 39.758 0.04 6.86 2.69 12.05
1/12/2023 2:15:00 AM 4.31 39.758 0.04 6.91 2.61 12.05
1/12/2023 2:30:00 AM 4.31 39.758 0.04 6.87 2.65 12.05
1/12/2023 2:45:00 AM 4.31 39.758 0.04 6.93 2.67 12.05
1/12/2023 3:00:00 AM 4.32 39.776 0.04 6.87 2.75 12.05
1/12/2023 3:15:00 AM 4.32 39.776 0.04 6.86 2.67 12.05
1/12/2023 3:30:00 AM 4.32 39.776 0.04 6.87 2.63 12.05
1/12/2023 3:45:00 AM 4.32 39.776 0.04 6.88 2.63 12.05
1/12/2023 4:00:00 AM 4.32 39.776 0.04 6.93 2.66 12.05
1/12/2023 4:15:00 AM 4.32 39.776 0.04 6.88 2.66 12.04
1/12/2023 4:30:00 AM 4.33 39.794 0.04 6.89 2.61 12.04
1/12/2023 4:45:00 AM 4.33 39.794 0.04 6.85 2.69 12.04
1/12/2023 5:00:00 AM 4.33 39.794 0.04 6.86 2.65 12.04
1/12/2023 5:15:00 AM 4.34 39.812 0.04 6.86 2.69 12.04
1/12/2023 5:30:00 AM 4.34 39.812 0.04 6.85 2.61 12.04
1/12/2023 5:45:00 AM 4.34 39.812 0.04 6.84 2.65 12.04
1/12/2023 6:00:00 AM 4.34 39.812 0.04 6.86 2.64 12.04
1/12/2023 6:15:00 AM 4.34 39.812 0.04 6.84 2.68 12.03
1/12/2023 6:30:00 AM 4.35 39.83 0.04 6.88 2.67 12.03
1/12/2023 6:45:00 AM 4.35 39.83 0.04 6.84 2.73 12.03
1/12/2023 7:00:00 AM 4.36 39.848 0.04 6.88 2.65 12.03
1/12/2023 7:15:00 AM 4.36 39.848 0.04 6.85 2.67 12.02
1/12/2023 7:30:00 AM 4.37 39.866 0.04 6.85 2.66 12.03
1/12/2023 7:45:00 AM 4.37 39.866 0.04 6.88 2.7 12.02
1/12/2023 8:00:00 AM 4.38 39.884 0.04 6.88 2.72 12.03
1/12/2023 8:15:00 AM 4.39 39.902 0.04 6.86 2.74 12.03
1/12/2023 8:30:00 AM 4.39 39.902 0.04 6.86 2.77 12.05
1/12/2023 8:45:00 AM 4.39 39.902 0.04 6.95 2.7 12.06
1/12/2023 9:00:00 AM 4.4 39.92 0.04 6.88 2.69 12.07
1/12/2023 9:15:00 AM 4.41 39.938 0.04 6.89 2.68 12.09
1/12/2023 9:30:00 AM 4.42 39.956 0.04 6.88 2.68 12.1
1/12/2023 9:45:00 AM 4.43 39.974 0.04 6.89 2.56 12.11
1/12/2023 10:00:00 AM 4.44 39.992 0.04 6.89 2.59 12.13
1/12/2023 10:15:00 AM 4.46 40.028 0.04 6.89 2.57 12.15
1/12/2023 10:30:00 AM 4.48 40.064 0.04 6.91 2.54 12.17
1/12/2023 10:45:00 AM 4.49 40.082 0.04 6.91 2.62 12.18
1/12/2023 11:00:00 AM 4.51 40.118 0.04 6.93 2.54 12.2
1/12/2023 11:15:00 AM 4.52 40.136 0.04 6.94 2.55 12.19
1/12/2023 11:30:00 AM 4.55 40.19 0.04 6.96 2.52 12.2
1/12/2023 11:45:00 AM 4.56 40.208 0.04 6.94 2.57 12.21
1/12/2023 12:00:00 PM 4.58 40.244 0.04 6.97 2.56 12.21
1/12/2023 12:15:00 PM 4.6 40.28 0.04 6.98 2.58 12.21
1/12/2023 12:30:00 PM 4.62 40.316 0.04 6.96 2.53 12.21
1/12/2023 12:45:00 PM 4.63 40.334 0.04 6.97 2.52 12.2
1/12/2023 1:00:00 PM 4.65 40.37 0.04 6.99 2.55 12.2
1/12/2023 1:15:00 PM 4.67 40.406 0.04 6.96 2.58 12.2
1/12/2023 1:30:00 PM 4.69 40.442 0.04 6.96 2.59 12.18
1/12/2023 1:45:00 PM 4.7 40.46 0.04 6.97 2.47 12.18
1/12/2023 2:00:00 PM 4.73 40.514 0.04 6.97 2.55 12.17
1/12/2023 2:15:00 PM 4.74 40.532 0.04 6.97 2.52 12.16
1/12/2023 2:30:00 PM 4.75 40.55 0.04 7 2.53 12.13
1/12/2023 2:45:00 PM 4.76 40.568 0.04 6.96 2.42 12.1
1/12/2023 3:00:00 PM 4.77 40.586 0.04 6.96 2.53 12.08
1/12/2023 3:15:00 PM 4.77 40.586 0.04 6.95 2.49 12.05
1/12/2023 3:30:00 PM 4.77 40.586 0.039 6.94 2.55 12.03
1/12/2023 3:45:00 PM 4.77 40.586 0.039 6.94 2.6 12.01
1/12/2023 4:00:00 PM 4.77 40.586 0.039 6.93 2.72 11.98
1/12/2023 4:15:00 PM 4.78 40.604 0.039 6.91 2.66 11.95
1/12/2023 4:30:00 PM 4.78 40.604 0.039 6.92 2.64 11.93
1/12/2023 4:45:00 PM 4.79 40.622 0.039 6.94 2.71 11.9
1/12/2023 5:00:00 PM 4.79 40.622 0.039 6.94 2.84 11.88
1/12/2023 5:15:00 PM 4.79 40.622 0.039 6.89 2.93 11.86
1/12/2023 5:30:00 PM 4.8 40.64 0.04 6.91 3.26 11.84
1/12/2023 5:45:00 PM 4.8 40.64 0.04 6.89 3.66 11.83
1/12/2023 6:00:00 PM 4.81 40.658 0.04 6.92 3.83 11.81
1/12/2023 6:15:00 PM 4.82 40.676 0.04 6.93 3.83 11.8
1/12/2023 6:30:00 PM 4.83 40.694 0.04 6.89 3.55 11.8
1/12/2023 6:45:00 PM 4.84 40.712 0.04 6.89 3.72 11.79
1/12/2023 7:00:00 PM 4.86 40.748 0.04 6.84 3.88 11.78
1/12/2023 7:15:00 PM 4.87 40.766 0.04 6.87 4.08 11.77
1/12/2023 7:30:00 PM 4.87 40.766 0.04 6.89 4.19 11.77
1/12/2023 7:45:00 PM 4.88 40.784 0.04 6.91 4.39 11.76
1/12/2023 8:00:00 PM 4.89 40.802 0.04 6.89 4.34 11.76
1/12/2023 8:15:00 PM 4.9 40.82 0.04 6.89 4.15 11.75
1/12/2023 8:30:00 PM 4.9 40.82 0.04 6.88 4.05 11.74
1/12/2023 8:45:00 PM 4.91 40.838 0.04 6.91 4.22 11.73
1/12/2023 9:00:00 PM 4.92 40.856 0.04 6.87 4.47 11.73
1/12/2023 9:15:00 PM 4.93 40.874 0.04 6.89 4.57 11.73
1/12/2023 9:30:00 PM 4.95 40.91 0.04 6.86 4.83 11.72
1/12/2023 9:45:00 PM 4.96 40.928 0.04 6.87 4.85 11.71
1/12/2023 10:00:00 PM 4.97 40.946 0.04 6.89 5.11 11.71
1/12/2023 10:15:00 PM 4.99 40.982 0.04 6.87 5.12 11.7
1/12/2023 10:30:00 PM 5 41 0.04 6.87 4.91 11.7
1/12/2023 10:45:00 PM 5.01 41.018 0.04 6.96 4.8 11.69
1/12/2023 11:00:00 PM 5.02 41.036 0.04 6.86 4.79 11.69
1/12/2023 11:15:00 PM 5.04 41.072 0.04 6.87 4.78 11.68
1/12/2023 11:30:00 PM 5.05 41.09 0.04 6.87 4.78 11.67
1/12/2023 11:45:00 PM 5.06 41.108 0.04 6.87 4.49 11.67
1/13/2023 12:00:00 AM 5.07 41.126 0.04 6.87 4.42 11.66
1/13/2023 12:15:00 AM 5.08 41.144 0.04 6.9 4.28 11.65
1/13/2023 12:30:00 AM 5.08 41.144 0.04 6.86 4.22 11.65
1/13/2023 12:45:00 AM 5.09 41.162 0.04 6.84 4.14 11.64
1/13/2023 1:00:00 AM 5.1 41.18 0.04 6.86 4.02 11.64
1/13/2023 1:15:00 AM 5.11 41.198 0.04 6.9 4.13 11.63
1/13/2023 1:30:00 AM 5.12 41.216 0.04 6.88 3.81 11.62
1/13/2023 1:45:00 AM 5.13 41.234 0.04 6.86 3.97 11.62
1/13/2023 2:00:00 AM 5.13 41.234 0.04 6.86 3.93 11.61
1/13/2023 2:15:00 AM 5.14 41.252 0.04 6.86 3.81 11.61
1/13/2023 2:30:00 AM 5.15 41.27 0.04 6.86 3.91 11.61
1/13/2023 2:45:00 AM 5.15 41.27 0.04 6.86 3.84 11.61
1/13/2023 3:00:00 AM 5.16 41.288 0.04 6.88 3.87 11.61
1/13/2023 3:15:00 AM 5.16 41.288 0.04 6.86 3.74 11.6
1/13/2023 3:30:00 AM 5.17 41.306 0.04 6.88 3.79 11.6
1/13/2023 3:45:00 AM 5.18 41.324 0.04 6.79 3.94 11.6
1/13/2023 4:00:00 AM 5.18 41.324 0.04 6.93 3.82 11.59
1/13/2023 4:15:00 AM 5.18 41.324 0.04 6.87 3.91 11.6
1/13/2023 4:30:00 AM 5.18 41.324 0.04 6.9 3.95 11.6
1/13/2023 4:45:00 AM 5.17 41.306 0.04 6.78 4.04 11.6
1/13/2023 5:00:00 AM 5.16 41.288 0.04 6.82 3.83 11.6
1/13/2023 5:15:00 AM 5.15 41.27 0.039 6.95 4.08 11.6
1/13/2023 5:30:00 AM 5.14 41.252 0.039 6.86 4.07 11.61
1/13/2023 5:45:00 AM 5.13 41.234 0.04 6.88 4.33 11.62
1/13/2023 6:00:00 AM 5.1 41.18 0.039 6.84 4.21 11.63
1/13/2023 6:15:00 AM 5.08 41.144 0.039 6.94 4.33 11.64
1/13/2023 6:30:00 AM 5.05 41.09 0.039 6.82 4.22 11.65
1/13/2023 6:45:00 AM 5.02 41.036 0.039 6.85 4.15 11.66
1/13/2023 7:00:00 AM 4.99 40.982 0.039 6.87 4.17 11.67
1/13/2023 7:15:00 AM 4.97 40.946 0.039 6.95 4.05 11.68
1/13/2023 7:30:00 AM 4.95 40.91 0.039 6.85 4.02 11.69
1/13/2023 7:45:00 AM 4.92 40.856 0.039 6.94 4.07 11.71
1/13/2023 8:00:00 AM 4.9 40.82 0.039 6.8 4 11.73
1/13/2023 8:15:00 AM 4.88 40.784 0.039 6.85 3.93 11.73
1/13/2023 8:30:00 AM 4.86 40.748 0.039 6.84 4.01 11.76
1/13/2023 8:45:00 AM 4.84 40.712 0.039 6.92 3.93 11.82
1/13/2023 9:00:00 AM 4.82 40.676 0.039 6.87 3.78 11.88
1/13/2023 9:15:00 AM 4.81 40.658 0.039 6.89 3.93 11.93
1/13/2023 9:30:00 AM 4.79 40.622 0.039 6.9 3.72 11.95
1/13/2023 9:45:00 AM 4.77 40.586 0.039 6.9 3.64 11.97
1/13/2023 10:00:00 AM 4.75 40.55 0.039 6.94 3.73 12
1/13/2023 10:15:00 AM 4.72 40.496 0.039 6.92 3.52 12.02
1/13/2023 10:30:00 AM 4.71 40.478 0.039 6.95 3.52 12.05
1/13/2023 10:45:00 AM 4.69 40.442 0.039 7.01 3.36 12.06
1/13/2023 11:00:00 AM 4.68 40.424 0.039 6.92 3.29 12.09
1/13/2023 11:15:00 AM 4.69 40.442 0.039 6.99 3.32 12.11
1/13/2023 11:30:00 AM 4.69 40.442 0.039 6.94 3.36 12.13
1/13/2023 11:45:00 AM 4.69 40.442 0.039 6.94 3.24 12.13
1/13/2023 12:00:00 PM 4.66 40.388 0.039 7 3.2 12.13
1/13/2023 12:15:00 PM 4.65 40.37 0.039 6.99 3.13 12.13
1/13/2023 12:30:00 PM 4.63 40.334 0.039 6.96 3.14 12.13
1/13/2023 12:45:00 PM 4.6 40.28 0.039 6.97 3.15 12.14
1/13/2023 1:00:00 PM 4.56 40.208 0.039 6.92 3.08 12.15
1/13/2023 1:15:00 PM 4.55 40.19 0.039 7.02 3.04 12.16
1/13/2023 1:30:00 PM 4.54 40.172 0.039 6.96 2.94 12.18
1/13/2023 1:45:00 PM 4.53 40.154 0.039 6.96 3.02 12.19
1/13/2023 2:00:00 PM 4.52 40.136 0.039 7.04 2.98 12.2
1/13/2023 2:15:00 PM 4.5 40.1 0.039 6.96 2.99 12.2
1/13/2023 2:30:00 PM 4.48 40.064 0.039 6.99 2.96 12.19
1/13/2023 2:45:00 PM 4.46 40.028 0.039 6.96 2.96 12.19
1/13/2023 3:00:00 PM 4.44 39.992 0.039 7.03 2.98 12.18
1/13/2023 3:15:00 PM 4.42 39.956 0.039 6.97 3.02 12.18
1/13/2023 3:30:00 PM 4.38 39.884 0.039 6.96 2.87 12.18
1/13/2023 3:45:00 PM 4.35 39.83 0.039 6.94 2.93 12.17
1/13/2023 4:00:00 PM 4.32 39.776 0.04 6.92 2.95 12.15
1/13/2023 4:15:00 PM 4.3 39.74 0.04 6.94 2.89 12.13
1/13/2023 4:30:00 PM 4.27 39.686 0.04 6.93 2.88 12.1
1/13/2023 4:45:00 PM 4.23 39.614 0.04 6.93 2.89 12.09
1/13/2023 5:00:00 PM 4.2 39.56 0.04 6.9 2.87 12.08
1/13/2023 5:15:00 PM 4.17 39.506 0.04 6.97 2.94 12.07
1/13/2023 5:30:00 PM 4.14 39.452 0.04 6.91 2.97 12.07
1/13/2023 5:45:00 PM 4.11 39.398 0.04 6.89 2.86 12.07
1/13/2023 6:00:00 PM 4.07 39.326 0.04 6.89 2.87 12.08
1/13/2023 6:15:00 PM 4.04 39.272 0.04 6.88 2.88 12.08
1/13/2023 6:30:00 PM 4.01 39.218 0.04 6.88 2.87 12.08
1/13/2023 6:45:00 PM 3.98 39.164 0.04 6.87 2.84 12.1
1/13/2023 7:00:00 PM 3.96 39.128 0.04 6.86 2.87 12.1
1/13/2023 7:15:00 PM 3.92 39.056 0.04 6.87 3 12.1
1/13/2023 7:30:00 PM 3.88 38.984 0.04 6.86 2.86 12.12
1/13/2023 7:45:00 PM 3.86 38.948 0.04 6.8 2.84 12.14
1/13/2023 8:00:00 PM 3.83 38.894 0.04 6.85 2.85 12.14
1/13/2023 8:15:00 PM 3.81 38.858 0.04 6.85 2.72 12.14
1/13/2023 8:30:00 PM 3.77 38.786 0.04 6.84 2.81 12.16
1/13/2023 8:45:00 PM 3.74 38.732 0.04 6.86 2.86 12.18
1/13/2023 9:00:00 PM 3.71 38.678 0.04 6.81 2.84 12.18
1/13/2023 9:15:00 PM 3.69 38.642 0.04 6.85 2.86 12.19
1/13/2023 9:30:00 PM 3.66 38.588 0.04 6.82 2.84 12.2
1/13/2023 9:45:00 PM 3.64 38.552 0.04 6.88 2.87 12.22
1/13/2023 10:00:00 PM 3.61 38.498 0.04 6.81 2.89 12.23
1/13/2023 10:15:00 PM 3.58 38.444 0.04 6.85 2.86 12.24
1/13/2023 10:30:00 PM 3.56 38.408 0.04 6.83 2.83 12.25
1/13/2023 10:45:00 PM 3.54 38.372 0.04 6.85 2.81 12.25
1/13/2023 11:00:00 PM 3.52 38.336 0.04 6.82 2.9 12.26
1/13/2023 11:15:00 PM 3.48 38.264 0.04 6.85 2.84 12.27
1/13/2023 11:30:00 PM 3.46 38.228 0.04 6.84 2.78 12.27
1/13/2023 11:45:00 PM 3.44 38.192 0.04 6.84 2.85 12.28
1/14/2023 12:00:00 AM 3.42 38.156 0.04 6.91 2.78 12.29
1/14/2023 12:15:00 AM 3.4 38.12 0.04 6.83 2.69 12.3
1/14/2023 12:30:00 AM 3.38 38.084 0.04 6.82 2.76 12.3
1/14/2023 12:45:00 AM 3.35 38.03 0.04 6.85 2.72 12.31
1/14/2023 1:00:00 AM 3.34 38.012 0.04 6.84 2.66 12.32
1/14/2023 1:15:00 AM 3.31 37.958 0.04 6.84 2.8 12.33
1/14/2023 1:30:00 AM 3.28 37.904 0.04 6.84 2.76 12.33
1/14/2023 1:45:00 AM 3.27 37.886 0.04 6.8 2.76 12.34
1/14/2023 2:00:00 AM 3.25 37.85 0.04 6.85 2.71 12.35
1/14/2023 2:15:00 AM 3.21 37.778 0.04 6.85 2.88 12.36
1/14/2023 2:30:00 AM 3.19 37.742 0.04 6.85 2.75 12.37
1/14/2023 2:45:00 AM 3.16 37.688 0.04 6.87 2.73 12.38
1/14/2023 3:00:00 AM 3.15 37.67 0.04 6.93 2.76 12.39
1/14/2023 3:15:00 AM 3.13 37.634 0.04 6.83 2.78 12.4
1/14/2023 3:30:00 AM 3.13 37.634 0.04 6.84 2.78 12.4
1/14/2023 3:45:00 AM 3.09 37.562 0.04 6.86 2.78 12.41
1/14/2023 4:00:00 AM 3.07 37.526 0.04 6.84 2.7 12.42
1/14/2023 4:15:00 AM 3.04 37.472 0.04 6.83 2.75 12.44
1/14/2023 4:30:00 AM 3.03 37.454 0.04 6.76 2.72 12.44
1/14/2023 4:45:00 AM 3.02 37.436 0.04 6.83 2.79 12.44
1/14/2023 5:00:00 AM 3.01 37.418 0.04 6.87 2.69 12.45
1/14/2023 5:15:00 AM 2.99 37.382 0.04 6.85 2.68 12.45
1/14/2023 5:30:00 AM 2.98 37.364 0.04 6.85 2.72 12.46
1/14/2023 5:45:00 AM 2.96 37.328 0.04 6.85 2.78 12.47
1/14/2023 6:00:00 AM 2.96 37.328 0.04 6.93 2.8 12.48
1/14/2023 6:15:00 AM 2.94 37.292 0.04 6.84 2.74 12.48
1/14/2023 6:30:00 AM 2.92 37.256 0.04 6.84 2.73 12.49
1/14/2023 6:45:00 AM 2.89 37.202 0.04 6.85 2.77 12.5
1/14/2023 7:00:00 AM 2.87 37.166 0.04 6.82 2.77 12.51
1/14/2023 7:15:00 AM 2.85 37.13 0.04 6.85 2.75 12.52
1/14/2023 7:30:00 AM 2.83 37.094 0.04 6.85 2.72 12.52
1/14/2023 7:45:00 AM 2.83 37.094 0.04 6.92 2.81 12.53
1/14/2023 8:00:00 AM 2.82 37.076 0.04 6.85 2.71 12.55
1/14/2023 8:15:00 AM 2.8 37.04 0.04 6.85 2.62 12.56
1/14/2023 8:30:00 AM 2.77 36.986 0.04 6.86 2.68 12.59
1/14/2023 8:45:00 AM 2.75 36.95 0.04 6.87 2.73 12.61
1/14/2023 9:00:00 AM 2.75 36.95 0.04 6.84 2.81 12.65
1/14/2023 9:15:00 AM 2.74 36.932 0.04 6.89 2.73 12.68
1/14/2023 9:30:00 AM 2.74 36.932 0.04 6.89 2.76 12.72
1/14/2023 9:45:00 AM 2.74 36.932 0.04 6.9 2.73 12.74
1/14/2023 10:00:00 AM 2.74 36.932 0.04 6.89 2.74 12.78
1/14/2023 10:15:00 AM 2.75 36.95 0.04 6.96 2.7 12.81
1/14/2023 10:30:00 AM 2.77 36.986 0.04 6.93 2.67 12.83
1/14/2023 10:45:00 AM 2.79 37.022 0.04 6.96 2.58 12.86
1/14/2023 11:00:00 AM 2.81 37.058 0.04 6.93 2.66 12.87
1/14/2023 11:15:00 AM 2.84 37.112 0.04 6.96 2.59 12.88
1/14/2023 11:30:00 AM 2.85 37.13 0.04 6.96 2.63 12.88
1/14/2023 11:45:00 AM 2.88 37.184 0.04 6.96 2.61 12.88
1/14/2023 12:00:00 PM 2.92 37.256 0.04 6.9 2.53 12.88
1/14/2023 12:15:00 PM 2.97 37.346 0.04 6.98 2.63 12.87
1/14/2023 12:30:00 PM 2.98 37.364 0.039 6.96 2.49 12.87
1/14/2023 12:45:00 PM 3.01 37.418 0.039 6.95 2.57 12.86
1/14/2023 1:00:00 PM 3.04 37.472 0.039 6.99 2.59 12.85
1/14/2023 1:15:00 PM 3.06 37.508 0.039 6.98 2.57 12.84
1/14/2023 1:30:00 PM 3.08 37.544 0.039 6.99 2.52 12.83
1/14/2023 1:45:00 PM 3.09 37.562 0.039 6.98 2.57 12.83
1/14/2023 2:00:00 PM 3.1 37.58 0.039 6.99 2.57 12.82
1/14/2023 2:15:00 PM 3.13 37.634 0.039 7 2.55 12.81
1/14/2023 2:30:00 PM 3.15 37.67 0.039 6.96 2.6 12.8
1/14/2023 2:45:00 PM 3.15 37.67 0.039 6.98 2.56 12.79
1/14/2023 3:00:00 PM 3.16 37.688 0.039 6.98 2.56 12.79
1/14/2023 3:15:00 PM 3.16 37.688 0.039 6.99 2.57 12.78
1/14/2023 3:30:00 PM 3.17 37.706 0.039 6.98 2.57 12.77
1/14/2023 3:45:00 PM 3.17 37.706 0.039 6.98 2.68 12.77
1/14/2023 4:00:00 PM 3.15 37.67 0.039 6.96 2.6 12.76
1/14/2023 4:15:00 PM 3.14 37.652 0.039 6.98 2.53 12.75
1/14/2023 4:30:00 PM 3.12 37.616 0.039 6.95 2.6 12.72
1/14/2023 4:45:00 PM 3.11 37.598 0.039 6.96 2.86 12.69
1/14/2023 5:00:00 PM 3.09 37.562 0.039 6.94 2.59 12.65
1/14/2023 5:15:00 PM 3.06 37.508 0.039 6.92 2.64 12.63
1/14/2023 5:30:00 PM 3.04 37.472 0.04 6.93 2.57 12.6
1/14/2023 5:45:00 PM 3.02 37.436 0.04 6.91 2.67 12.59
1/14/2023 6:00:00 PM 3 37.4 0.04 6.94 2.63 12.58
1/14/2023 6:15:00 PM 2.98 37.364 0.04 6.88 2.67 12.57
1/14/2023 6:30:00 PM 2.96 37.328 0.04 6.89 2.67 12.57
1/14/2023 6:45:00 PM 2.94 37.292 0.04 6.92 2.64 12.57
1/14/2023 7:00:00 PM 2.93 37.274 0.04 6.89 2.68 12.57
1/14/2023 7:15:00 PM 2.91 37.238 0.04 6.88 2.63 12.58
1/14/2023 7:30:00 PM 2.9 37.22 0.04 6.88 2.72 12.58
1/14/2023 7:45:00 PM 2.88 37.184 0.04 6.86 2.71 12.59
1/14/2023 8:00:00 PM 2.86 37.148 0.04 6.87 2.68 12.59
1/14/2023 8:15:00 PM 2.84 37.112 0.04 6.86 2.74 12.59
1/14/2023 8:30:00 PM 2.82 37.076 0.04 6.9 2.67 12.6
1/14/2023 8:45:00 PM 2.8 37.04 0.04 6.87 2.7 12.6
1/14/2023 9:00:00 PM 2.78 37.004 0.04 6.91 2.7 12.61
1/14/2023 9:15:00 PM 2.76 36.968 0.04 6.86 2.68 12.62
1/14/2023 9:30:00 PM 2.74 36.932 0.04 6.86 2.78 12.62
1/14/2023 9:45:00 PM 2.73 36.914 0.04 6.81 2.68 12.63
1/14/2023 10:00:00 PM 2.72 36.896 0.04 6.84 2.62 12.64
1/14/2023 10:15:00 PM 2.71 36.878 0.04 6.85 2.68 12.64
1/14/2023 10:30:00 PM 2.7 36.86 0.04 6.85 2.67 12.65
1/14/2023 10:45:00 PM 2.69 36.842 0.04 6.84 2.67 12.65
1/14/2023 11:00:00 PM 2.68 36.824 0.04 6.84 2.71 12.66
1/14/2023 11:15:00 PM 2.67 36.806 0.04 6.9 2.7 12.66
1/14/2023 11:30:00 PM 2.66 36.788 0.04 6.81 2.63 12.66
1/14/2023 11:45:00 PM 2.65 36.77 0.04 6.81 2.68 12.67
1/15/2023 12:00:00 AM 2.63 36.734 0.04 6.8 2.71 12.67
1/15/2023 12:15:00 AM 2.62 36.716 0.04 6.84 2.62 12.67
1/15/2023 12:30:00 AM 2.6 36.68 0.04 6.84 2.72 12.68
1/15/2023 12:45:00 AM 2.6 36.68 0.04 6.84 2.72 12.68
1/15/2023 1:00:00 AM 2.59 36.662 0.04 6.85 2.7 12.69
1/15/2023 1:15:00 AM 2.58 36.644 0.04 6.91 2.68 12.69
1/15/2023 1:30:00 AM 2.58 36.644 0.04 6.82 2.71 12.69
1/15/2023 1:45:00 AM 2.57 36.626 0.04 6.84 2.69 12.7
1/15/2023 2:00:00 AM 2.57 36.626 0.04 6.83 2.68 12.7
1/15/2023 2:15:00 AM 2.56 36.608 0.04 6.91 2.67 12.71
1/15/2023 2:30:00 AM 2.56 36.608 0.04 6.83 2.68 12.71
1/15/2023 2:45:00 AM 2.55 36.59 0.04 6.85 2.73 12.72
1/15/2023 3:00:00 AM 2.55 36.59 0.04 6.88 2.66 12.72
1/15/2023 3:15:00 AM 2.54 36.572 0.04 6.84 2.71 12.73
1/15/2023 3:30:00 AM 2.53 36.554 0.04 6.83 2.73 12.73
1/15/2023 3:45:00 AM 2.52 36.536 0.04 6.84 2.65 12.74
1/15/2023 4:00:00 AM 2.52 36.536 0.04 6.84 2.64 12.74
1/15/2023 4:15:00 AM 2.51 36.518 0.04 6.85 2.67 12.74
1/15/2023 4:30:00 AM 2.49 36.482 0.04 6.86 2.73 12.75
1/15/2023 4:45:00 AM 2.5 36.5 0.04 6.86 2.67 12.75
1/15/2023 5:00:00 AM 2.49 36.482 0.04 6.93 2.66 12.75
1/15/2023 5:15:00 AM 2.49 36.482 0.04 6.85 2.69 12.75
1/15/2023 5:30:00 AM 2.5 36.5 0.04 6.92 2.71 12.75
1/15/2023 5:45:00 AM 2.5 36.5 0.04 6.88 2.75 12.75
1/15/2023 6:00:00 AM 2.49 36.482 0.04 6.85 2.8 12.75
1/15/2023 6:15:00 AM 2.49 36.482 0.04 6.85 2.68 12.75
1/15/2023 6:30:00 AM 2.48 36.464 0.04 6.86 2.63 12.75
1/15/2023 6:45:00 AM 2.48 36.464 0.04 6.84 2.67 12.76
1/15/2023 7:00:00 AM 2.48 36.464 0.04 6.85 2.71 12.76
1/15/2023 7:15:00 AM 2.49 36.482 0.04 6.84 2.66 12.76
1/15/2023 7:30:00 AM 2.49 36.482 0.04 6.94 2.65 12.76
1/15/2023 7:45:00 AM 2.49 36.482 0.04 6.81 2.66 12.77
1/15/2023 8:00:00 AM 2.49 36.482 0.04 6.86 2.73 12.79
1/15/2023 8:15:00 AM 2.49 36.482 0.04 6.87 2.7 12.81
1/15/2023 8:30:00 AM 2.5 36.5 0.04 6.86 2.72 12.85
1/15/2023 8:45:00 AM 2.5 36.5 0.04 6.88 2.64 12.88
1/15/2023 9:00:00 AM 2.51 36.518 0.04 6.89 2.62 12.91
1/15/2023 9:15:00 AM 2.52 36.536 0.039 6.89 2.63 12.95
1/15/2023 9:30:00 AM 2.54 36.572 0.039 6.9 2.6 12.97
1/15/2023 9:45:00 AM 2.56 36.608 0.039 6.89 2.69 13
1/15/2023 10:00:00 AM 2.59 36.662 0.039 6.93 2.59 13.01
1/15/2023 10:15:00 AM 2.61 36.698 0.039 6.93 2.64 13.03
1/15/2023 10:30:00 AM 2.66 36.788 0.039 7.02 2.56 13.02
1/15/2023 10:45:00 AM 2.66 36.788 0.039 6.97 2.59 13.02
1/15/2023 11:00:00 AM 2.69 36.842 0.039 6.96 2.56 13.01
1/15/2023 11:15:00 AM 2.72 36.896 0.039 6.95 2.53 13.01
1/15/2023 11:30:00 AM 2.78 37.004 0.039 6.95 2.53 12.98
1/15/2023 11:45:00 AM 2.83 37.094 0.039 6.95 2.52 12.97
1/15/2023 12:00:00 PM 2.87 37.166 0.039 6.95 2.52 12.95
1/15/2023 12:15:00 PM 2.92 37.256 0.039 6.96 2.52 12.94
1/15/2023 12:30:00 PM 2.97 37.346 0.039 6.94 2.53 12.92
1/15/2023 12:45:00 PM 3.04 37.472 0.039 6.97 2.5 12.9
1/15/2023 1:00:00 PM 3.11 37.598 0.039 6.96 2.51 12.87
1/15/2023 1:15:00 PM 3.18 37.724 0.039 6.98 2.51 12.85
1/15/2023 1:30:00 PM 3.24 37.832 0.039 6.9 2.56 12.83
1/15/2023 1:45:00 PM 3.29 37.922 0.039 6.95 2.59 12.81
1/15/2023 2:00:00 PM 3.33 37.994 0.039 6.95 2.5 12.79
1/15/2023 2:15:00 PM 3.38 38.084 0.039 6.95 2.48 12.76
1/15/2023 2:30:00 PM 3.42 38.156 0.039 7.02 2.48 12.75
1/15/2023 2:45:00 PM 3.45 38.21 0.039 6.97 2.6 12.72
1/15/2023 3:00:00 PM 3.48 38.264 0.039 6.96 2.62 12.71
1/15/2023 3:15:00 PM 3.51 38.318 0.039 7.03 2.55 12.69
1/15/2023 3:30:00 PM 3.52 38.336 0.039 6.97 2.5 12.67
1/15/2023 3:45:00 PM 3.54 38.372 0.039 6.96 2.57 12.66
1/15/2023 4:00:00 PM 3.53 38.354 0.039 7.03 2.58 12.65
1/15/2023 4:15:00 PM 3.52 38.336 0.039 6.95 2.51 12.63
1/15/2023 4:30:00 PM 3.5 38.3 0.039 6.95 2.54 12.62
1/15/2023 4:45:00 PM 3.47 38.246 0.039 7.02 2.63 12.6
1/15/2023 5:00:00 PM 3.44 38.192 0.039 6.91 2.52 12.59
1/15/2023 5:15:00 PM 3.41 38.138 0.039 6.96 2.62 12.56
1/15/2023 5:30:00 PM 3.38 38.084 0.039 6.91 2.54 12.53
1/15/2023 5:45:00 PM 3.35 38.03 0.039 6.93 2.66 12.52
1/15/2023 6:00:00 PM 3.33 37.994 0.039 6.9 2.56 12.51
1/15/2023 6:15:00 PM 3.29 37.922 0.039 6.88 2.63 12.5
1/15/2023 6:30:00 PM 3.27 37.886 0.039 6.9 2.61 12.5
1/15/2023 6:45:00 PM 3.24 37.832 0.039 6.87 2.58 12.51
1/15/2023 7:00:00 PM 3.21 37.778 0.039 6.87 2.61 12.51
1/15/2023 7:15:00 PM 3.18 37.724 0.039 6.87 2.61 12.52
1/15/2023 7:30:00 PM 3.16 37.688 0.039 6.9 2.59 12.53
1/15/2023 7:45:00 PM 3.12 37.616 0.039 6.86 2.6 12.53
1/15/2023 8:00:00 PM 3.09 37.562 0.039 6.85 2.68 12.54
1/15/2023 8:15:00 PM 3.05 37.49 0.039 6.84 2.61 12.55
1/15/2023 8:30:00 PM 3.02 37.436 0.04 6.84 2.64 12.56
1/15/2023 8:45:00 PM 2.98 37.364 0.04 6.86 2.61 12.57
1/15/2023 9:00:00 PM 2.94 37.292 0.04 6.85 2.63 12.58
1/15/2023 9:15:00 PM 2.9 37.22 0.04 6.85 2.59 12.59
1/15/2023 9:30:00 PM 2.86 37.148 0.04 6.82 2.6 12.6
1/15/2023 9:45:00 PM 2.82 37.076 0.04 6.85 2.64 12.61
1/15/2023 10:00:00 PM 2.78 37.004 0.04 6.9 2.63 12.63
1/15/2023 10:15:00 PM 2.74 36.932 0.04 6.81 2.68 12.64
1/15/2023 10:30:00 PM 2.7 36.86 0.04 6.85 2.7 12.66
1/15/2023 10:45:00 PM 2.67 36.806 0.04 6.86 2.69 12.67
1/15/2023 11:00:00 PM 2.63 36.734 0.04 6.84 2.56 12.68
1/15/2023 11:15:00 PM 2.59 36.662 0.04 6.86 2.56 12.69
1/15/2023 11:30:00 PM 2.55 36.59 0.04 6.85 2.62 12.71
1/15/2023 11:45:00 PM 2.51 36.518 0.04 6.84 2.64 12.72
1/16/2023 12:00:00 AM 2.48 36.464 0.04 6.93 2.67 12.73
1/16/2023 12:15:00 AM 2.44 36.392 0.04 6.85 2.61 12.74
1/16/2023 12:30:00 AM 2.4 36.32 0.04 6.83 2.61 12.76
1/16/2023 12:45:00 AM 2.36 36.248 0.04 6.81 2.65 12.77
1/16/2023 1:00:00 AM 2.33 36.194 0.04 6.84 2.61 12.78
1/16/2023 1:15:00 AM 2.29 36.122 0.04 6.78 2.7 12.8
1/16/2023 1:30:00 AM 2.25 36.05 0.04 6.84 2.62 12.81
1/16/2023 1:45:00 AM 2.21 35.978 0.04 6.79 2.63 12.82
1/16/2023 2:00:00 AM 2.17 35.906 0.04 6.77 2.59 12.83
1/16/2023 2:15:00 AM 2.13 35.834 0.04 6.75 2.57 12.84
1/16/2023 2:30:00 AM 2.09 35.762 0.04 6.83 2.63 12.86
1/16/2023 2:45:00 AM 2.05 35.69 0.04 6.86 2.57 12.88
1/16/2023 3:00:00 AM 2.01 35.618 0.04 6.83 2.59 12.89
1/16/2023 3:15:00 AM 1.98 35.564 0.04 6.81 2.54 12.9
1/16/2023 3:30:00 AM 1.94 35.492 0.04 6.8 2.57 12.92
1/16/2023 3:45:00 AM 1.91 35.438 0.04 6.81 2.56 12.93
1/16/2023 4:00:00 AM 1.88 35.384 0.04 6.8 2.63 12.94
1/16/2023 4:15:00 AM 1.85 35.33 0.04 6.8 2.59 12.95
1/16/2023 4:30:00 AM 1.83 35.294 0.04 6.89 2.67 12.96
1/16/2023 4:45:00 AM 1.81 35.258 0.04 6.81 2.6 12.97
1/16/2023 5:00:00 AM 1.79 35.222 0.04 6.89 2.57 12.98
1/16/2023 5:15:00 AM 1.77 35.186 0.04 6.8 2.59 12.99
1/16/2023 5:30:00 AM 1.75 35.15 0.04 6.8 2.57 13
1/16/2023 5:45:00 AM 1.73 35.114 0.04 6.78 2.54 13
1/16/2023 6:00:00 AM 1.71 35.078 0.04 6.89 2.59 13.01
1/16/2023 6:15:00 AM 1.69 35.042 0.04 6.81 2.54 13.02
1/16/2023 6:30:00 AM 1.67 35.006 0.04 6.8 2.58 13.02
1/16/2023 6:45:00 AM 1.66 34.988 0.04 6.89 2.58 13.03
1/16/2023 7:00:00 AM 1.64 34.952 0.04 6.83 2.62 13.04
1/16/2023 7:15:00 AM 1.63 34.934 0.04 6.78 2.62 13.04
1/16/2023 7:30:00 AM 1.61 34.898 0.04 6.8 2.66 13.05
1/16/2023 7:45:00 AM 1.6 34.88 0.04 6.81 2.57 13.06
1/16/2023 8:00:00 AM 1.59 34.862 0.04 6.88 2.57 13.08
1/16/2023 8:15:00 AM 1.58 34.844 0.04 6.82 2.58 13.1
1/16/2023 8:30:00 AM 1.57 34.826 0.04 6.89 2.6 13.13
1/16/2023 8:45:00 AM 1.57 34.826 0.04 6.82 2.6 13.16
1/16/2023 9:00:00 AM 1.56 34.808 0.04 6.8 2.54 13.18
1/16/2023 9:15:00 AM 1.56 34.808 0.04 6.81 2.52 13.2